<?xml version="1.0" encoding="UTF-8" standalone="no" ?>
<gpx xmlns="http://www.topografix.com/GPX/1/1" xmlns:xsi="http://www.w3.org/2001/XMLSchema-instance" xsi:schemaLocation="http://www.topografix.com/GPX/1/1 http://www.topografix.com/GPX/1/1/gpx.xsd" version="1.1" creator="VisuGPX - https://www.visugpx.com">
  <metadata>
    <name>Tout Thiers court 5 km 2024</name>
  </metadata>
  <trk>
    <name><![CDATA[Thiers Course à pied]]></name>
    <trkseg>
      <trkpt lat="45.85542" lon="3.54917">
        <ele>417.60000610352</ele>
        <time>2024-05-02T14:53:54.000Z</time>
      </trkpt>
      <trkpt lat="45.85541" lon="3.54915">
        <ele>417.60000610352</ele>
        <time>2024-05-02T14:53:55.000Z</time>
      </trkpt>
      <trkpt lat="45.85541" lon="3.54911">
        <ele>415.79998779297</ele>
        <time>2024-05-02T14:53:56.000Z</time>
      </trkpt>
      <trkpt lat="45.8554" lon="3.54908">
        <ele>416</ele>
        <time>2024-05-02T14:53:57.000Z</time>
      </trkpt>
      <trkpt lat="45.85539" lon="3.54904">
        <ele>415.60000610352</ele>
        <time>2024-05-02T14:53:58.000Z</time>
      </trkpt>
      <trkpt lat="45.85539" lon="3.54899">
        <ele>415.39999389648</ele>
        <time>2024-05-02T14:53:59.000Z</time>
      </trkpt>
      <trkpt lat="45.85538" lon="3.54895">
        <ele>415.39999389648</ele>
        <time>2024-05-02T14:54:00.000Z</time>
      </trkpt>
      <trkpt lat="45.85537" lon="3.54891">
        <ele>415.60000610352</ele>
        <time>2024-05-02T14:54:01.000Z</time>
      </trkpt>
      <trkpt lat="45.85536" lon="3.54887">
        <ele>415.79998779297</ele>
        <time>2024-05-02T14:54:02.000Z</time>
      </trkpt>
      <trkpt lat="45.85535" lon="3.54884">
        <ele>415.79998779297</ele>
        <time>2024-05-02T14:54:03.000Z</time>
      </trkpt>
      <trkpt lat="45.85534" lon="3.5488">
        <ele>415.79998779297</ele>
        <time>2024-05-02T14:54:04.000Z</time>
      </trkpt>
      <trkpt lat="45.85534" lon="3.54876">
        <ele>416</ele>
        <time>2024-05-02T14:54:05.000Z</time>
      </trkpt>
      <trkpt lat="45.85534" lon="3.54872">
        <ele>415.79998779297</ele>
        <time>2024-05-02T14:54:06.000Z</time>
      </trkpt>
      <trkpt lat="45.85534" lon="3.54867">
        <ele>415.79998779297</ele>
        <time>2024-05-02T14:54:07.000Z</time>
      </trkpt>
      <trkpt lat="45.85533" lon="3.54863">
        <ele>415.79998779297</ele>
        <time>2024-05-02T14:54:08.000Z</time>
      </trkpt>
      <trkpt lat="45.85532" lon="3.5486">
        <ele>415.79998779297</ele>
        <time>2024-05-02T14:54:09.000Z</time>
      </trkpt>
      <trkpt lat="45.85531" lon="3.54856">
        <ele>415.60000610352</ele>
        <time>2024-05-02T14:54:10.000Z</time>
      </trkpt>
      <trkpt lat="45.8553" lon="3.54852">
        <ele>415.39999389648</ele>
        <time>2024-05-02T14:54:11.000Z</time>
      </trkpt>
      <trkpt lat="45.85529" lon="3.54848">
        <ele>415.39999389648</ele>
        <time>2024-05-02T14:54:12.000Z</time>
      </trkpt>
      <trkpt lat="45.85528" lon="3.54844">
        <ele>415.39999389648</ele>
        <time>2024-05-02T14:54:13.000Z</time>
      </trkpt>
      <trkpt lat="45.85528" lon="3.5484">
        <ele>415.20001220703</ele>
        <time>2024-05-02T14:54:14.000Z</time>
      </trkpt>
      <trkpt lat="45.85527" lon="3.54836">
        <ele>414.79998779297</ele>
        <time>2024-05-02T14:54:15.000Z</time>
      </trkpt>
      <trkpt lat="45.85525" lon="3.54832">
        <ele>414.79998779297</ele>
        <time>2024-05-02T14:54:16.000Z</time>
      </trkpt>
      <trkpt lat="45.85525" lon="3.54828">
        <ele>414.60000610352</ele>
        <time>2024-05-02T14:54:17.000Z</time>
      </trkpt>
      <trkpt lat="45.85524" lon="3.54824">
        <ele>414.60000610352</ele>
        <time>2024-05-02T14:54:18.000Z</time>
      </trkpt>
      <trkpt lat="45.85524" lon="3.54821">
        <ele>414.39999389648</ele>
        <time>2024-05-02T14:54:19.000Z</time>
      </trkpt>
      <trkpt lat="45.85523" lon="3.54819">
        <ele>414.20001220703</ele>
        <time>2024-05-02T14:54:20.000Z</time>
      </trkpt>
      <trkpt lat="45.8552" lon="3.54816">
        <ele>414</ele>
        <time>2024-05-02T14:54:21.000Z</time>
      </trkpt>
      <trkpt lat="45.85518" lon="3.54812">
        <ele>414</ele>
        <time>2024-05-02T14:54:22.000Z</time>
      </trkpt>
      <trkpt lat="45.85516" lon="3.54808">
        <ele>413.79998779297</ele>
        <time>2024-05-02T14:54:23.000Z</time>
      </trkpt>
      <trkpt lat="45.85514" lon="3.54801">
        <ele>413.79998779297</ele>
        <time>2024-05-02T14:54:24.000Z</time>
      </trkpt>
      <trkpt lat="45.85512" lon="3.54795">
        <ele>413.60000610352</ele>
        <time>2024-05-02T14:54:25.000Z</time>
      </trkpt>
      <trkpt lat="45.8551" lon="3.54789">
        <ele>413.60000610352</ele>
        <time>2024-05-02T14:54:26.000Z</time>
      </trkpt>
      <trkpt lat="45.85508" lon="3.54784">
        <ele>413.60000610352</ele>
        <time>2024-05-02T14:54:27.000Z</time>
      </trkpt>
      <trkpt lat="45.85508" lon="3.54781">
        <ele>413.60000610352</ele>
        <time>2024-05-02T14:54:28.000Z</time>
      </trkpt>
      <trkpt lat="45.85507" lon="3.54779">
        <ele>413.39999389648</ele>
        <time>2024-05-02T14:54:29.000Z</time>
      </trkpt>
      <trkpt lat="45.85506" lon="3.54776">
        <ele>413.39999389648</ele>
        <time>2024-05-02T14:54:30.000Z</time>
      </trkpt>
      <trkpt lat="45.85505" lon="3.54773">
        <ele>413.39999389648</ele>
        <time>2024-05-02T14:54:31.000Z</time>
      </trkpt>
      <trkpt lat="45.85505" lon="3.5477">
        <ele>413.39999389648</ele>
        <time>2024-05-02T14:54:32.000Z</time>
      </trkpt>
      <trkpt lat="45.85504" lon="3.54765">
        <ele>413.20001220703</ele>
        <time>2024-05-02T14:54:33.000Z</time>
      </trkpt>
      <trkpt lat="45.85505" lon="3.54763">
        <ele>413.20001220703</ele>
        <time>2024-05-02T14:54:34.000Z</time>
      </trkpt>
      <trkpt lat="45.85505" lon="3.5476">
        <ele>413</ele>
        <time>2024-05-02T14:54:35.000Z</time>
      </trkpt>
      <trkpt lat="45.85506" lon="3.54759">
        <ele>413</ele>
        <time>2024-05-02T14:54:36.000Z</time>
      </trkpt>
      <trkpt lat="45.85506" lon="3.54757">
        <ele>412.60000610352</ele>
        <time>2024-05-02T14:54:37.000Z</time>
      </trkpt>
      <trkpt lat="45.85506" lon="3.54753">
        <ele>412.39999389648</ele>
        <time>2024-05-02T14:54:38.000Z</time>
      </trkpt>
      <trkpt lat="45.85505" lon="3.54748">
        <ele>412.39999389648</ele>
        <time>2024-05-02T14:54:39.000Z</time>
      </trkpt>
      <trkpt lat="45.85504" lon="3.54742">
        <ele>412.39999389648</ele>
        <time>2024-05-02T14:54:40.000Z</time>
      </trkpt>
      <trkpt lat="45.85503" lon="3.54735">
        <ele>412</ele>
        <time>2024-05-02T14:54:41.000Z</time>
      </trkpt>
      <trkpt lat="45.85502" lon="3.54729">
        <ele>412</ele>
        <time>2024-05-02T14:54:42.000Z</time>
      </trkpt>
      <trkpt lat="45.85501" lon="3.54722">
        <ele>411.79998779297</ele>
        <time>2024-05-02T14:54:43.000Z</time>
      </trkpt>
      <trkpt lat="45.85502" lon="3.54716">
        <ele>411.60000610352</ele>
        <time>2024-05-02T14:54:44.000Z</time>
      </trkpt>
      <trkpt lat="45.85505" lon="3.54712">
        <ele>411.60000610352</ele>
        <time>2024-05-02T14:54:45.000Z</time>
      </trkpt>
      <trkpt lat="45.85507" lon="3.54708">
        <ele>411.39999389648</ele>
        <time>2024-05-02T14:54:46.000Z</time>
      </trkpt>
      <trkpt lat="45.8551" lon="3.54704">
        <ele>411.20001220703</ele>
        <time>2024-05-02T14:54:47.000Z</time>
      </trkpt>
      <trkpt lat="45.85513" lon="3.547">
        <ele>411</ele>
        <time>2024-05-02T14:54:48.000Z</time>
      </trkpt>
      <trkpt lat="45.85516" lon="3.54696">
        <ele>411</ele>
        <time>2024-05-02T14:54:49.000Z</time>
      </trkpt>
      <trkpt lat="45.8552" lon="3.54694">
        <ele>410.79998779297</ele>
        <time>2024-05-02T14:54:50.000Z</time>
      </trkpt>
      <trkpt lat="45.85523" lon="3.54692">
        <ele>410.79998779297</ele>
        <time>2024-05-02T14:54:51.000Z</time>
      </trkpt>
      <trkpt lat="45.85526" lon="3.5469">
        <ele>410.60000610352</ele>
        <time>2024-05-02T14:54:52.000Z</time>
      </trkpt>
      <trkpt lat="45.8553" lon="3.54689">
        <ele>410.60000610352</ele>
        <time>2024-05-02T14:54:53.000Z</time>
      </trkpt>
      <trkpt lat="45.85532" lon="3.54686">
        <ele>410.60000610352</ele>
        <time>2024-05-02T14:54:54.000Z</time>
      </trkpt>
      <trkpt lat="45.85535" lon="3.54684">
        <ele>410.39999389648</ele>
        <time>2024-05-02T14:54:55.000Z</time>
      </trkpt>
      <trkpt lat="45.85538" lon="3.54681">
        <ele>410.20001220703</ele>
        <time>2024-05-02T14:54:56.000Z</time>
      </trkpt>
      <trkpt lat="45.8554" lon="3.54679">
        <ele>410.20001220703</ele>
        <time>2024-05-02T14:54:57.000Z</time>
      </trkpt>
      <trkpt lat="45.85542" lon="3.54676">
        <ele>410</ele>
        <time>2024-05-02T14:54:58.000Z</time>
      </trkpt>
      <trkpt lat="45.85544" lon="3.54673">
        <ele>409.79998779297</ele>
        <time>2024-05-02T14:54:59.000Z</time>
      </trkpt>
      <trkpt lat="45.85547" lon="3.54671">
        <ele>409.60000610352</ele>
        <time>2024-05-02T14:55:00.000Z</time>
      </trkpt>
      <trkpt lat="45.8555" lon="3.54668">
        <ele>409.79998779297</ele>
        <time>2024-05-02T14:55:01.000Z</time>
      </trkpt>
      <trkpt lat="45.85552" lon="3.54665">
        <ele>410</ele>
        <time>2024-05-02T14:55:02.000Z</time>
      </trkpt>
      <trkpt lat="45.85555" lon="3.5466">
        <ele>410</ele>
        <time>2024-05-02T14:55:03.000Z</time>
      </trkpt>
      <trkpt lat="45.85557" lon="3.54657">
        <ele>410</ele>
        <time>2024-05-02T14:55:04.000Z</time>
      </trkpt>
      <trkpt lat="45.8556" lon="3.54653">
        <ele>410.20001220703</ele>
        <time>2024-05-02T14:55:05.000Z</time>
      </trkpt>
      <trkpt lat="45.85562" lon="3.54649">
        <ele>410</ele>
        <time>2024-05-02T14:55:06.000Z</time>
      </trkpt>
      <trkpt lat="45.85564" lon="3.54645">
        <ele>409.79998779297</ele>
        <time>2024-05-02T14:55:07.000Z</time>
      </trkpt>
      <trkpt lat="45.85565" lon="3.54641">
        <ele>409.79998779297</ele>
        <time>2024-05-02T14:55:08.000Z</time>
      </trkpt>
      <trkpt lat="45.85563" lon="3.54637">
        <ele>409.79998779297</ele>
        <time>2024-05-02T14:55:09.000Z</time>
      </trkpt>
      <trkpt lat="45.8556" lon="3.54633">
        <ele>409.79998779297</ele>
        <time>2024-05-02T14:55:10.000Z</time>
      </trkpt>
      <trkpt lat="45.85557" lon="3.54629">
        <ele>410</ele>
        <time>2024-05-02T14:55:11.000Z</time>
      </trkpt>
      <trkpt lat="45.85553" lon="3.54628">
        <ele>410</ele>
        <time>2024-05-02T14:55:12.000Z</time>
      </trkpt>
      <trkpt lat="45.8555" lon="3.54629">
        <ele>410</ele>
        <time>2024-05-02T14:55:13.000Z</time>
      </trkpt>
      <trkpt lat="45.85545" lon="3.54631">
        <ele>409.79998779297</ele>
        <time>2024-05-02T14:55:14.000Z</time>
      </trkpt>
      <trkpt lat="45.85542" lon="3.54634">
        <ele>409.60000610352</ele>
        <time>2024-05-02T14:55:15.000Z</time>
      </trkpt>
      <trkpt lat="45.85539" lon="3.54637">
        <ele>409.20001220703</ele>
        <time>2024-05-02T14:55:16.000Z</time>
      </trkpt>
      <trkpt lat="45.85537" lon="3.54641">
        <ele>408.79998779297</ele>
        <time>2024-05-02T14:55:17.000Z</time>
      </trkpt>
      <trkpt lat="45.85534" lon="3.54645">
        <ele>408.39999389648</ele>
        <time>2024-05-02T14:55:18.000Z</time>
      </trkpt>
      <trkpt lat="45.85531" lon="3.54648">
        <ele>408</ele>
        <time>2024-05-02T14:55:19.000Z</time>
      </trkpt>
      <trkpt lat="45.85529" lon="3.54651">
        <ele>407.39999389648</ele>
        <time>2024-05-02T14:55:20.000Z</time>
      </trkpt>
      <trkpt lat="45.85526" lon="3.54654">
        <ele>407</ele>
        <time>2024-05-02T14:55:21.000Z</time>
      </trkpt>
      <trkpt lat="45.85523" lon="3.54657">
        <ele>406.60000610352</ele>
        <time>2024-05-02T14:55:22.000Z</time>
      </trkpt>
      <trkpt lat="45.8552" lon="3.54659">
        <ele>406.20001220703</ele>
        <time>2024-05-02T14:55:23.000Z</time>
      </trkpt>
      <trkpt lat="45.85516" lon="3.54661">
        <ele>405.60000610352</ele>
        <time>2024-05-02T14:55:24.000Z</time>
      </trkpt>
      <trkpt lat="45.85514" lon="3.54663">
        <ele>405.39999389648</ele>
        <time>2024-05-02T14:55:25.000Z</time>
      </trkpt>
      <trkpt lat="45.8551" lon="3.54665">
        <ele>405</ele>
        <time>2024-05-02T14:55:26.000Z</time>
      </trkpt>
      <trkpt lat="45.85506" lon="3.54667">
        <ele>404.60000610352</ele>
        <time>2024-05-02T14:55:27.000Z</time>
      </trkpt>
      <trkpt lat="45.85503" lon="3.54668">
        <ele>404.20001220703</ele>
        <time>2024-05-02T14:55:28.000Z</time>
      </trkpt>
      <trkpt lat="45.85499" lon="3.54668">
        <ele>403.60000610352</ele>
        <time>2024-05-02T14:55:29.000Z</time>
      </trkpt>
      <trkpt lat="45.85496" lon="3.54669">
        <ele>403.20001220703</ele>
        <time>2024-05-02T14:55:30.000Z</time>
      </trkpt>
      <trkpt lat="45.85493" lon="3.54669">
        <ele>403</ele>
        <time>2024-05-02T14:55:31.000Z</time>
      </trkpt>
      <trkpt lat="45.8549" lon="3.5467">
        <ele>402.20001220703</ele>
        <time>2024-05-02T14:55:32.000Z</time>
      </trkpt>
      <trkpt lat="45.85488" lon="3.54672">
        <ele>401.79998779297</ele>
        <time>2024-05-02T14:55:33.000Z</time>
      </trkpt>
      <trkpt lat="45.85485" lon="3.54673">
        <ele>401.20001220703</ele>
        <time>2024-05-02T14:55:34.000Z</time>
      </trkpt>
      <trkpt lat="45.85481" lon="3.54674">
        <ele>400.39999389648</ele>
        <time>2024-05-02T14:55:35.000Z</time>
      </trkpt>
      <trkpt lat="45.85478" lon="3.54674">
        <ele>399.20001220703</ele>
        <time>2024-05-02T14:55:36.000Z</time>
      </trkpt>
      <trkpt lat="45.85474" lon="3.54672">
        <ele>398.79998779297</ele>
        <time>2024-05-02T14:55:37.000Z</time>
      </trkpt>
      <trkpt lat="45.85469" lon="3.54669">
        <ele>398</ele>
        <time>2024-05-02T14:55:38.000Z</time>
      </trkpt>
      <trkpt lat="45.85465" lon="3.54667">
        <ele>397.60000610352</ele>
        <time>2024-05-02T14:55:39.000Z</time>
      </trkpt>
      <trkpt lat="45.85461" lon="3.54665">
        <ele>397</ele>
        <time>2024-05-02T14:55:40.000Z</time>
      </trkpt>
      <trkpt lat="45.85457" lon="3.54663">
        <ele>396.39999389648</ele>
        <time>2024-05-02T14:55:41.000Z</time>
      </trkpt>
      <trkpt lat="45.85453" lon="3.54661">
        <ele>395.79998779297</ele>
        <time>2024-05-02T14:55:42.000Z</time>
      </trkpt>
      <trkpt lat="45.8545" lon="3.5466">
        <ele>395.60000610352</ele>
        <time>2024-05-02T14:55:43.000Z</time>
      </trkpt>
      <trkpt lat="45.85446" lon="3.54659">
        <ele>395.20001220703</ele>
        <time>2024-05-02T14:55:44.000Z</time>
      </trkpt>
      <trkpt lat="45.85443" lon="3.54659">
        <ele>394.79998779297</ele>
        <time>2024-05-02T14:55:45.000Z</time>
      </trkpt>
      <trkpt lat="45.85439" lon="3.54659">
        <ele>394.79998779297</ele>
        <time>2024-05-02T14:55:46.000Z</time>
      </trkpt>
      <trkpt lat="45.85436" lon="3.5466">
        <ele>394.60000610352</ele>
        <time>2024-05-02T14:55:47.000Z</time>
      </trkpt>
      <trkpt lat="45.85433" lon="3.54661">
        <ele>394.39999389648</ele>
        <time>2024-05-02T14:55:48.000Z</time>
      </trkpt>
      <trkpt lat="45.85431" lon="3.54665">
        <ele>394.60000610352</ele>
        <time>2024-05-02T14:55:49.000Z</time>
      </trkpt>
      <trkpt lat="45.85429" lon="3.54667">
        <ele>394.60000610352</ele>
        <time>2024-05-02T14:55:50.000Z</time>
      </trkpt>
      <trkpt lat="45.85427" lon="3.54671">
        <ele>394.60000610352</ele>
        <time>2024-05-02T14:55:51.000Z</time>
      </trkpt>
      <trkpt lat="45.85425" lon="3.54674">
        <ele>394.60000610352</ele>
        <time>2024-05-02T14:55:52.000Z</time>
      </trkpt>
      <trkpt lat="45.85424" lon="3.54677">
        <ele>394.60000610352</ele>
        <time>2024-05-02T14:55:53.000Z</time>
      </trkpt>
      <trkpt lat="45.85422" lon="3.54681">
        <ele>394.39999389648</ele>
        <time>2024-05-02T14:55:54.000Z</time>
      </trkpt>
      <trkpt lat="45.8542" lon="3.54684">
        <ele>394.79998779297</ele>
        <time>2024-05-02T14:55:55.000Z</time>
      </trkpt>
      <trkpt lat="45.85419" lon="3.54688">
        <ele>394.79998779297</ele>
        <time>2024-05-02T14:55:56.000Z</time>
      </trkpt>
      <trkpt lat="45.85418" lon="3.54691">
        <ele>395</ele>
        <time>2024-05-02T14:55:57.000Z</time>
      </trkpt>
      <trkpt lat="45.85417" lon="3.54694">
        <ele>395</ele>
        <time>2024-05-02T14:55:58.000Z</time>
      </trkpt>
      <trkpt lat="45.85416" lon="3.54698">
        <ele>395.20001220703</ele>
        <time>2024-05-02T14:55:59.000Z</time>
      </trkpt>
      <trkpt lat="45.85414" lon="3.54702">
        <ele>395.39999389648</ele>
        <time>2024-05-02T14:56:00.000Z</time>
      </trkpt>
      <trkpt lat="45.85413" lon="3.54705">
        <ele>395.60000610352</ele>
        <time>2024-05-02T14:56:01.000Z</time>
      </trkpt>
      <trkpt lat="45.85412" lon="3.54709">
        <ele>395.79998779297</ele>
        <time>2024-05-02T14:56:02.000Z</time>
      </trkpt>
      <trkpt lat="45.8541" lon="3.54713">
        <ele>396</ele>
        <time>2024-05-02T14:56:03.000Z</time>
      </trkpt>
      <trkpt lat="45.85409" lon="3.54716">
        <ele>396.20001220703</ele>
        <time>2024-05-02T14:56:04.000Z</time>
      </trkpt>
      <trkpt lat="45.85407" lon="3.54719">
        <ele>396.39999389648</ele>
        <time>2024-05-02T14:56:05.000Z</time>
      </trkpt>
      <trkpt lat="45.85404" lon="3.54722">
        <ele>396.79998779297</ele>
        <time>2024-05-02T14:56:06.000Z</time>
      </trkpt>
      <trkpt lat="45.85402" lon="3.54725">
        <ele>397</ele>
        <time>2024-05-02T14:56:07.000Z</time>
      </trkpt>
      <trkpt lat="45.85401" lon="3.54728">
        <ele>397</ele>
        <time>2024-05-02T14:56:08.000Z</time>
      </trkpt>
      <trkpt lat="45.854" lon="3.54732">
        <ele>397.20001220703</ele>
        <time>2024-05-02T14:56:09.000Z</time>
      </trkpt>
      <trkpt lat="45.85398" lon="3.54735">
        <ele>397.39999389648</ele>
        <time>2024-05-02T14:56:10.000Z</time>
      </trkpt>
      <trkpt lat="45.85397" lon="3.54738">
        <ele>397.39999389648</ele>
        <time>2024-05-02T14:56:11.000Z</time>
      </trkpt>
      <trkpt lat="45.85396" lon="3.54742">
        <ele>397.60000610352</ele>
        <time>2024-05-02T14:56:12.000Z</time>
      </trkpt>
      <trkpt lat="45.85395" lon="3.54745">
        <ele>397.79998779297</ele>
        <time>2024-05-02T14:56:13.000Z</time>
      </trkpt>
      <trkpt lat="45.85395" lon="3.54749">
        <ele>398</ele>
        <time>2024-05-02T14:56:14.000Z</time>
      </trkpt>
      <trkpt lat="45.85396" lon="3.5475">
        <ele>398.20001220703</ele>
        <time>2024-05-02T14:56:15.000Z</time>
      </trkpt>
      <trkpt lat="45.85398" lon="3.54756">
        <ele>398.39999389648</ele>
        <time>2024-05-02T14:56:16.000Z</time>
      </trkpt>
      <trkpt lat="45.854" lon="3.54758">
        <ele>398.60000610352</ele>
        <time>2024-05-02T14:56:17.000Z</time>
      </trkpt>
      <trkpt lat="45.85403" lon="3.54759">
        <ele>399.20001220703</ele>
        <time>2024-05-02T14:56:18.000Z</time>
      </trkpt>
      <trkpt lat="45.85405" lon="3.5476">
        <ele>399.39999389648</ele>
        <time>2024-05-02T14:56:19.000Z</time>
      </trkpt>
      <trkpt lat="45.85408" lon="3.54761">
        <ele>399.60000610352</ele>
        <time>2024-05-02T14:56:20.000Z</time>
      </trkpt>
      <trkpt lat="45.8541" lon="3.54762">
        <ele>399.79998779297</ele>
        <time>2024-05-02T14:56:21.000Z</time>
      </trkpt>
      <trkpt lat="45.85412" lon="3.54763">
        <ele>400</ele>
        <time>2024-05-02T14:56:22.000Z</time>
      </trkpt>
      <trkpt lat="45.85414" lon="3.54764">
        <ele>400.20001220703</ele>
        <time>2024-05-02T14:56:23.000Z</time>
      </trkpt>
      <trkpt lat="45.85415" lon="3.54765">
        <ele>400.60000610352</ele>
        <time>2024-05-02T14:56:24.000Z</time>
      </trkpt>
      <trkpt lat="45.85416" lon="3.54768">
        <ele>401</ele>
        <time>2024-05-02T14:56:25.000Z</time>
      </trkpt>
      <trkpt lat="45.85417" lon="3.5477">
        <ele>401.39999389648</ele>
        <time>2024-05-02T14:56:26.000Z</time>
      </trkpt>
      <trkpt lat="45.85418" lon="3.54772">
        <ele>401.79998779297</ele>
        <time>2024-05-02T14:56:27.000Z</time>
      </trkpt>
      <trkpt lat="45.85419" lon="3.54774">
        <ele>402.39999389648</ele>
        <time>2024-05-02T14:56:28.000Z</time>
      </trkpt>
      <trkpt lat="45.85421" lon="3.54775">
        <ele>402.79998779297</ele>
        <time>2024-05-02T14:56:29.000Z</time>
      </trkpt>
      <trkpt lat="45.85423" lon="3.54776">
        <ele>403.20001220703</ele>
        <time>2024-05-02T14:56:30.000Z</time>
      </trkpt>
      <trkpt lat="45.85426" lon="3.54778">
        <ele>403.60000610352</ele>
        <time>2024-05-02T14:56:31.000Z</time>
      </trkpt>
      <trkpt lat="45.85428" lon="3.54779">
        <ele>404</ele>
        <time>2024-05-02T14:56:32.000Z</time>
      </trkpt>
      <trkpt lat="45.8543" lon="3.5478">
        <ele>404.20001220703</ele>
        <time>2024-05-02T14:56:33.000Z</time>
      </trkpt>
      <trkpt lat="45.85431" lon="3.5478">
        <ele>404.39999389648</ele>
        <time>2024-05-02T14:56:34.000Z</time>
      </trkpt>
      <trkpt lat="45.85431" lon="3.5478">
        <ele>404.60000610352</ele>
        <time>2024-05-02T14:56:35.000Z</time>
      </trkpt>
      <trkpt lat="45.85431" lon="3.5478">
        <ele>405</ele>
        <time>2024-05-02T14:56:36.000Z</time>
      </trkpt>
      <trkpt lat="45.8543" lon="3.54781">
        <ele>405.39999389648</ele>
        <time>2024-05-02T14:56:37.000Z</time>
      </trkpt>
      <trkpt lat="45.85428" lon="3.54781">
        <ele>405.79998779297</ele>
        <time>2024-05-02T14:56:38.000Z</time>
      </trkpt>
      <trkpt lat="45.85427" lon="3.54782">
        <ele>406</ele>
        <time>2024-05-02T14:56:39.000Z</time>
      </trkpt>
      <trkpt lat="45.85425" lon="3.54783">
        <ele>406.39999389648</ele>
        <time>2024-05-02T14:56:40.000Z</time>
      </trkpt>
      <trkpt lat="45.85422" lon="3.54783">
        <ele>407.39999389648</ele>
        <time>2024-05-02T14:56:42.000Z</time>
      </trkpt>
      <trkpt lat="45.85423" lon="3.54783">
        <ele>407.60000610352</ele>
        <time>2024-05-02T14:56:43.000Z</time>
      </trkpt>
      <trkpt lat="45.85426" lon="3.54783">
        <ele>408</ele>
        <time>2024-05-02T14:56:44.000Z</time>
      </trkpt>
      <trkpt lat="45.85428" lon="3.54782">
        <ele>408.20001220703</ele>
        <time>2024-05-02T14:56:45.000Z</time>
      </trkpt>
      <trkpt lat="45.8543" lon="3.54781">
        <ele>408.39999389648</ele>
        <time>2024-05-02T14:56:46.000Z</time>
      </trkpt>
      <trkpt lat="45.85433" lon="3.54779">
        <ele>408.79998779297</ele>
        <time>2024-05-02T14:56:47.000Z</time>
      </trkpt>
      <trkpt lat="45.85436" lon="3.54777">
        <ele>409</ele>
        <time>2024-05-02T14:56:48.000Z</time>
      </trkpt>
      <trkpt lat="45.85439" lon="3.54776">
        <ele>409.20001220703</ele>
        <time>2024-05-02T14:56:49.000Z</time>
      </trkpt>
      <trkpt lat="45.85441" lon="3.54775">
        <ele>409.39999389648</ele>
        <time>2024-05-02T14:56:50.000Z</time>
      </trkpt>
      <trkpt lat="45.85444" lon="3.54775">
        <ele>409.60000610352</ele>
        <time>2024-05-02T14:56:51.000Z</time>
      </trkpt>
      <trkpt lat="45.85446" lon="3.54776">
        <ele>409.79998779297</ele>
        <time>2024-05-02T14:56:52.000Z</time>
      </trkpt>
      <trkpt lat="45.8545" lon="3.54776">
        <ele>410.20001220703</ele>
        <time>2024-05-02T14:56:53.000Z</time>
      </trkpt>
      <trkpt lat="45.85453" lon="3.54776">
        <ele>410.39999389648</ele>
        <time>2024-05-02T14:56:54.000Z</time>
      </trkpt>
      <trkpt lat="45.85457" lon="3.54775">
        <ele>410.60000610352</ele>
        <time>2024-05-02T14:56:55.000Z</time>
      </trkpt>
      <trkpt lat="45.8546" lon="3.54775">
        <ele>410.79998779297</ele>
        <time>2024-05-02T14:56:56.000Z</time>
      </trkpt>
      <trkpt lat="45.85464" lon="3.54775">
        <ele>410.79998779297</ele>
        <time>2024-05-02T14:56:57.000Z</time>
      </trkpt>
      <trkpt lat="45.85466" lon="3.54775">
        <ele>411</ele>
        <time>2024-05-02T14:56:58.000Z</time>
      </trkpt>
      <trkpt lat="45.85469" lon="3.54773">
        <ele>411.39999389648</ele>
        <time>2024-05-02T14:56:59.000Z</time>
      </trkpt>
      <trkpt lat="45.85471" lon="3.54772">
        <ele>411.60000610352</ele>
        <time>2024-05-02T14:57:00.000Z</time>
      </trkpt>
      <trkpt lat="45.85473" lon="3.54771">
        <ele>411.79998779297</ele>
        <time>2024-05-02T14:57:01.000Z</time>
      </trkpt>
      <trkpt lat="45.85476" lon="3.5477">
        <ele>412</ele>
        <time>2024-05-02T14:57:02.000Z</time>
      </trkpt>
      <trkpt lat="45.85479" lon="3.54769">
        <ele>412</ele>
        <time>2024-05-02T14:57:03.000Z</time>
      </trkpt>
      <trkpt lat="45.85482" lon="3.54769">
        <ele>412.20001220703</ele>
        <time>2024-05-02T14:57:04.000Z</time>
      </trkpt>
      <trkpt lat="45.85484" lon="3.54769">
        <ele>412.20001220703</ele>
        <time>2024-05-02T14:57:05.000Z</time>
      </trkpt>
      <trkpt lat="45.85486" lon="3.54769">
        <ele>412.39999389648</ele>
        <time>2024-05-02T14:57:06.000Z</time>
      </trkpt>
      <trkpt lat="45.85488" lon="3.54769">
        <ele>412.39999389648</ele>
        <time>2024-05-02T14:57:07.000Z</time>
      </trkpt>
      <trkpt lat="45.8549" lon="3.54765">
        <ele>412.39999389648</ele>
        <time>2024-05-02T14:57:08.000Z</time>
      </trkpt>
      <trkpt lat="45.8549" lon="3.54762">
        <ele>412.39999389648</ele>
        <time>2024-05-02T14:57:09.000Z</time>
      </trkpt>
      <trkpt lat="45.85491" lon="3.54761">
        <ele>412.60000610352</ele>
        <time>2024-05-02T14:57:10.000Z</time>
      </trkpt>
      <trkpt lat="45.85491" lon="3.54758">
        <ele>412.60000610352</ele>
        <time>2024-05-02T14:57:11.000Z</time>
      </trkpt>
      <trkpt lat="45.85492" lon="3.54754">
        <ele>412.60000610352</ele>
        <time>2024-05-02T14:57:12.000Z</time>
      </trkpt>
      <trkpt lat="45.85493" lon="3.54751">
        <ele>412.60000610352</ele>
        <time>2024-05-02T14:57:13.000Z</time>
      </trkpt>
      <trkpt lat="45.85494" lon="3.54747">
        <ele>412.39999389648</ele>
        <time>2024-05-02T14:57:14.000Z</time>
      </trkpt>
      <trkpt lat="45.85494" lon="3.54743">
        <ele>412.39999389648</ele>
        <time>2024-05-02T14:57:15.000Z</time>
      </trkpt>
      <trkpt lat="45.85494" lon="3.54738">
        <ele>412.39999389648</ele>
        <time>2024-05-02T14:57:16.000Z</time>
      </trkpt>
      <trkpt lat="45.85494" lon="3.54735">
        <ele>412.39999389648</ele>
        <time>2024-05-02T14:57:17.000Z</time>
      </trkpt>
      <trkpt lat="45.85494" lon="3.54731">
        <ele>412.20001220703</ele>
        <time>2024-05-02T14:57:18.000Z</time>
      </trkpt>
      <trkpt lat="45.85495" lon="3.54727">
        <ele>412</ele>
        <time>2024-05-02T14:57:19.000Z</time>
      </trkpt>
      <trkpt lat="45.85495" lon="3.54724">
        <ele>412.20001220703</ele>
        <time>2024-05-02T14:57:20.000Z</time>
      </trkpt>
      <trkpt lat="45.85496" lon="3.5472">
        <ele>412</ele>
        <time>2024-05-02T14:57:21.000Z</time>
      </trkpt>
      <trkpt lat="45.85496" lon="3.54716">
        <ele>411.60000610352</ele>
        <time>2024-05-02T14:57:22.000Z</time>
      </trkpt>
      <trkpt lat="45.85497" lon="3.54712">
        <ele>411.39999389648</ele>
        <time>2024-05-02T14:57:23.000Z</time>
      </trkpt>
      <trkpt lat="45.85498" lon="3.54708">
        <ele>411.20001220703</ele>
        <time>2024-05-02T14:57:24.000Z</time>
      </trkpt>
      <trkpt lat="45.85499" lon="3.54704">
        <ele>410.79998779297</ele>
        <time>2024-05-02T14:57:25.000Z</time>
      </trkpt>
      <trkpt lat="45.85502" lon="3.547">
        <ele>410.60000610352</ele>
        <time>2024-05-02T14:57:26.000Z</time>
      </trkpt>
      <trkpt lat="45.85504" lon="3.54698">
        <ele>410.79998779297</ele>
        <time>2024-05-02T14:57:27.000Z</time>
      </trkpt>
      <trkpt lat="45.85506" lon="3.54695">
        <ele>410.79998779297</ele>
        <time>2024-05-02T14:57:28.000Z</time>
      </trkpt>
      <trkpt lat="45.85509" lon="3.54692">
        <ele>410.79998779297</ele>
        <time>2024-05-02T14:57:29.000Z</time>
      </trkpt>
      <trkpt lat="45.85511" lon="3.54689">
        <ele>410.60000610352</ele>
        <time>2024-05-02T14:57:30.000Z</time>
      </trkpt>
      <trkpt lat="45.85513" lon="3.54686">
        <ele>410.60000610352</ele>
        <time>2024-05-02T14:57:31.000Z</time>
      </trkpt>
      <trkpt lat="45.85515" lon="3.54683">
        <ele>410.39999389648</ele>
        <time>2024-05-02T14:57:32.000Z</time>
      </trkpt>
      <trkpt lat="45.85518" lon="3.54681">
        <ele>410.20001220703</ele>
        <time>2024-05-02T14:57:33.000Z</time>
      </trkpt>
      <trkpt lat="45.85521" lon="3.54679">
        <ele>409.79998779297</ele>
        <time>2024-05-02T14:57:34.000Z</time>
      </trkpt>
      <trkpt lat="45.85524" lon="3.54678">
        <ele>409.79998779297</ele>
        <time>2024-05-02T14:57:35.000Z</time>
      </trkpt>
      <trkpt lat="45.85527" lon="3.54676">
        <ele>409.60000610352</ele>
        <time>2024-05-02T14:57:36.000Z</time>
      </trkpt>
      <trkpt lat="45.85529" lon="3.54674">
        <ele>409.39999389648</ele>
        <time>2024-05-02T14:57:37.000Z</time>
      </trkpt>
      <trkpt lat="45.85533" lon="3.54671">
        <ele>409.60000610352</ele>
        <time>2024-05-02T14:57:38.000Z</time>
      </trkpt>
      <trkpt lat="45.85535" lon="3.5467">
        <ele>409.79998779297</ele>
        <time>2024-05-02T14:57:39.000Z</time>
      </trkpt>
      <trkpt lat="45.85537" lon="3.54667">
        <ele>409.79998779297</ele>
        <time>2024-05-02T14:57:40.000Z</time>
      </trkpt>
      <trkpt lat="45.85539" lon="3.54665">
        <ele>409.79998779297</ele>
        <time>2024-05-02T14:57:41.000Z</time>
      </trkpt>
      <trkpt lat="45.85542" lon="3.54665">
        <ele>409.79998779297</ele>
        <time>2024-05-02T14:57:42.000Z</time>
      </trkpt>
      <trkpt lat="45.85545" lon="3.54664">
        <ele>409.79998779297</ele>
        <time>2024-05-02T14:57:43.000Z</time>
      </trkpt>
      <trkpt lat="45.85548" lon="3.54663">
        <ele>409.60000610352</ele>
        <time>2024-05-02T14:57:44.000Z</time>
      </trkpt>
      <trkpt lat="45.85551" lon="3.54662">
        <ele>409.79998779297</ele>
        <time>2024-05-02T14:57:45.000Z</time>
      </trkpt>
      <trkpt lat="45.85554" lon="3.54661">
        <ele>409.79998779297</ele>
        <time>2024-05-02T14:57:46.000Z</time>
      </trkpt>
      <trkpt lat="45.85557" lon="3.54658">
        <ele>409.79998779297</ele>
        <time>2024-05-02T14:57:47.000Z</time>
      </trkpt>
      <trkpt lat="45.85561" lon="3.54659">
        <ele>409.79998779297</ele>
        <time>2024-05-02T14:57:48.000Z</time>
      </trkpt>
      <trkpt lat="45.85565" lon="3.54659">
        <ele>409.79998779297</ele>
        <time>2024-05-02T14:57:49.000Z</time>
      </trkpt>
      <trkpt lat="45.85569" lon="3.54659">
        <ele>409.79998779297</ele>
        <time>2024-05-02T14:57:50.000Z</time>
      </trkpt>
      <trkpt lat="45.85573" lon="3.54657">
        <ele>410</ele>
        <time>2024-05-02T14:57:51.000Z</time>
      </trkpt>
      <trkpt lat="45.85576" lon="3.54657">
        <ele>410.20001220703</ele>
        <time>2024-05-02T14:57:52.000Z</time>
      </trkpt>
      <trkpt lat="45.85576" lon="3.54654">
        <ele>410.20001220703</ele>
        <time>2024-05-02T14:57:53.000Z</time>
      </trkpt>
      <trkpt lat="45.85579" lon="3.54648">
        <ele>410.20001220703</ele>
        <time>2024-05-02T14:57:54.000Z</time>
      </trkpt>
      <trkpt lat="45.85581" lon="3.54645">
        <ele>410</ele>
        <time>2024-05-02T14:57:55.000Z</time>
      </trkpt>
      <trkpt lat="45.85584" lon="3.54642">
        <ele>410</ele>
        <time>2024-05-02T14:57:56.000Z</time>
      </trkpt>
      <trkpt lat="45.85587" lon="3.5464">
        <ele>409.79998779297</ele>
        <time>2024-05-02T14:57:57.000Z</time>
      </trkpt>
      <trkpt lat="45.85588" lon="3.54637">
        <ele>409.60000610352</ele>
        <time>2024-05-02T14:57:58.000Z</time>
      </trkpt>
      <trkpt lat="45.85591" lon="3.54634">
        <ele>409.60000610352</ele>
        <time>2024-05-02T14:57:59.000Z</time>
      </trkpt>
      <trkpt lat="45.85593" lon="3.54631">
        <ele>409.60000610352</ele>
        <time>2024-05-02T14:58:00.000Z</time>
      </trkpt>
      <trkpt lat="45.85596" lon="3.54629">
        <ele>409.60000610352</ele>
        <time>2024-05-02T14:58:01.000Z</time>
      </trkpt>
      <trkpt lat="45.85599" lon="3.54627">
        <ele>409.39999389648</ele>
        <time>2024-05-02T14:58:02.000Z</time>
      </trkpt>
      <trkpt lat="45.85601" lon="3.54625">
        <ele>409.39999389648</ele>
        <time>2024-05-02T14:58:03.000Z</time>
      </trkpt>
      <trkpt lat="45.85604" lon="3.54623">
        <ele>409.20001220703</ele>
        <time>2024-05-02T14:58:04.000Z</time>
      </trkpt>
      <trkpt lat="45.85608" lon="3.54621">
        <ele>409.20001220703</ele>
        <time>2024-05-02T14:58:05.000Z</time>
      </trkpt>
      <trkpt lat="45.8561" lon="3.54619">
        <ele>409</ele>
        <time>2024-05-02T14:58:06.000Z</time>
      </trkpt>
      <trkpt lat="45.85612" lon="3.54617">
        <ele>408.60000610352</ele>
        <time>2024-05-02T14:58:07.000Z</time>
      </trkpt>
      <trkpt lat="45.85615" lon="3.54615">
        <ele>408.39999389648</ele>
        <time>2024-05-02T14:58:08.000Z</time>
      </trkpt>
      <trkpt lat="45.85617" lon="3.54614">
        <ele>408</ele>
        <time>2024-05-02T14:58:09.000Z</time>
      </trkpt>
      <trkpt lat="45.8562" lon="3.54612">
        <ele>407.79998779297</ele>
        <time>2024-05-02T14:58:10.000Z</time>
      </trkpt>
      <trkpt lat="45.85623" lon="3.5461">
        <ele>408</ele>
        <time>2024-05-02T14:58:11.000Z</time>
      </trkpt>
      <trkpt lat="45.85626" lon="3.54608">
        <ele>408.20001220703</ele>
        <time>2024-05-02T14:58:12.000Z</time>
      </trkpt>
      <trkpt lat="45.85629" lon="3.54606">
        <ele>408.20001220703</ele>
        <time>2024-05-02T14:58:13.000Z</time>
      </trkpt>
      <trkpt lat="45.85632" lon="3.54603">
        <ele>408</ele>
        <time>2024-05-02T14:58:14.000Z</time>
      </trkpt>
      <trkpt lat="45.85634" lon="3.54601">
        <ele>407.79998779297</ele>
        <time>2024-05-02T14:58:15.000Z</time>
      </trkpt>
      <trkpt lat="45.85637" lon="3.54598">
        <ele>407.60000610352</ele>
        <time>2024-05-02T14:58:16.000Z</time>
      </trkpt>
      <trkpt lat="45.8564" lon="3.54595">
        <ele>407.39999389648</ele>
        <time>2024-05-02T14:58:17.000Z</time>
      </trkpt>
      <trkpt lat="45.85643" lon="3.54592">
        <ele>407.20001220703</ele>
        <time>2024-05-02T14:58:18.000Z</time>
      </trkpt>
      <trkpt lat="45.85646" lon="3.54591">
        <ele>407.20001220703</ele>
        <time>2024-05-02T14:58:19.000Z</time>
      </trkpt>
      <trkpt lat="45.85649" lon="3.5459">
        <ele>406.79998779297</ele>
        <time>2024-05-02T14:58:20.000Z</time>
      </trkpt>
      <trkpt lat="45.85653" lon="3.54589">
        <ele>406.39999389648</ele>
        <time>2024-05-02T14:58:21.000Z</time>
      </trkpt>
      <trkpt lat="45.85656" lon="3.54588">
        <ele>406.20001220703</ele>
        <time>2024-05-02T14:58:22.000Z</time>
      </trkpt>
      <trkpt lat="45.85659" lon="3.54586">
        <ele>406</ele>
        <time>2024-05-02T14:58:23.000Z</time>
      </trkpt>
      <trkpt lat="45.85661" lon="3.54585">
        <ele>405.60000610352</ele>
        <time>2024-05-02T14:58:24.000Z</time>
      </trkpt>
      <trkpt lat="45.85664" lon="3.54583">
        <ele>405.60000610352</ele>
        <time>2024-05-02T14:58:25.000Z</time>
      </trkpt>
      <trkpt lat="45.85668" lon="3.54582">
        <ele>405.60000610352</ele>
        <time>2024-05-02T14:58:26.000Z</time>
      </trkpt>
      <trkpt lat="45.85671" lon="3.54582">
        <ele>405.20001220703</ele>
        <time>2024-05-02T14:58:27.000Z</time>
      </trkpt>
      <trkpt lat="45.85674" lon="3.5458">
        <ele>404.79998779297</ele>
        <time>2024-05-02T14:58:28.000Z</time>
      </trkpt>
      <trkpt lat="45.85678" lon="3.54577">
        <ele>404.60000610352</ele>
        <time>2024-05-02T14:58:29.000Z</time>
      </trkpt>
      <trkpt lat="45.85681" lon="3.54575">
        <ele>404.20001220703</ele>
        <time>2024-05-02T14:58:30.000Z</time>
      </trkpt>
      <trkpt lat="45.85683" lon="3.54573">
        <ele>404.39999389648</ele>
        <time>2024-05-02T14:58:31.000Z</time>
      </trkpt>
      <trkpt lat="45.85685" lon="3.54569">
        <ele>404.39999389648</ele>
        <time>2024-05-02T14:58:32.000Z</time>
      </trkpt>
      <trkpt lat="45.85686" lon="3.54565">
        <ele>404.39999389648</ele>
        <time>2024-05-02T14:58:33.000Z</time>
      </trkpt>
      <trkpt lat="45.85688" lon="3.54561">
        <ele>404.20001220703</ele>
        <time>2024-05-02T14:58:34.000Z</time>
      </trkpt>
      <trkpt lat="45.85692" lon="3.54559">
        <ele>404</ele>
        <time>2024-05-02T14:58:35.000Z</time>
      </trkpt>
      <trkpt lat="45.85696" lon="3.54556">
        <ele>403.60000610352</ele>
        <time>2024-05-02T14:58:36.000Z</time>
      </trkpt>
      <trkpt lat="45.85699" lon="3.54554">
        <ele>403.39999389648</ele>
        <time>2024-05-02T14:58:37.000Z</time>
      </trkpt>
      <trkpt lat="45.85701" lon="3.54551">
        <ele>403.20001220703</ele>
        <time>2024-05-02T14:58:38.000Z</time>
      </trkpt>
      <trkpt lat="45.85703" lon="3.54548">
        <ele>403</ele>
        <time>2024-05-02T14:58:39.000Z</time>
      </trkpt>
      <trkpt lat="45.85705" lon="3.54544">
        <ele>403</ele>
        <time>2024-05-02T14:58:40.000Z</time>
      </trkpt>
      <trkpt lat="45.85707" lon="3.5454">
        <ele>403</ele>
        <time>2024-05-02T14:58:41.000Z</time>
      </trkpt>
      <trkpt lat="45.85708" lon="3.54536">
        <ele>402.60000610352</ele>
        <time>2024-05-02T14:58:42.000Z</time>
      </trkpt>
      <trkpt lat="45.8571" lon="3.54532">
        <ele>402.20001220703</ele>
        <time>2024-05-02T14:58:43.000Z</time>
      </trkpt>
      <trkpt lat="45.85711" lon="3.54528">
        <ele>402</ele>
        <time>2024-05-02T14:58:44.000Z</time>
      </trkpt>
      <trkpt lat="45.85713" lon="3.54524">
        <ele>402</ele>
        <time>2024-05-02T14:58:45.000Z</time>
      </trkpt>
      <trkpt lat="45.85713" lon="3.5452">
        <ele>401.79998779297</ele>
        <time>2024-05-02T14:58:46.000Z</time>
      </trkpt>
      <trkpt lat="45.85715" lon="3.54516">
        <ele>401.79998779297</ele>
        <time>2024-05-02T14:58:47.000Z</time>
      </trkpt>
      <trkpt lat="45.85716" lon="3.54513">
        <ele>401.79998779297</ele>
        <time>2024-05-02T14:58:48.000Z</time>
      </trkpt>
      <trkpt lat="45.85718" lon="3.54509">
        <ele>401.79998779297</ele>
        <time>2024-05-02T14:58:49.000Z</time>
      </trkpt>
      <trkpt lat="45.8572" lon="3.54506">
        <ele>401.20001220703</ele>
        <time>2024-05-02T14:58:50.000Z</time>
      </trkpt>
      <trkpt lat="45.85721" lon="3.54502">
        <ele>401</ele>
        <time>2024-05-02T14:58:51.000Z</time>
      </trkpt>
      <trkpt lat="45.85723" lon="3.54498">
        <ele>400.79998779297</ele>
        <time>2024-05-02T14:58:52.000Z</time>
      </trkpt>
      <trkpt lat="45.85725" lon="3.54495">
        <ele>400.60000610352</ele>
        <time>2024-05-02T14:58:53.000Z</time>
      </trkpt>
      <trkpt lat="45.85727" lon="3.54491">
        <ele>400.60000610352</ele>
        <time>2024-05-02T14:58:54.000Z</time>
      </trkpt>
      <trkpt lat="45.85728" lon="3.54488">
        <ele>400.60000610352</ele>
        <time>2024-05-02T14:58:55.000Z</time>
      </trkpt>
      <trkpt lat="45.8573" lon="3.54485">
        <ele>400.39999389648</ele>
        <time>2024-05-02T14:58:56.000Z</time>
      </trkpt>
      <trkpt lat="45.85732" lon="3.54482">
        <ele>400.20001220703</ele>
        <time>2024-05-02T14:58:57.000Z</time>
      </trkpt>
      <trkpt lat="45.85734" lon="3.54479">
        <ele>400.20001220703</ele>
        <time>2024-05-02T14:58:58.000Z</time>
      </trkpt>
      <trkpt lat="45.85736" lon="3.54476">
        <ele>400</ele>
        <time>2024-05-02T14:58:59.000Z</time>
      </trkpt>
      <trkpt lat="45.85738" lon="3.54473">
        <ele>399.79998779297</ele>
        <time>2024-05-02T14:59:00.000Z</time>
      </trkpt>
      <trkpt lat="45.8574" lon="3.5447">
        <ele>399.79998779297</ele>
        <time>2024-05-02T14:59:01.000Z</time>
      </trkpt>
      <trkpt lat="45.85742" lon="3.54466">
        <ele>399.79998779297</ele>
        <time>2024-05-02T14:59:02.000Z</time>
      </trkpt>
      <trkpt lat="45.85744" lon="3.54463">
        <ele>399.79998779297</ele>
        <time>2024-05-02T14:59:03.000Z</time>
      </trkpt>
      <trkpt lat="45.85746" lon="3.54461">
        <ele>399.60000610352</ele>
        <time>2024-05-02T14:59:04.000Z</time>
      </trkpt>
      <trkpt lat="45.85749" lon="3.54459">
        <ele>399.60000610352</ele>
        <time>2024-05-02T14:59:05.000Z</time>
      </trkpt>
      <trkpt lat="45.85751" lon="3.54456">
        <ele>399.39999389648</ele>
        <time>2024-05-02T14:59:06.000Z</time>
      </trkpt>
      <trkpt lat="45.85754" lon="3.54453">
        <ele>399.39999389648</ele>
        <time>2024-05-02T14:59:07.000Z</time>
      </trkpt>
      <trkpt lat="45.85756" lon="3.5445">
        <ele>399</ele>
        <time>2024-05-02T14:59:08.000Z</time>
      </trkpt>
      <trkpt lat="45.85759" lon="3.54447">
        <ele>399</ele>
        <time>2024-05-02T14:59:09.000Z</time>
      </trkpt>
      <trkpt lat="45.85761" lon="3.54445">
        <ele>398.79998779297</ele>
        <time>2024-05-02T14:59:10.000Z</time>
      </trkpt>
      <trkpt lat="45.85764" lon="3.54442">
        <ele>398.79998779297</ele>
        <time>2024-05-02T14:59:11.000Z</time>
      </trkpt>
      <trkpt lat="45.85767" lon="3.5444">
        <ele>398.79998779297</ele>
        <time>2024-05-02T14:59:12.000Z</time>
      </trkpt>
      <trkpt lat="45.85771" lon="3.54438">
        <ele>398.79998779297</ele>
        <time>2024-05-02T14:59:13.000Z</time>
      </trkpt>
      <trkpt lat="45.85774" lon="3.54436">
        <ele>398.39999389648</ele>
        <time>2024-05-02T14:59:14.000Z</time>
      </trkpt>
      <trkpt lat="45.85777" lon="3.54434">
        <ele>398.20001220703</ele>
        <time>2024-05-02T14:59:15.000Z</time>
      </trkpt>
      <trkpt lat="45.8578" lon="3.54432">
        <ele>398</ele>
        <time>2024-05-02T14:59:16.000Z</time>
      </trkpt>
      <trkpt lat="45.85784" lon="3.5443">
        <ele>397.79998779297</ele>
        <time>2024-05-02T14:59:17.000Z</time>
      </trkpt>
      <trkpt lat="45.85787" lon="3.54428">
        <ele>397.60000610352</ele>
        <time>2024-05-02T14:59:18.000Z</time>
      </trkpt>
      <trkpt lat="45.8579" lon="3.54427">
        <ele>397.60000610352</ele>
        <time>2024-05-02T14:59:19.000Z</time>
      </trkpt>
      <trkpt lat="45.85794" lon="3.54425">
        <ele>397.60000610352</ele>
        <time>2024-05-02T14:59:20.000Z</time>
      </trkpt>
      <trkpt lat="45.85797" lon="3.54423">
        <ele>397.60000610352</ele>
        <time>2024-05-02T14:59:21.000Z</time>
      </trkpt>
      <trkpt lat="45.85799" lon="3.54422">
        <ele>397.39999389648</ele>
        <time>2024-05-02T14:59:22.000Z</time>
      </trkpt>
      <trkpt lat="45.85803" lon="3.5442">
        <ele>397.39999389648</ele>
        <time>2024-05-02T14:59:23.000Z</time>
      </trkpt>
      <trkpt lat="45.85805" lon="3.5442">
        <ele>397.20001220703</ele>
        <time>2024-05-02T14:59:24.000Z</time>
      </trkpt>
      <trkpt lat="45.85808" lon="3.54419">
        <ele>397.20001220703</ele>
        <time>2024-05-02T14:59:25.000Z</time>
      </trkpt>
      <trkpt lat="45.85812" lon="3.54419">
        <ele>397</ele>
        <time>2024-05-02T14:59:26.000Z</time>
      </trkpt>
      <trkpt lat="45.85814" lon="3.5442">
        <ele>396.79998779297</ele>
        <time>2024-05-02T14:59:27.000Z</time>
      </trkpt>
      <trkpt lat="45.85816" lon="3.5442">
        <ele>396.60000610352</ele>
        <time>2024-05-02T14:59:28.000Z</time>
      </trkpt>
      <trkpt lat="45.85819" lon="3.54421">
        <ele>396.39999389648</ele>
        <time>2024-05-02T14:59:29.000Z</time>
      </trkpt>
      <trkpt lat="45.85822" lon="3.54421">
        <ele>396.39999389648</ele>
        <time>2024-05-02T14:59:30.000Z</time>
      </trkpt>
      <trkpt lat="45.85825" lon="3.54421">
        <ele>396.20001220703</ele>
        <time>2024-05-02T14:59:31.000Z</time>
      </trkpt>
      <trkpt lat="45.85828" lon="3.54422">
        <ele>396.20001220703</ele>
        <time>2024-05-02T14:59:32.000Z</time>
      </trkpt>
      <trkpt lat="45.8583" lon="3.54421">
        <ele>396</ele>
        <time>2024-05-02T14:59:33.000Z</time>
      </trkpt>
      <trkpt lat="45.85833" lon="3.54422">
        <ele>395.79998779297</ele>
        <time>2024-05-02T14:59:34.000Z</time>
      </trkpt>
      <trkpt lat="45.85836" lon="3.54423">
        <ele>395.60000610352</ele>
        <time>2024-05-02T14:59:35.000Z</time>
      </trkpt>
      <trkpt lat="45.8584" lon="3.54423">
        <ele>395.39999389648</ele>
        <time>2024-05-02T14:59:36.000Z</time>
      </trkpt>
      <trkpt lat="45.85843" lon="3.54424">
        <ele>395.39999389648</ele>
        <time>2024-05-02T14:59:37.000Z</time>
      </trkpt>
      <trkpt lat="45.85846" lon="3.54425">
        <ele>395.39999389648</ele>
        <time>2024-05-02T14:59:38.000Z</time>
      </trkpt>
      <trkpt lat="45.85849" lon="3.54426">
        <ele>395</ele>
        <time>2024-05-02T14:59:39.000Z</time>
      </trkpt>
      <trkpt lat="45.85852" lon="3.54426">
        <ele>394.79998779297</ele>
        <time>2024-05-02T14:59:40.000Z</time>
      </trkpt>
      <trkpt lat="45.85856" lon="3.54425">
        <ele>394.60000610352</ele>
        <time>2024-05-02T14:59:41.000Z</time>
      </trkpt>
      <trkpt lat="45.85858" lon="3.54422">
        <ele>394.39999389648</ele>
        <time>2024-05-02T14:59:42.000Z</time>
      </trkpt>
      <trkpt lat="45.8586" lon="3.54418">
        <ele>394.20001220703</ele>
        <time>2024-05-02T14:59:43.000Z</time>
      </trkpt>
      <trkpt lat="45.85862" lon="3.54414">
        <ele>394.39999389648</ele>
        <time>2024-05-02T14:59:44.000Z</time>
      </trkpt>
      <trkpt lat="45.85861" lon="3.54409">
        <ele>394.39999389648</ele>
        <time>2024-05-02T14:59:45.000Z</time>
      </trkpt>
      <trkpt lat="45.8586" lon="3.54404">
        <ele>394</ele>
        <time>2024-05-02T14:59:46.000Z</time>
      </trkpt>
      <trkpt lat="45.85857" lon="3.54399">
        <ele>393.60000610352</ele>
        <time>2024-05-02T14:59:47.000Z</time>
      </trkpt>
      <trkpt lat="45.85855" lon="3.54395">
        <ele>393.39999389648</ele>
        <time>2024-05-02T14:59:48.000Z</time>
      </trkpt>
      <trkpt lat="45.85852" lon="3.54392">
        <ele>393</ele>
        <time>2024-05-02T14:59:49.000Z</time>
      </trkpt>
      <trkpt lat="45.8585" lon="3.54388">
        <ele>392.79998779297</ele>
        <time>2024-05-02T14:59:50.000Z</time>
      </trkpt>
      <trkpt lat="45.85848" lon="3.54384">
        <ele>392.79998779297</ele>
        <time>2024-05-02T14:59:51.000Z</time>
      </trkpt>
      <trkpt lat="45.85846" lon="3.54381">
        <ele>392.60000610352</ele>
        <time>2024-05-02T14:59:52.000Z</time>
      </trkpt>
      <trkpt lat="45.85844" lon="3.54377">
        <ele>392.20001220703</ele>
        <time>2024-05-02T14:59:53.000Z</time>
      </trkpt>
      <trkpt lat="45.85841" lon="3.54374">
        <ele>392</ele>
        <time>2024-05-02T14:59:54.000Z</time>
      </trkpt>
      <trkpt lat="45.85839" lon="3.5437">
        <ele>391.79998779297</ele>
        <time>2024-05-02T14:59:55.000Z</time>
      </trkpt>
      <trkpt lat="45.85836" lon="3.54366">
        <ele>391.60000610352</ele>
        <time>2024-05-02T14:59:56.000Z</time>
      </trkpt>
      <trkpt lat="45.85834" lon="3.54363">
        <ele>391.60000610352</ele>
        <time>2024-05-02T14:59:57.000Z</time>
      </trkpt>
      <trkpt lat="45.85831" lon="3.54358">
        <ele>391.60000610352</ele>
        <time>2024-05-02T14:59:58.000Z</time>
      </trkpt>
      <trkpt lat="45.85829" lon="3.54354">
        <ele>391.60000610352</ele>
        <time>2024-05-02T14:59:59.000Z</time>
      </trkpt>
      <trkpt lat="45.85827" lon="3.5435">
        <ele>391.39999389648</ele>
        <time>2024-05-02T15:00:00.000Z</time>
      </trkpt>
      <trkpt lat="45.85825" lon="3.54346">
        <ele>391.20001220703</ele>
        <time>2024-05-02T15:00:01.000Z</time>
      </trkpt>
      <trkpt lat="45.85822" lon="3.54342">
        <ele>390.79998779297</ele>
        <time>2024-05-02T15:00:02.000Z</time>
      </trkpt>
      <trkpt lat="45.8582" lon="3.54338">
        <ele>390.39999389648</ele>
        <time>2024-05-02T15:00:03.000Z</time>
      </trkpt>
      <trkpt lat="45.85818" lon="3.54334">
        <ele>390</ele>
        <time>2024-05-02T15:00:04.000Z</time>
      </trkpt>
      <trkpt lat="45.85817" lon="3.54329">
        <ele>390</ele>
        <time>2024-05-02T15:00:05.000Z</time>
      </trkpt>
      <trkpt lat="45.85815" lon="3.54325">
        <ele>390</ele>
        <time>2024-05-02T15:00:06.000Z</time>
      </trkpt>
      <trkpt lat="45.85814" lon="3.5432">
        <ele>390</ele>
        <time>2024-05-02T15:00:07.000Z</time>
      </trkpt>
      <trkpt lat="45.85812" lon="3.54316">
        <ele>390</ele>
        <time>2024-05-02T15:00:08.000Z</time>
      </trkpt>
      <trkpt lat="45.85811" lon="3.54312">
        <ele>390.20001220703</ele>
        <time>2024-05-02T15:00:09.000Z</time>
      </trkpt>
      <trkpt lat="45.8581" lon="3.54308">
        <ele>390.20001220703</ele>
        <time>2024-05-02T15:00:10.000Z</time>
      </trkpt>
      <trkpt lat="45.85807" lon="3.54304">
        <ele>390.20001220703</ele>
        <time>2024-05-02T15:00:11.000Z</time>
      </trkpt>
      <trkpt lat="45.85805" lon="3.543">
        <ele>390</ele>
        <time>2024-05-02T15:00:12.000Z</time>
      </trkpt>
      <trkpt lat="45.85803" lon="3.54296">
        <ele>389.60000610352</ele>
        <time>2024-05-02T15:00:13.000Z</time>
      </trkpt>
      <trkpt lat="45.85801" lon="3.54291">
        <ele>389.20001220703</ele>
        <time>2024-05-02T15:00:14.000Z</time>
      </trkpt>
      <trkpt lat="45.85799" lon="3.54287">
        <ele>389</ele>
        <time>2024-05-02T15:00:15.000Z</time>
      </trkpt>
      <trkpt lat="45.85798" lon="3.54282">
        <ele>388.39999389648</ele>
        <time>2024-05-02T15:00:16.000Z</time>
      </trkpt>
      <trkpt lat="45.85796" lon="3.54278">
        <ele>388</ele>
        <time>2024-05-02T15:00:17.000Z</time>
      </trkpt>
      <trkpt lat="45.85794" lon="3.54273">
        <ele>387.79998779297</ele>
        <time>2024-05-02T15:00:18.000Z</time>
      </trkpt>
      <trkpt lat="45.85792" lon="3.54269">
        <ele>387.60000610352</ele>
        <time>2024-05-02T15:00:19.000Z</time>
      </trkpt>
      <trkpt lat="45.85791" lon="3.54266">
        <ele>387.20001220703</ele>
        <time>2024-05-02T15:00:20.000Z</time>
      </trkpt>
      <trkpt lat="45.85789" lon="3.54261">
        <ele>387.39999389648</ele>
        <time>2024-05-02T15:00:21.000Z</time>
      </trkpt>
      <trkpt lat="45.85787" lon="3.54257">
        <ele>387.20001220703</ele>
        <time>2024-05-02T15:00:22.000Z</time>
      </trkpt>
      <trkpt lat="45.85785" lon="3.54253">
        <ele>387.20001220703</ele>
        <time>2024-05-02T15:00:23.000Z</time>
      </trkpt>
      <trkpt lat="45.85784" lon="3.54249">
        <ele>387</ele>
        <time>2024-05-02T15:00:24.000Z</time>
      </trkpt>
      <trkpt lat="45.85783" lon="3.54245">
        <ele>386.60000610352</ele>
        <time>2024-05-02T15:00:25.000Z</time>
      </trkpt>
      <trkpt lat="45.85782" lon="3.54241">
        <ele>386.39999389648</ele>
        <time>2024-05-02T15:00:26.000Z</time>
      </trkpt>
      <trkpt lat="45.85782" lon="3.54237">
        <ele>386.20001220703</ele>
        <time>2024-05-02T15:00:27.000Z</time>
      </trkpt>
      <trkpt lat="45.85781" lon="3.54233">
        <ele>386.20001220703</ele>
        <time>2024-05-02T15:00:28.000Z</time>
      </trkpt>
      <trkpt lat="45.8578" lon="3.54229">
        <ele>386.39999389648</ele>
        <time>2024-05-02T15:00:29.000Z</time>
      </trkpt>
      <trkpt lat="45.85779" lon="3.54225">
        <ele>386</ele>
        <time>2024-05-02T15:00:30.000Z</time>
      </trkpt>
      <trkpt lat="45.85779" lon="3.54219">
        <ele>385.79998779297</ele>
        <time>2024-05-02T15:00:31.000Z</time>
      </trkpt>
      <trkpt lat="45.85778" lon="3.54214">
        <ele>385.60000610352</ele>
        <time>2024-05-02T15:00:32.000Z</time>
      </trkpt>
      <trkpt lat="45.85777" lon="3.54209">
        <ele>385.39999389648</ele>
        <time>2024-05-02T15:00:33.000Z</time>
      </trkpt>
      <trkpt lat="45.85777" lon="3.54205">
        <ele>385.20001220703</ele>
        <time>2024-05-02T15:00:34.000Z</time>
      </trkpt>
      <trkpt lat="45.85777" lon="3.542">
        <ele>385.20001220703</ele>
        <time>2024-05-02T15:00:35.000Z</time>
      </trkpt>
      <trkpt lat="45.85778" lon="3.54194">
        <ele>385</ele>
        <time>2024-05-02T15:00:36.000Z</time>
      </trkpt>
      <trkpt lat="45.85778" lon="3.54189">
        <ele>384.79998779297</ele>
        <time>2024-05-02T15:00:37.000Z</time>
      </trkpt>
      <trkpt lat="45.85779" lon="3.54183">
        <ele>384.60000610352</ele>
        <time>2024-05-02T15:00:38.000Z</time>
      </trkpt>
      <trkpt lat="45.8578" lon="3.54179">
        <ele>384.20001220703</ele>
        <time>2024-05-02T15:00:39.000Z</time>
      </trkpt>
      <trkpt lat="45.85781" lon="3.54175">
        <ele>384.20001220703</ele>
        <time>2024-05-02T15:00:40.000Z</time>
      </trkpt>
      <trkpt lat="45.85783" lon="3.54169">
        <ele>384</ele>
        <time>2024-05-02T15:00:41.000Z</time>
      </trkpt>
      <trkpt lat="45.85785" lon="3.54164">
        <ele>384.20001220703</ele>
        <time>2024-05-02T15:00:42.000Z</time>
      </trkpt>
      <trkpt lat="45.85787" lon="3.54159">
        <ele>383.79998779297</ele>
        <time>2024-05-02T15:00:43.000Z</time>
      </trkpt>
      <trkpt lat="45.85789" lon="3.54154">
        <ele>383.60000610352</ele>
        <time>2024-05-02T15:00:44.000Z</time>
      </trkpt>
      <trkpt lat="45.85791" lon="3.5415">
        <ele>383.20001220703</ele>
        <time>2024-05-02T15:00:45.000Z</time>
      </trkpt>
      <trkpt lat="45.85794" lon="3.54146">
        <ele>383.20001220703</ele>
        <time>2024-05-02T15:00:46.000Z</time>
      </trkpt>
      <trkpt lat="45.85797" lon="3.54142">
        <ele>382.60000610352</ele>
        <time>2024-05-02T15:00:47.000Z</time>
      </trkpt>
      <trkpt lat="45.858" lon="3.54138">
        <ele>382.60000610352</ele>
        <time>2024-05-02T15:00:48.000Z</time>
      </trkpt>
      <trkpt lat="45.85802" lon="3.54135">
        <ele>382.60000610352</ele>
        <time>2024-05-02T15:00:49.000Z</time>
      </trkpt>
      <trkpt lat="45.85805" lon="3.54131">
        <ele>382.39999389648</ele>
        <time>2024-05-02T15:00:50.000Z</time>
      </trkpt>
      <trkpt lat="45.85808" lon="3.54127">
        <ele>382.39999389648</ele>
        <time>2024-05-02T15:00:51.000Z</time>
      </trkpt>
      <trkpt lat="45.85811" lon="3.54123">
        <ele>382.20001220703</ele>
        <time>2024-05-02T15:00:52.000Z</time>
      </trkpt>
      <trkpt lat="45.85814" lon="3.54119">
        <ele>382</ele>
        <time>2024-05-02T15:00:53.000Z</time>
      </trkpt>
      <trkpt lat="45.85816" lon="3.54116">
        <ele>382</ele>
        <time>2024-05-02T15:00:54.000Z</time>
      </trkpt>
      <trkpt lat="45.85818" lon="3.54112">
        <ele>382</ele>
        <time>2024-05-02T15:00:55.000Z</time>
      </trkpt>
      <trkpt lat="45.85821" lon="3.54107">
        <ele>382</ele>
        <time>2024-05-02T15:00:56.000Z</time>
      </trkpt>
      <trkpt lat="45.85824" lon="3.54103">
        <ele>381.79998779297</ele>
        <time>2024-05-02T15:00:57.000Z</time>
      </trkpt>
      <trkpt lat="45.85826" lon="3.541">
        <ele>381.60000610352</ele>
        <time>2024-05-02T15:00:58.000Z</time>
      </trkpt>
      <trkpt lat="45.85829" lon="3.54097">
        <ele>381.39999389648</ele>
        <time>2024-05-02T15:00:59.000Z</time>
      </trkpt>
      <trkpt lat="45.85832" lon="3.54094">
        <ele>381.20001220703</ele>
        <time>2024-05-02T15:01:00.000Z</time>
      </trkpt>
      <trkpt lat="45.85835" lon="3.5409">
        <ele>381</ele>
        <time>2024-05-02T15:01:01.000Z</time>
      </trkpt>
      <trkpt lat="45.85838" lon="3.54087">
        <ele>381</ele>
        <time>2024-05-02T15:01:02.000Z</time>
      </trkpt>
      <trkpt lat="45.85841" lon="3.54084">
        <ele>380.79998779297</ele>
        <time>2024-05-02T15:01:03.000Z</time>
      </trkpt>
      <trkpt lat="45.85843" lon="3.54081">
        <ele>380.60000610352</ele>
        <time>2024-05-02T15:01:04.000Z</time>
      </trkpt>
      <trkpt lat="45.85846" lon="3.54078">
        <ele>380.60000610352</ele>
        <time>2024-05-02T15:01:05.000Z</time>
      </trkpt>
      <trkpt lat="45.85849" lon="3.54073">
        <ele>380.39999389648</ele>
        <time>2024-05-02T15:01:06.000Z</time>
      </trkpt>
      <trkpt lat="45.85852" lon="3.54069">
        <ele>380.20001220703</ele>
        <time>2024-05-02T15:01:07.000Z</time>
      </trkpt>
      <trkpt lat="45.85854" lon="3.54065">
        <ele>380</ele>
        <time>2024-05-02T15:01:08.000Z</time>
      </trkpt>
      <trkpt lat="45.85857" lon="3.54062">
        <ele>379.79998779297</ele>
        <time>2024-05-02T15:01:09.000Z</time>
      </trkpt>
      <trkpt lat="45.85859" lon="3.54059">
        <ele>379.39999389648</ele>
        <time>2024-05-02T15:01:10.000Z</time>
      </trkpt>
      <trkpt lat="45.85863" lon="3.54056">
        <ele>379</ele>
        <time>2024-05-02T15:01:11.000Z</time>
      </trkpt>
      <trkpt lat="45.85866" lon="3.54053">
        <ele>378.60000610352</ele>
        <time>2024-05-02T15:01:12.000Z</time>
      </trkpt>
      <trkpt lat="45.85868" lon="3.5405">
        <ele>378.60000610352</ele>
        <time>2024-05-02T15:01:13.000Z</time>
      </trkpt>
      <trkpt lat="45.85871" lon="3.54046">
        <ele>378.39999389648</ele>
        <time>2024-05-02T15:01:14.000Z</time>
      </trkpt>
      <trkpt lat="45.85874" lon="3.54043">
        <ele>378.60000610352</ele>
        <time>2024-05-02T15:01:15.000Z</time>
      </trkpt>
      <trkpt lat="45.85877" lon="3.5404">
        <ele>378.60000610352</ele>
        <time>2024-05-02T15:01:16.000Z</time>
      </trkpt>
      <trkpt lat="45.8588" lon="3.54037">
        <ele>378.39999389648</ele>
        <time>2024-05-02T15:01:17.000Z</time>
      </trkpt>
      <trkpt lat="45.85882" lon="3.54033">
        <ele>378</ele>
        <time>2024-05-02T15:01:18.000Z</time>
      </trkpt>
      <trkpt lat="45.85885" lon="3.54029">
        <ele>377.79998779297</ele>
        <time>2024-05-02T15:01:19.000Z</time>
      </trkpt>
      <trkpt lat="45.85887" lon="3.54026">
        <ele>377.39999389648</ele>
        <time>2024-05-02T15:01:20.000Z</time>
      </trkpt>
      <trkpt lat="45.85889" lon="3.54022">
        <ele>377.39999389648</ele>
        <time>2024-05-02T15:01:21.000Z</time>
      </trkpt>
      <trkpt lat="45.85892" lon="3.54019">
        <ele>377.39999389648</ele>
        <time>2024-05-02T15:01:22.000Z</time>
      </trkpt>
      <trkpt lat="45.85894" lon="3.54015">
        <ele>377.39999389648</ele>
        <time>2024-05-02T15:01:23.000Z</time>
      </trkpt>
      <trkpt lat="45.85897" lon="3.54011">
        <ele>377.20001220703</ele>
        <time>2024-05-02T15:01:24.000Z</time>
      </trkpt>
      <trkpt lat="45.859" lon="3.54007">
        <ele>377</ele>
        <time>2024-05-02T15:01:25.000Z</time>
      </trkpt>
      <trkpt lat="45.85903" lon="3.54003">
        <ele>376.79998779297</ele>
        <time>2024-05-02T15:01:26.000Z</time>
      </trkpt>
      <trkpt lat="45.85906" lon="3.54">
        <ele>376.60000610352</ele>
        <time>2024-05-02T15:01:27.000Z</time>
      </trkpt>
      <trkpt lat="45.85908" lon="3.53996">
        <ele>376.39999389648</ele>
        <time>2024-05-02T15:01:28.000Z</time>
      </trkpt>
      <trkpt lat="45.85912" lon="3.53992">
        <ele>376.20001220703</ele>
        <time>2024-05-02T15:01:29.000Z</time>
      </trkpt>
      <trkpt lat="45.85914" lon="3.53989">
        <ele>376.20001220703</ele>
        <time>2024-05-02T15:01:30.000Z</time>
      </trkpt>
      <trkpt lat="45.85917" lon="3.53985">
        <ele>376.20001220703</ele>
        <time>2024-05-02T15:01:31.000Z</time>
      </trkpt>
      <trkpt lat="45.85919" lon="3.53981">
        <ele>376</ele>
        <time>2024-05-02T15:01:32.000Z</time>
      </trkpt>
      <trkpt lat="45.85921" lon="3.53976">
        <ele>375.79998779297</ele>
        <time>2024-05-02T15:01:33.000Z</time>
      </trkpt>
      <trkpt lat="45.85923" lon="3.53972">
        <ele>375.39999389648</ele>
        <time>2024-05-02T15:01:34.000Z</time>
      </trkpt>
      <trkpt lat="45.85924" lon="3.53967">
        <ele>375.20001220703</ele>
        <time>2024-05-02T15:01:35.000Z</time>
      </trkpt>
      <trkpt lat="45.85925" lon="3.53962">
        <ele>374.79998779297</ele>
        <time>2024-05-02T15:01:36.000Z</time>
      </trkpt>
      <trkpt lat="45.85926" lon="3.53957">
        <ele>374.79998779297</ele>
        <time>2024-05-02T15:01:37.000Z</time>
      </trkpt>
      <trkpt lat="45.85925" lon="3.53952">
        <ele>374.79998779297</ele>
        <time>2024-05-02T15:01:38.000Z</time>
      </trkpt>
      <trkpt lat="45.85922" lon="3.53949">
        <ele>375</ele>
        <time>2024-05-02T15:01:39.000Z</time>
      </trkpt>
      <trkpt lat="45.85918" lon="3.53948">
        <ele>374.79998779297</ele>
        <time>2024-05-02T15:01:40.000Z</time>
      </trkpt>
      <trkpt lat="45.85913" lon="3.53947">
        <ele>374.39999389648</ele>
        <time>2024-05-02T15:01:41.000Z</time>
      </trkpt>
      <trkpt lat="45.85909" lon="3.53948">
        <ele>374</ele>
        <time>2024-05-02T15:01:42.000Z</time>
      </trkpt>
      <trkpt lat="45.85905" lon="3.53947">
        <ele>373.60000610352</ele>
        <time>2024-05-02T15:01:43.000Z</time>
      </trkpt>
      <trkpt lat="45.85902" lon="3.53947">
        <ele>373</ele>
        <time>2024-05-02T15:01:44.000Z</time>
      </trkpt>
      <trkpt lat="45.85898" lon="3.53948">
        <ele>372.79998779297</ele>
        <time>2024-05-02T15:01:45.000Z</time>
      </trkpt>
      <trkpt lat="45.85895" lon="3.53949">
        <ele>372.60000610352</ele>
        <time>2024-05-02T15:01:46.000Z</time>
      </trkpt>
      <trkpt lat="45.8589" lon="3.53949">
        <ele>372.39999389648</ele>
        <time>2024-05-02T15:01:47.000Z</time>
      </trkpt>
      <trkpt lat="45.85887" lon="3.53948">
        <ele>372.39999389648</ele>
        <time>2024-05-02T15:01:48.000Z</time>
      </trkpt>
      <trkpt lat="45.85884" lon="3.53949">
        <ele>372.39999389648</ele>
        <time>2024-05-02T15:01:49.000Z</time>
      </trkpt>
      <trkpt lat="45.85881" lon="3.5395">
        <ele>372.39999389648</ele>
        <time>2024-05-02T15:01:50.000Z</time>
      </trkpt>
      <trkpt lat="45.85877" lon="3.53951">
        <ele>372</ele>
        <time>2024-05-02T15:01:51.000Z</time>
      </trkpt>
      <trkpt lat="45.85874" lon="3.53952">
        <ele>371.79998779297</ele>
        <time>2024-05-02T15:01:52.000Z</time>
      </trkpt>
      <trkpt lat="45.85871" lon="3.53953">
        <ele>371.39999389648</ele>
        <time>2024-05-02T15:01:53.000Z</time>
      </trkpt>
      <trkpt lat="45.85868" lon="3.53955">
        <ele>371</ele>
        <time>2024-05-02T15:01:54.000Z</time>
      </trkpt>
      <trkpt lat="45.85865" lon="3.53956">
        <ele>370.60000610352</ele>
        <time>2024-05-02T15:01:55.000Z</time>
      </trkpt>
      <trkpt lat="45.85861" lon="3.53956">
        <ele>370.60000610352</ele>
        <time>2024-05-02T15:01:56.000Z</time>
      </trkpt>
      <trkpt lat="45.85858" lon="3.53956">
        <ele>370.60000610352</ele>
        <time>2024-05-02T15:01:57.000Z</time>
      </trkpt>
      <trkpt lat="45.85855" lon="3.53955">
        <ele>370.60000610352</ele>
        <time>2024-05-02T15:01:58.000Z</time>
      </trkpt>
      <trkpt lat="45.85853" lon="3.53955">
        <ele>370.60000610352</ele>
        <time>2024-05-02T15:01:59.000Z</time>
      </trkpt>
      <trkpt lat="45.8585" lon="3.53953">
        <ele>370.60000610352</ele>
        <time>2024-05-02T15:02:00.000Z</time>
      </trkpt>
      <trkpt lat="45.85847" lon="3.5395">
        <ele>370.20001220703</ele>
        <time>2024-05-02T15:02:01.000Z</time>
      </trkpt>
      <trkpt lat="45.85844" lon="3.53947">
        <ele>370</ele>
        <time>2024-05-02T15:02:02.000Z</time>
      </trkpt>
      <trkpt lat="45.85841" lon="3.53943">
        <ele>369.39999389648</ele>
        <time>2024-05-02T15:02:03.000Z</time>
      </trkpt>
      <trkpt lat="45.85838" lon="3.53941">
        <ele>369.20001220703</ele>
        <time>2024-05-02T15:02:04.000Z</time>
      </trkpt>
      <trkpt lat="45.85835" lon="3.53938">
        <ele>369.20001220703</ele>
        <time>2024-05-02T15:02:05.000Z</time>
      </trkpt>
      <trkpt lat="45.85832" lon="3.53935">
        <ele>369</ele>
        <time>2024-05-02T15:02:06.000Z</time>
      </trkpt>
      <trkpt lat="45.85829" lon="3.53932">
        <ele>369.20001220703</ele>
        <time>2024-05-02T15:02:07.000Z</time>
      </trkpt>
      <trkpt lat="45.85826" lon="3.53929">
        <ele>369</ele>
        <time>2024-05-02T15:02:08.000Z</time>
      </trkpt>
      <trkpt lat="45.85823" lon="3.53925">
        <ele>368.79998779297</ele>
        <time>2024-05-02T15:02:09.000Z</time>
      </trkpt>
      <trkpt lat="45.85821" lon="3.53922">
        <ele>368.60000610352</ele>
        <time>2024-05-02T15:02:10.000Z</time>
      </trkpt>
      <trkpt lat="45.85818" lon="3.53919">
        <ele>368.39999389648</ele>
        <time>2024-05-02T15:02:11.000Z</time>
      </trkpt>
      <trkpt lat="45.85816" lon="3.53915">
        <ele>368</ele>
        <time>2024-05-02T15:02:12.000Z</time>
      </trkpt>
      <trkpt lat="45.85812" lon="3.53913">
        <ele>368</ele>
        <time>2024-05-02T15:02:13.000Z</time>
      </trkpt>
      <trkpt lat="45.85809" lon="3.53911">
        <ele>368</ele>
        <time>2024-05-02T15:02:14.000Z</time>
      </trkpt>
      <trkpt lat="45.85806" lon="3.53909">
        <ele>368</ele>
        <time>2024-05-02T15:02:15.000Z</time>
      </trkpt>
      <trkpt lat="45.85803" lon="3.53908">
        <ele>367.79998779297</ele>
        <time>2024-05-02T15:02:16.000Z</time>
      </trkpt>
      <trkpt lat="45.85799" lon="3.53908">
        <ele>367.60000610352</ele>
        <time>2024-05-02T15:02:17.000Z</time>
      </trkpt>
      <trkpt lat="45.85796" lon="3.53907">
        <ele>367.20001220703</ele>
        <time>2024-05-02T15:02:18.000Z</time>
      </trkpt>
      <trkpt lat="45.85792" lon="3.53907">
        <ele>367</ele>
        <time>2024-05-02T15:02:19.000Z</time>
      </trkpt>
      <trkpt lat="45.85788" lon="3.53906">
        <ele>366.79998779297</ele>
        <time>2024-05-02T15:02:20.000Z</time>
      </trkpt>
      <trkpt lat="45.85785" lon="3.53906">
        <ele>366.60000610352</ele>
        <time>2024-05-02T15:02:21.000Z</time>
      </trkpt>
      <trkpt lat="45.85782" lon="3.53906">
        <ele>366.60000610352</ele>
        <time>2024-05-02T15:02:22.000Z</time>
      </trkpt>
      <trkpt lat="45.85778" lon="3.53907">
        <ele>366.60000610352</ele>
        <time>2024-05-02T15:02:23.000Z</time>
      </trkpt>
      <trkpt lat="45.85774" lon="3.53908">
        <ele>366.79998779297</ele>
        <time>2024-05-02T15:02:24.000Z</time>
      </trkpt>
      <trkpt lat="45.85771" lon="3.53909">
        <ele>366.39999389648</ele>
        <time>2024-05-02T15:02:25.000Z</time>
      </trkpt>
      <trkpt lat="45.85767" lon="3.5391">
        <ele>366.20001220703</ele>
        <time>2024-05-02T15:02:26.000Z</time>
      </trkpt>
      <trkpt lat="45.85763" lon="3.5391">
        <ele>365.79998779297</ele>
        <time>2024-05-02T15:02:27.000Z</time>
      </trkpt>
      <trkpt lat="45.8576" lon="3.5391">
        <ele>365.39999389648</ele>
        <time>2024-05-02T15:02:28.000Z</time>
      </trkpt>
      <trkpt lat="45.85756" lon="3.53909">
        <ele>364.79998779297</ele>
        <time>2024-05-02T15:02:29.000Z</time>
      </trkpt>
      <trkpt lat="45.85753" lon="3.53909">
        <ele>364.60000610352</ele>
        <time>2024-05-02T15:02:30.000Z</time>
      </trkpt>
      <trkpt lat="45.8575" lon="3.53908">
        <ele>364.60000610352</ele>
        <time>2024-05-02T15:02:31.000Z</time>
      </trkpt>
      <trkpt lat="45.85747" lon="3.53908">
        <ele>364.20001220703</ele>
        <time>2024-05-02T15:02:32.000Z</time>
      </trkpt>
      <trkpt lat="45.85744" lon="3.53906">
        <ele>364.39999389648</ele>
        <time>2024-05-02T15:02:33.000Z</time>
      </trkpt>
      <trkpt lat="45.85741" lon="3.53905">
        <ele>364.20001220703</ele>
        <time>2024-05-02T15:02:34.000Z</time>
      </trkpt>
      <trkpt lat="45.8574" lon="3.53905">
        <ele>364.20001220703</ele>
        <time>2024-05-02T15:02:35.000Z</time>
      </trkpt>
      <trkpt lat="45.85734" lon="3.53898">
        <ele>364.20001220703</ele>
        <time>2024-05-02T15:02:36.000Z</time>
      </trkpt>
      <trkpt lat="45.85731" lon="3.53893">
        <ele>363.79998779297</ele>
        <time>2024-05-02T15:02:37.000Z</time>
      </trkpt>
      <trkpt lat="45.85728" lon="3.53888">
        <ele>363.39999389648</ele>
        <time>2024-05-02T15:02:38.000Z</time>
      </trkpt>
      <trkpt lat="45.85725" lon="3.53884">
        <ele>363.20001220703</ele>
        <time>2024-05-02T15:02:39.000Z</time>
      </trkpt>
      <trkpt lat="45.85722" lon="3.5388">
        <ele>362.79998779297</ele>
        <time>2024-05-02T15:02:40.000Z</time>
      </trkpt>
      <trkpt lat="45.85719" lon="3.53876">
        <ele>362.60000610352</ele>
        <time>2024-05-02T15:02:41.000Z</time>
      </trkpt>
      <trkpt lat="45.85716" lon="3.53871">
        <ele>362.60000610352</ele>
        <time>2024-05-02T15:02:42.000Z</time>
      </trkpt>
      <trkpt lat="45.85713" lon="3.53867">
        <ele>362.60000610352</ele>
        <time>2024-05-02T15:02:43.000Z</time>
      </trkpt>
      <trkpt lat="45.85711" lon="3.53864">
        <ele>362.60000610352</ele>
        <time>2024-05-02T15:02:44.000Z</time>
      </trkpt>
      <trkpt lat="45.85708" lon="3.5386">
        <ele>362.60000610352</ele>
        <time>2024-05-02T15:02:45.000Z</time>
      </trkpt>
      <trkpt lat="45.85705" lon="3.53856">
        <ele>362.20001220703</ele>
        <time>2024-05-02T15:02:46.000Z</time>
      </trkpt>
      <trkpt lat="45.85702" lon="3.53852">
        <ele>361.79998779297</ele>
        <time>2024-05-02T15:02:47.000Z</time>
      </trkpt>
      <trkpt lat="45.857" lon="3.53849">
        <ele>361.60000610352</ele>
        <time>2024-05-02T15:02:48.000Z</time>
      </trkpt>
      <trkpt lat="45.85698" lon="3.53844">
        <ele>361.39999389648</ele>
        <time>2024-05-02T15:02:49.000Z</time>
      </trkpt>
      <trkpt lat="45.85696" lon="3.5384">
        <ele>361.20001220703</ele>
        <time>2024-05-02T15:02:50.000Z</time>
      </trkpt>
      <trkpt lat="45.85693" lon="3.53836">
        <ele>361.20001220703</ele>
        <time>2024-05-02T15:02:51.000Z</time>
      </trkpt>
      <trkpt lat="45.85691" lon="3.53831">
        <ele>361</ele>
        <time>2024-05-02T15:02:52.000Z</time>
      </trkpt>
      <trkpt lat="45.85689" lon="3.53827">
        <ele>361</ele>
        <time>2024-05-02T15:02:53.000Z</time>
      </trkpt>
      <trkpt lat="45.85687" lon="3.53823">
        <ele>360.79998779297</ele>
        <time>2024-05-02T15:02:54.000Z</time>
      </trkpt>
      <trkpt lat="45.85685" lon="3.53819">
        <ele>360.60000610352</ele>
        <time>2024-05-02T15:02:55.000Z</time>
      </trkpt>
      <trkpt lat="45.85683" lon="3.53814">
        <ele>360.39999389648</ele>
        <time>2024-05-02T15:02:56.000Z</time>
      </trkpt>
      <trkpt lat="45.85681" lon="3.5381">
        <ele>360.20001220703</ele>
        <time>2024-05-02T15:02:57.000Z</time>
      </trkpt>
      <trkpt lat="45.8568" lon="3.53806">
        <ele>360</ele>
        <time>2024-05-02T15:02:58.000Z</time>
      </trkpt>
      <trkpt lat="45.8568" lon="3.53801">
        <ele>359.79998779297</ele>
        <time>2024-05-02T15:02:59.000Z</time>
      </trkpt>
      <trkpt lat="45.85681" lon="3.53797">
        <ele>359.79998779297</ele>
        <time>2024-05-02T15:03:00.000Z</time>
      </trkpt>
      <trkpt lat="45.85683" lon="3.53792">
        <ele>359.79998779297</ele>
        <time>2024-05-02T15:03:01.000Z</time>
      </trkpt>
      <trkpt lat="45.85685" lon="3.53788">
        <ele>359.60000610352</ele>
        <time>2024-05-02T15:03:02.000Z</time>
      </trkpt>
      <trkpt lat="45.85687" lon="3.53783">
        <ele>359.20001220703</ele>
        <time>2024-05-02T15:03:03.000Z</time>
      </trkpt>
      <trkpt lat="45.85689" lon="3.53778">
        <ele>359</ele>
        <time>2024-05-02T15:03:04.000Z</time>
      </trkpt>
      <trkpt lat="45.85691" lon="3.53773">
        <ele>358.79998779297</ele>
        <time>2024-05-02T15:03:05.000Z</time>
      </trkpt>
      <trkpt lat="45.85692" lon="3.53767">
        <ele>358.20001220703</ele>
        <time>2024-05-02T15:03:06.000Z</time>
      </trkpt>
      <trkpt lat="45.85693" lon="3.53761">
        <ele>358</ele>
        <time>2024-05-02T15:03:07.000Z</time>
      </trkpt>
      <trkpt lat="45.85693" lon="3.53756">
        <ele>357.79998779297</ele>
        <time>2024-05-02T15:03:08.000Z</time>
      </trkpt>
      <trkpt lat="45.85693" lon="3.53751">
        <ele>357.39999389648</ele>
        <time>2024-05-02T15:03:09.000Z</time>
      </trkpt>
      <trkpt lat="45.85693" lon="3.53746">
        <ele>357.20001220703</ele>
        <time>2024-05-02T15:03:10.000Z</time>
      </trkpt>
      <trkpt lat="45.85694" lon="3.5374">
        <ele>357</ele>
        <time>2024-05-02T15:03:11.000Z</time>
      </trkpt>
      <trkpt lat="45.85695" lon="3.53735">
        <ele>356.79998779297</ele>
        <time>2024-05-02T15:03:12.000Z</time>
      </trkpt>
      <trkpt lat="45.85695" lon="3.5373">
        <ele>356.60000610352</ele>
        <time>2024-05-02T15:03:13.000Z</time>
      </trkpt>
      <trkpt lat="45.85696" lon="3.53725">
        <ele>356.20001220703</ele>
        <time>2024-05-02T15:03:14.000Z</time>
      </trkpt>
      <trkpt lat="45.85697" lon="3.53721">
        <ele>356</ele>
        <time>2024-05-02T15:03:15.000Z</time>
      </trkpt>
      <trkpt lat="45.85699" lon="3.53716">
        <ele>355.60000610352</ele>
        <time>2024-05-02T15:03:16.000Z</time>
      </trkpt>
      <trkpt lat="45.857" lon="3.53712">
        <ele>355.60000610352</ele>
        <time>2024-05-02T15:03:17.000Z</time>
      </trkpt>
      <trkpt lat="45.85701" lon="3.53707">
        <ele>355.60000610352</ele>
        <time>2024-05-02T15:03:18.000Z</time>
      </trkpt>
      <trkpt lat="45.85701" lon="3.53702">
        <ele>355.60000610352</ele>
        <time>2024-05-02T15:03:19.000Z</time>
      </trkpt>
      <trkpt lat="45.85702" lon="3.53697">
        <ele>355.79998779297</ele>
        <time>2024-05-02T15:03:20.000Z</time>
      </trkpt>
      <trkpt lat="45.85702" lon="3.53692">
        <ele>355.60000610352</ele>
        <time>2024-05-02T15:03:21.000Z</time>
      </trkpt>
      <trkpt lat="45.85702" lon="3.53688">
        <ele>355.39999389648</ele>
        <time>2024-05-02T15:03:22.000Z</time>
      </trkpt>
      <trkpt lat="45.85703" lon="3.53683">
        <ele>355.39999389648</ele>
        <time>2024-05-02T15:03:23.000Z</time>
      </trkpt>
      <trkpt lat="45.85704" lon="3.53678">
        <ele>355.39999389648</ele>
        <time>2024-05-02T15:03:24.000Z</time>
      </trkpt>
      <trkpt lat="45.85705" lon="3.53674">
        <ele>355.20001220703</ele>
        <time>2024-05-02T15:03:25.000Z</time>
      </trkpt>
      <trkpt lat="45.85706" lon="3.53669">
        <ele>355.20001220703</ele>
        <time>2024-05-02T15:03:26.000Z</time>
      </trkpt>
      <trkpt lat="45.85708" lon="3.53664">
        <ele>355.60000610352</ele>
        <time>2024-05-02T15:03:27.000Z</time>
      </trkpt>
      <trkpt lat="45.85709" lon="3.5366">
        <ele>355.20001220703</ele>
        <time>2024-05-02T15:03:28.000Z</time>
      </trkpt>
      <trkpt lat="45.8571" lon="3.53655">
        <ele>355</ele>
        <time>2024-05-02T15:03:29.000Z</time>
      </trkpt>
      <trkpt lat="45.85711" lon="3.53651">
        <ele>355</ele>
        <time>2024-05-02T15:03:30.000Z</time>
      </trkpt>
      <trkpt lat="45.85712" lon="3.53646">
        <ele>354.60000610352</ele>
        <time>2024-05-02T15:03:31.000Z</time>
      </trkpt>
      <trkpt lat="45.85713" lon="3.53642">
        <ele>354.39999389648</ele>
        <time>2024-05-02T15:03:32.000Z</time>
      </trkpt>
      <trkpt lat="45.85714" lon="3.53637">
        <ele>354.39999389648</ele>
        <time>2024-05-02T15:03:33.000Z</time>
      </trkpt>
      <trkpt lat="45.85715" lon="3.53633">
        <ele>354.39999389648</ele>
        <time>2024-05-02T15:03:34.000Z</time>
      </trkpt>
      <trkpt lat="45.85716" lon="3.53629">
        <ele>354.20001220703</ele>
        <time>2024-05-02T15:03:35.000Z</time>
      </trkpt>
      <trkpt lat="45.85718" lon="3.53624">
        <ele>354.20001220703</ele>
        <time>2024-05-02T15:03:36.000Z</time>
      </trkpt>
      <trkpt lat="45.85719" lon="3.5362">
        <ele>353.79998779297</ele>
        <time>2024-05-02T15:03:37.000Z</time>
      </trkpt>
      <trkpt lat="45.85721" lon="3.53617">
        <ele>353.60000610352</ele>
        <time>2024-05-02T15:03:38.000Z</time>
      </trkpt>
      <trkpt lat="45.85723" lon="3.53613">
        <ele>353.20001220703</ele>
        <time>2024-05-02T15:03:39.000Z</time>
      </trkpt>
      <trkpt lat="45.85725" lon="3.5361">
        <ele>352.79998779297</ele>
        <time>2024-05-02T15:03:40.000Z</time>
      </trkpt>
      <trkpt lat="45.85727" lon="3.53606">
        <ele>353</ele>
        <time>2024-05-02T15:03:41.000Z</time>
      </trkpt>
      <trkpt lat="45.85729" lon="3.53603">
        <ele>353</ele>
        <time>2024-05-02T15:03:42.000Z</time>
      </trkpt>
      <trkpt lat="45.85732" lon="3.53599">
        <ele>352.60000610352</ele>
        <time>2024-05-02T15:03:43.000Z</time>
      </trkpt>
      <trkpt lat="45.85733" lon="3.53595">
        <ele>352.39999389648</ele>
        <time>2024-05-02T15:03:44.000Z</time>
      </trkpt>
      <trkpt lat="45.85735" lon="3.53591">
        <ele>352.20001220703</ele>
        <time>2024-05-02T15:03:45.000Z</time>
      </trkpt>
      <trkpt lat="45.85736" lon="3.53587">
        <ele>351.79998779297</ele>
        <time>2024-05-02T15:03:46.000Z</time>
      </trkpt>
      <trkpt lat="45.85737" lon="3.53583">
        <ele>351.39999389648</ele>
        <time>2024-05-02T15:03:47.000Z</time>
      </trkpt>
      <trkpt lat="45.85736" lon="3.53578">
        <ele>351.39999389648</ele>
        <time>2024-05-02T15:03:48.000Z</time>
      </trkpt>
      <trkpt lat="45.85735" lon="3.53575">
        <ele>351.60000610352</ele>
        <time>2024-05-02T15:03:49.000Z</time>
      </trkpt>
      <trkpt lat="45.85732" lon="3.53573">
        <ele>351.60000610352</ele>
        <time>2024-05-02T15:03:50.000Z</time>
      </trkpt>
      <trkpt lat="45.85728" lon="3.53571">
        <ele>351.20001220703</ele>
        <time>2024-05-02T15:03:51.000Z</time>
      </trkpt>
      <trkpt lat="45.85724" lon="3.53572">
        <ele>351</ele>
        <time>2024-05-02T15:03:52.000Z</time>
      </trkpt>
      <trkpt lat="45.85721" lon="3.53574">
        <ele>351</ele>
        <time>2024-05-02T15:03:53.000Z</time>
      </trkpt>
      <trkpt lat="45.85718" lon="3.53577">
        <ele>350.79998779297</ele>
        <time>2024-05-02T15:03:54.000Z</time>
      </trkpt>
      <trkpt lat="45.85714" lon="3.53578">
        <ele>350.39999389648</ele>
        <time>2024-05-02T15:03:55.000Z</time>
      </trkpt>
      <trkpt lat="45.8571" lon="3.53579">
        <ele>350.39999389648</ele>
        <time>2024-05-02T15:03:56.000Z</time>
      </trkpt>
      <trkpt lat="45.85707" lon="3.53582">
        <ele>350</ele>
        <time>2024-05-02T15:03:57.000Z</time>
      </trkpt>
      <trkpt lat="45.85704" lon="3.53585">
        <ele>349.60000610352</ele>
        <time>2024-05-02T15:03:58.000Z</time>
      </trkpt>
      <trkpt lat="45.85701" lon="3.53588">
        <ele>349.39999389648</ele>
        <time>2024-05-02T15:03:59.000Z</time>
      </trkpt>
      <trkpt lat="45.85698" lon="3.53591">
        <ele>349</ele>
        <time>2024-05-02T15:04:00.000Z</time>
      </trkpt>
      <trkpt lat="45.85695" lon="3.53593">
        <ele>348.60000610352</ele>
        <time>2024-05-02T15:04:01.000Z</time>
      </trkpt>
      <trkpt lat="45.85692" lon="3.53596">
        <ele>348.20001220703</ele>
        <time>2024-05-02T15:04:02.000Z</time>
      </trkpt>
      <trkpt lat="45.85688" lon="3.53598">
        <ele>348.20001220703</ele>
        <time>2024-05-02T15:04:03.000Z</time>
      </trkpt>
      <trkpt lat="45.85685" lon="3.536">
        <ele>348</ele>
        <time>2024-05-02T15:04:04.000Z</time>
      </trkpt>
      <trkpt lat="45.85683" lon="3.53603">
        <ele>347.60000610352</ele>
        <time>2024-05-02T15:04:05.000Z</time>
      </trkpt>
      <trkpt lat="45.85681" lon="3.53607">
        <ele>347.39999389648</ele>
        <time>2024-05-02T15:04:06.000Z</time>
      </trkpt>
      <trkpt lat="45.85679" lon="3.5361">
        <ele>347</ele>
        <time>2024-05-02T15:04:07.000Z</time>
      </trkpt>
      <trkpt lat="45.85676" lon="3.53612">
        <ele>346.60000610352</ele>
        <time>2024-05-02T15:04:08.000Z</time>
      </trkpt>
      <trkpt lat="45.85673" lon="3.53616">
        <ele>346.60000610352</ele>
        <time>2024-05-02T15:04:09.000Z</time>
      </trkpt>
      <trkpt lat="45.85671" lon="3.53619">
        <ele>346.60000610352</ele>
        <time>2024-05-02T15:04:10.000Z</time>
      </trkpt>
      <trkpt lat="45.85668" lon="3.53622">
        <ele>346.60000610352</ele>
        <time>2024-05-02T15:04:11.000Z</time>
      </trkpt>
      <trkpt lat="45.85666" lon="3.53626">
        <ele>346.20001220703</ele>
        <time>2024-05-02T15:04:12.000Z</time>
      </trkpt>
      <trkpt lat="45.85664" lon="3.53629">
        <ele>346</ele>
        <time>2024-05-02T15:04:13.000Z</time>
      </trkpt>
      <trkpt lat="45.85661" lon="3.53632">
        <ele>345.79998779297</ele>
        <time>2024-05-02T15:04:14.000Z</time>
      </trkpt>
      <trkpt lat="45.85659" lon="3.53635">
        <ele>345.60000610352</ele>
        <time>2024-05-02T15:04:15.000Z</time>
      </trkpt>
      <trkpt lat="45.85657" lon="3.53638">
        <ele>345.39999389648</ele>
        <time>2024-05-02T15:04:16.000Z</time>
      </trkpt>
      <trkpt lat="45.85654" lon="3.53642">
        <ele>345</ele>
        <time>2024-05-02T15:04:17.000Z</time>
      </trkpt>
      <trkpt lat="45.85653" lon="3.53646">
        <ele>345</ele>
        <time>2024-05-02T15:04:18.000Z</time>
      </trkpt>
      <trkpt lat="45.85651" lon="3.53649">
        <ele>344.79998779297</ele>
        <time>2024-05-02T15:04:19.000Z</time>
      </trkpt>
      <trkpt lat="45.85649" lon="3.53652">
        <ele>344.79998779297</ele>
        <time>2024-05-02T15:04:20.000Z</time>
      </trkpt>
      <trkpt lat="45.85645" lon="3.53655">
        <ele>344.39999389648</ele>
        <time>2024-05-02T15:04:21.000Z</time>
      </trkpt>
      <trkpt lat="45.85642" lon="3.53657">
        <ele>344.20001220703</ele>
        <time>2024-05-02T15:04:22.000Z</time>
      </trkpt>
      <trkpt lat="45.85639" lon="3.5366">
        <ele>343.79998779297</ele>
        <time>2024-05-02T15:04:23.000Z</time>
      </trkpt>
      <trkpt lat="45.85636" lon="3.53663">
        <ele>343.60000610352</ele>
        <time>2024-05-02T15:04:24.000Z</time>
      </trkpt>
      <trkpt lat="45.85634" lon="3.53667">
        <ele>343.39999389648</ele>
        <time>2024-05-02T15:04:25.000Z</time>
      </trkpt>
      <trkpt lat="45.85631" lon="3.5367">
        <ele>343.20001220703</ele>
        <time>2024-05-02T15:04:26.000Z</time>
      </trkpt>
      <trkpt lat="45.8563" lon="3.53674">
        <ele>343</ele>
        <time>2024-05-02T15:04:27.000Z</time>
      </trkpt>
      <trkpt lat="45.85628" lon="3.53677">
        <ele>342.79998779297</ele>
        <time>2024-05-02T15:04:28.000Z</time>
      </trkpt>
      <trkpt lat="45.85626" lon="3.5368">
        <ele>342.79998779297</ele>
        <time>2024-05-02T15:04:29.000Z</time>
      </trkpt>
      <trkpt lat="45.85623" lon="3.53683">
        <ele>342.39999389648</ele>
        <time>2024-05-02T15:04:30.000Z</time>
      </trkpt>
      <trkpt lat="45.85621" lon="3.53686">
        <ele>342.20001220703</ele>
        <time>2024-05-02T15:04:31.000Z</time>
      </trkpt>
      <trkpt lat="45.85619" lon="3.53689">
        <ele>341.79998779297</ele>
        <time>2024-05-02T15:04:32.000Z</time>
      </trkpt>
      <trkpt lat="45.85616" lon="3.53692">
        <ele>341.79998779297</ele>
        <time>2024-05-02T15:04:33.000Z</time>
      </trkpt>
      <trkpt lat="45.85613" lon="3.53695">
        <ele>341.60000610352</ele>
        <time>2024-05-02T15:04:34.000Z</time>
      </trkpt>
      <trkpt lat="45.85611" lon="3.53698">
        <ele>341.20001220703</ele>
        <time>2024-05-02T15:04:35.000Z</time>
      </trkpt>
      <trkpt lat="45.85607" lon="3.537">
        <ele>341</ele>
        <time>2024-05-02T15:04:36.000Z</time>
      </trkpt>
      <trkpt lat="45.85604" lon="3.53704">
        <ele>340.79998779297</ele>
        <time>2024-05-02T15:04:37.000Z</time>
      </trkpt>
      <trkpt lat="45.85601" lon="3.53707">
        <ele>340.60000610352</ele>
        <time>2024-05-02T15:04:38.000Z</time>
      </trkpt>
      <trkpt lat="45.85598" lon="3.5371">
        <ele>340.39999389648</ele>
        <time>2024-05-02T15:04:39.000Z</time>
      </trkpt>
      <trkpt lat="45.85594" lon="3.53712">
        <ele>340.20001220703</ele>
        <time>2024-05-02T15:04:40.000Z</time>
      </trkpt>
      <trkpt lat="45.8559" lon="3.53715">
        <ele>340.20001220703</ele>
        <time>2024-05-02T15:04:41.000Z</time>
      </trkpt>
      <trkpt lat="45.85587" lon="3.53718">
        <ele>340</ele>
        <time>2024-05-02T15:04:42.000Z</time>
      </trkpt>
      <trkpt lat="45.85584" lon="3.53721">
        <ele>339.60000610352</ele>
        <time>2024-05-02T15:04:43.000Z</time>
      </trkpt>
      <trkpt lat="45.85582" lon="3.53724">
        <ele>339.20001220703</ele>
        <time>2024-05-02T15:04:44.000Z</time>
      </trkpt>
      <trkpt lat="45.85579" lon="3.53727">
        <ele>338.79998779297</ele>
        <time>2024-05-02T15:04:45.000Z</time>
      </trkpt>
      <trkpt lat="45.85576" lon="3.5373">
        <ele>338.39999389648</ele>
        <time>2024-05-02T15:04:46.000Z</time>
      </trkpt>
      <trkpt lat="45.85573" lon="3.53733">
        <ele>338.20001220703</ele>
        <time>2024-05-02T15:04:47.000Z</time>
      </trkpt>
      <trkpt lat="45.85571" lon="3.53736">
        <ele>338.20001220703</ele>
        <time>2024-05-02T15:04:48.000Z</time>
      </trkpt>
      <trkpt lat="45.85568" lon="3.53739">
        <ele>338.20001220703</ele>
        <time>2024-05-02T15:04:49.000Z</time>
      </trkpt>
      <trkpt lat="45.85565" lon="3.53742">
        <ele>337.79998779297</ele>
        <time>2024-05-02T15:04:50.000Z</time>
      </trkpt>
      <trkpt lat="45.85563" lon="3.53745">
        <ele>337.39999389648</ele>
        <time>2024-05-02T15:04:51.000Z</time>
      </trkpt>
      <trkpt lat="45.8556" lon="3.53748">
        <ele>337.20001220703</ele>
        <time>2024-05-02T15:04:52.000Z</time>
      </trkpt>
      <trkpt lat="45.85557" lon="3.53751">
        <ele>336.79998779297</ele>
        <time>2024-05-02T15:04:53.000Z</time>
      </trkpt>
      <trkpt lat="45.85554" lon="3.53753">
        <ele>336.39999389648</ele>
        <time>2024-05-02T15:04:54.000Z</time>
      </trkpt>
      <trkpt lat="45.85551" lon="3.53755">
        <ele>336.39999389648</ele>
        <time>2024-05-02T15:04:55.000Z</time>
      </trkpt>
      <trkpt lat="45.85548" lon="3.53758">
        <ele>336.60000610352</ele>
        <time>2024-05-02T15:04:56.000Z</time>
      </trkpt>
      <trkpt lat="45.85544" lon="3.5376">
        <ele>336.39999389648</ele>
        <time>2024-05-02T15:04:57.000Z</time>
      </trkpt>
      <trkpt lat="45.85541" lon="3.53762">
        <ele>336</ele>
        <time>2024-05-02T15:04:58.000Z</time>
      </trkpt>
      <trkpt lat="45.85538" lon="3.53764">
        <ele>335.79998779297</ele>
        <time>2024-05-02T15:04:59.000Z</time>
      </trkpt>
      <trkpt lat="45.85535" lon="3.53767">
        <ele>335.60000610352</ele>
        <time>2024-05-02T15:05:00.000Z</time>
      </trkpt>
      <trkpt lat="45.85532" lon="3.5377">
        <ele>335.20001220703</ele>
        <time>2024-05-02T15:05:01.000Z</time>
      </trkpt>
      <trkpt lat="45.85528" lon="3.53772">
        <ele>334.79998779297</ele>
        <time>2024-05-02T15:05:02.000Z</time>
      </trkpt>
      <trkpt lat="45.85525" lon="3.53775">
        <ele>334.60000610352</ele>
        <time>2024-05-02T15:05:03.000Z</time>
      </trkpt>
      <trkpt lat="45.85522" lon="3.53777">
        <ele>334.60000610352</ele>
        <time>2024-05-02T15:05:04.000Z</time>
      </trkpt>
      <trkpt lat="45.85518" lon="3.53779">
        <ele>334.39999389648</ele>
        <time>2024-05-02T15:05:05.000Z</time>
      </trkpt>
      <trkpt lat="45.85515" lon="3.53782">
        <ele>334</ele>
        <time>2024-05-02T15:05:06.000Z</time>
      </trkpt>
      <trkpt lat="45.8551" lon="3.53783">
        <ele>333.79998779297</ele>
        <time>2024-05-02T15:05:07.000Z</time>
      </trkpt>
      <trkpt lat="45.85507" lon="3.53785">
        <ele>333.20001220703</ele>
        <time>2024-05-02T15:05:08.000Z</time>
      </trkpt>
      <trkpt lat="45.85503" lon="3.53787">
        <ele>333</ele>
        <time>2024-05-02T15:05:09.000Z</time>
      </trkpt>
      <trkpt lat="45.855" lon="3.53789">
        <ele>332.39999389648</ele>
        <time>2024-05-02T15:05:10.000Z</time>
      </trkpt>
      <trkpt lat="45.85497" lon="3.53791">
        <ele>332.39999389648</ele>
        <time>2024-05-02T15:05:11.000Z</time>
      </trkpt>
      <trkpt lat="45.85494" lon="3.53793">
        <ele>332.60000610352</ele>
        <time>2024-05-02T15:05:12.000Z</time>
      </trkpt>
      <trkpt lat="45.85491" lon="3.53796">
        <ele>332.39999389648</ele>
        <time>2024-05-02T15:05:13.000Z</time>
      </trkpt>
      <trkpt lat="45.85488" lon="3.53798">
        <ele>332</ele>
        <time>2024-05-02T15:05:14.000Z</time>
      </trkpt>
      <trkpt lat="45.85485" lon="3.53799">
        <ele>331.79998779297</ele>
        <time>2024-05-02T15:05:15.000Z</time>
      </trkpt>
      <trkpt lat="45.85481" lon="3.53801">
        <ele>331.39999389648</ele>
        <time>2024-05-02T15:05:16.000Z</time>
      </trkpt>
      <trkpt lat="45.85478" lon="3.53803">
        <ele>331</ele>
        <time>2024-05-02T15:05:17.000Z</time>
      </trkpt>
      <trkpt lat="45.85475" lon="3.53804">
        <ele>330.79998779297</ele>
        <time>2024-05-02T15:05:18.000Z</time>
      </trkpt>
      <trkpt lat="45.85472" lon="3.53806">
        <ele>330.60000610352</ele>
        <time>2024-05-02T15:05:19.000Z</time>
      </trkpt>
      <trkpt lat="45.8547" lon="3.53807">
        <ele>330.60000610352</ele>
        <time>2024-05-02T15:05:20.000Z</time>
      </trkpt>
      <trkpt lat="45.85466" lon="3.53808">
        <ele>330.60000610352</ele>
        <time>2024-05-02T15:05:21.000Z</time>
      </trkpt>
      <trkpt lat="45.85462" lon="3.5381">
        <ele>330.60000610352</ele>
        <time>2024-05-02T15:05:22.000Z</time>
      </trkpt>
      <trkpt lat="45.85458" lon="3.53812">
        <ele>330.20001220703</ele>
        <time>2024-05-02T15:05:23.000Z</time>
      </trkpt>
      <trkpt lat="45.85455" lon="3.53814">
        <ele>329.79998779297</ele>
        <time>2024-05-02T15:05:24.000Z</time>
      </trkpt>
      <trkpt lat="45.85452" lon="3.53815">
        <ele>329.60000610352</ele>
        <time>2024-05-02T15:05:25.000Z</time>
      </trkpt>
      <trkpt lat="45.85448" lon="3.53817">
        <ele>329.20001220703</ele>
        <time>2024-05-02T15:05:26.000Z</time>
      </trkpt>
      <trkpt lat="45.85445" lon="3.53818">
        <ele>328.79998779297</ele>
        <time>2024-05-02T15:05:27.000Z</time>
      </trkpt>
      <trkpt lat="45.85442" lon="3.53819">
        <ele>329</ele>
        <time>2024-05-02T15:05:28.000Z</time>
      </trkpt>
      <trkpt lat="45.85439" lon="3.5382">
        <ele>328.79998779297</ele>
        <time>2024-05-02T15:05:29.000Z</time>
      </trkpt>
      <trkpt lat="45.85436" lon="3.5382">
        <ele>328.39999389648</ele>
        <time>2024-05-02T15:05:30.000Z</time>
      </trkpt>
      <trkpt lat="45.85432" lon="3.53822">
        <ele>328</ele>
        <time>2024-05-02T15:05:31.000Z</time>
      </trkpt>
      <trkpt lat="45.85428" lon="3.53823">
        <ele>327.79998779297</ele>
        <time>2024-05-02T15:05:32.000Z</time>
      </trkpt>
      <trkpt lat="45.85425" lon="3.53824">
        <ele>327.39999389648</ele>
        <time>2024-05-02T15:05:33.000Z</time>
      </trkpt>
      <trkpt lat="45.85422" lon="3.53825">
        <ele>327.39999389648</ele>
        <time>2024-05-02T15:05:34.000Z</time>
      </trkpt>
      <trkpt lat="45.85419" lon="3.53828">
        <ele>327.39999389648</ele>
        <time>2024-05-02T15:05:35.000Z</time>
      </trkpt>
      <trkpt lat="45.85416" lon="3.53828">
        <ele>327.20001220703</ele>
        <time>2024-05-02T15:05:36.000Z</time>
      </trkpt>
      <trkpt lat="45.85412" lon="3.53829">
        <ele>326.79998779297</ele>
        <time>2024-05-02T15:05:37.000Z</time>
      </trkpt>
      <trkpt lat="45.85409" lon="3.53831">
        <ele>326.60000610352</ele>
        <time>2024-05-02T15:05:38.000Z</time>
      </trkpt>
      <trkpt lat="45.85405" lon="3.53832">
        <ele>326.20001220703</ele>
        <time>2024-05-02T15:05:39.000Z</time>
      </trkpt>
      <trkpt lat="45.85402" lon="3.53833">
        <ele>326.20001220703</ele>
        <time>2024-05-02T15:05:40.000Z</time>
      </trkpt>
      <trkpt lat="45.85399" lon="3.53834">
        <ele>326.20001220703</ele>
        <time>2024-05-02T15:05:41.000Z</time>
      </trkpt>
      <trkpt lat="45.85396" lon="3.53834">
        <ele>326</ele>
        <time>2024-05-02T15:05:42.000Z</time>
      </trkpt>
      <trkpt lat="45.85392" lon="3.53835">
        <ele>325.79998779297</ele>
        <time>2024-05-02T15:05:43.000Z</time>
      </trkpt>
      <trkpt lat="45.85389" lon="3.53835">
        <ele>325.60000610352</ele>
        <time>2024-05-02T15:05:44.000Z</time>
      </trkpt>
      <trkpt lat="45.85387" lon="3.53835">
        <ele>325.39999389648</ele>
        <time>2024-05-02T15:05:45.000Z</time>
      </trkpt>
      <trkpt lat="45.85383" lon="3.53836">
        <ele>325</ele>
        <time>2024-05-02T15:05:46.000Z</time>
      </trkpt>
      <trkpt lat="45.8538" lon="3.53837">
        <ele>324.60000610352</ele>
        <time>2024-05-02T15:05:47.000Z</time>
      </trkpt>
      <trkpt lat="45.85376" lon="3.53837">
        <ele>324.60000610352</ele>
        <time>2024-05-02T15:05:48.000Z</time>
      </trkpt>
      <trkpt lat="45.85373" lon="3.53838">
        <ele>324.39999389648</ele>
        <time>2024-05-02T15:05:49.000Z</time>
      </trkpt>
      <trkpt lat="45.8537" lon="3.53838">
        <ele>324</ele>
        <time>2024-05-02T15:05:50.000Z</time>
      </trkpt>
      <trkpt lat="45.85367" lon="3.53839">
        <ele>323.79998779297</ele>
        <time>2024-05-02T15:05:51.000Z</time>
      </trkpt>
      <trkpt lat="45.85363" lon="3.53838">
        <ele>323.60000610352</ele>
        <time>2024-05-02T15:05:52.000Z</time>
      </trkpt>
      <trkpt lat="45.8536" lon="3.53838">
        <ele>323.20001220703</ele>
        <time>2024-05-02T15:05:53.000Z</time>
      </trkpt>
      <trkpt lat="45.85356" lon="3.53838">
        <ele>323</ele>
        <time>2024-05-02T15:05:54.000Z</time>
      </trkpt>
      <trkpt lat="45.85352" lon="3.53838">
        <ele>322.79998779297</ele>
        <time>2024-05-02T15:05:55.000Z</time>
      </trkpt>
      <trkpt lat="45.85348" lon="3.53839">
        <ele>322.60000610352</ele>
        <time>2024-05-02T15:05:56.000Z</time>
      </trkpt>
      <trkpt lat="45.85345" lon="3.5384">
        <ele>322.20001220703</ele>
        <time>2024-05-02T15:05:57.000Z</time>
      </trkpt>
      <trkpt lat="45.85341" lon="3.5384">
        <ele>321.79998779297</ele>
        <time>2024-05-02T15:05:58.000Z</time>
      </trkpt>
      <trkpt lat="45.85338" lon="3.53841">
        <ele>321.79998779297</ele>
        <time>2024-05-02T15:05:59.000Z</time>
      </trkpt>
      <trkpt lat="45.85336" lon="3.53841">
        <ele>321.79998779297</ele>
        <time>2024-05-02T15:06:00.000Z</time>
      </trkpt>
      <trkpt lat="45.85332" lon="3.53841">
        <ele>321.79998779297</ele>
        <time>2024-05-02T15:06:01.000Z</time>
      </trkpt>
      <trkpt lat="45.85328" lon="3.53841">
        <ele>321.60000610352</ele>
        <time>2024-05-02T15:06:02.000Z</time>
      </trkpt>
      <trkpt lat="45.85325" lon="3.5384">
        <ele>321.20001220703</ele>
        <time>2024-05-02T15:06:03.000Z</time>
      </trkpt>
      <trkpt lat="45.85322" lon="3.53839">
        <ele>321</ele>
        <time>2024-05-02T15:06:04.000Z</time>
      </trkpt>
      <trkpt lat="45.85319" lon="3.53839">
        <ele>320.79998779297</ele>
        <time>2024-05-02T15:06:05.000Z</time>
      </trkpt>
      <trkpt lat="45.85316" lon="3.53839">
        <ele>320.20001220703</ele>
        <time>2024-05-02T15:06:06.000Z</time>
      </trkpt>
      <trkpt lat="45.85312" lon="3.53837">
        <ele>320.20001220703</ele>
        <time>2024-05-02T15:06:07.000Z</time>
      </trkpt>
      <trkpt lat="45.85309" lon="3.53836">
        <ele>320.39999389648</ele>
        <time>2024-05-02T15:06:08.000Z</time>
      </trkpt>
      <trkpt lat="45.85307" lon="3.53834">
        <ele>320.20001220703</ele>
        <time>2024-05-02T15:06:09.000Z</time>
      </trkpt>
      <trkpt lat="45.85303" lon="3.5383">
        <ele>320.20001220703</ele>
        <time>2024-05-02T15:06:10.000Z</time>
      </trkpt>
      <trkpt lat="45.85299" lon="3.53827">
        <ele>320</ele>
        <time>2024-05-02T15:06:11.000Z</time>
      </trkpt>
      <trkpt lat="45.85295" lon="3.53824">
        <ele>319.79998779297</ele>
        <time>2024-05-02T15:06:12.000Z</time>
      </trkpt>
      <trkpt lat="45.85291" lon="3.53822">
        <ele>319.20001220703</ele>
        <time>2024-05-02T15:06:13.000Z</time>
      </trkpt>
      <trkpt lat="45.85287" lon="3.5382">
        <ele>319.20001220703</ele>
        <time>2024-05-02T15:06:14.000Z</time>
      </trkpt>
      <trkpt lat="45.85285" lon="3.53819">
        <ele>319</ele>
        <time>2024-05-02T15:06:15.000Z</time>
      </trkpt>
      <trkpt lat="45.85281" lon="3.53817">
        <ele>319</ele>
        <time>2024-05-02T15:06:16.000Z</time>
      </trkpt>
      <trkpt lat="45.85278" lon="3.53816">
        <ele>319</ele>
        <time>2024-05-02T15:06:17.000Z</time>
      </trkpt>
      <trkpt lat="45.85274" lon="3.53815">
        <ele>319</ele>
        <time>2024-05-02T15:06:18.000Z</time>
      </trkpt>
      <trkpt lat="45.8527" lon="3.53813">
        <ele>318.79998779297</ele>
        <time>2024-05-02T15:06:19.000Z</time>
      </trkpt>
      <trkpt lat="45.85266" lon="3.53811">
        <ele>318.60000610352</ele>
        <time>2024-05-02T15:06:20.000Z</time>
      </trkpt>
      <trkpt lat="45.85262" lon="3.5381">
        <ele>318.39999389648</ele>
        <time>2024-05-02T15:06:21.000Z</time>
      </trkpt>
      <trkpt lat="45.85259" lon="3.53809">
        <ele>318</ele>
        <time>2024-05-02T15:06:22.000Z</time>
      </trkpt>
      <trkpt lat="45.85256" lon="3.53808">
        <ele>317.79998779297</ele>
        <time>2024-05-02T15:06:23.000Z</time>
      </trkpt>
      <trkpt lat="45.85253" lon="3.53807">
        <ele>317.60000610352</ele>
        <time>2024-05-02T15:06:24.000Z</time>
      </trkpt>
      <trkpt lat="45.8525" lon="3.53806">
        <ele>317.60000610352</ele>
        <time>2024-05-02T15:06:25.000Z</time>
      </trkpt>
      <trkpt lat="45.85246" lon="3.53805">
        <ele>317.60000610352</ele>
        <time>2024-05-02T15:06:26.000Z</time>
      </trkpt>
      <trkpt lat="45.85243" lon="3.53804">
        <ele>317.39999389648</ele>
        <time>2024-05-02T15:06:27.000Z</time>
      </trkpt>
      <trkpt lat="45.8524" lon="3.53803">
        <ele>317.20001220703</ele>
        <time>2024-05-02T15:06:28.000Z</time>
      </trkpt>
      <trkpt lat="45.85236" lon="3.53801">
        <ele>316.79998779297</ele>
        <time>2024-05-02T15:06:29.000Z</time>
      </trkpt>
      <trkpt lat="45.85233" lon="3.538">
        <ele>316.39999389648</ele>
        <time>2024-05-02T15:06:30.000Z</time>
      </trkpt>
      <trkpt lat="45.85229" lon="3.538">
        <ele>316.20001220703</ele>
        <time>2024-05-02T15:06:31.000Z</time>
      </trkpt>
      <trkpt lat="45.85226" lon="3.53799">
        <ele>316</ele>
        <time>2024-05-02T15:06:32.000Z</time>
      </trkpt>
      <trkpt lat="45.85223" lon="3.53799">
        <ele>315.79998779297</ele>
        <time>2024-05-02T15:06:33.000Z</time>
      </trkpt>
      <trkpt lat="45.8522" lon="3.53798">
        <ele>316</ele>
        <time>2024-05-02T15:06:34.000Z</time>
      </trkpt>
      <trkpt lat="45.85217" lon="3.53797">
        <ele>315.79998779297</ele>
        <time>2024-05-02T15:06:35.000Z</time>
      </trkpt>
      <trkpt lat="45.85213" lon="3.53796">
        <ele>315.60000610352</ele>
        <time>2024-05-02T15:06:36.000Z</time>
      </trkpt>
      <trkpt lat="45.85209" lon="3.53795">
        <ele>315.39999389648</ele>
        <time>2024-05-02T15:06:37.000Z</time>
      </trkpt>
      <trkpt lat="45.85206" lon="3.53795">
        <ele>315.20001220703</ele>
        <time>2024-05-02T15:06:38.000Z</time>
      </trkpt>
      <trkpt lat="45.85203" lon="3.53794">
        <ele>315</ele>
        <time>2024-05-02T15:06:39.000Z</time>
      </trkpt>
      <trkpt lat="45.852" lon="3.53794">
        <ele>315</ele>
        <time>2024-05-02T15:06:40.000Z</time>
      </trkpt>
      <trkpt lat="45.85197" lon="3.53793">
        <ele>314.79998779297</ele>
        <time>2024-05-02T15:06:41.000Z</time>
      </trkpt>
      <trkpt lat="45.85194" lon="3.53793">
        <ele>314.60000610352</ele>
        <time>2024-05-02T15:06:42.000Z</time>
      </trkpt>
      <trkpt lat="45.8519" lon="3.53793">
        <ele>314.39999389648</ele>
        <time>2024-05-02T15:06:43.000Z</time>
      </trkpt>
      <trkpt lat="45.85187" lon="3.53793">
        <ele>314.39999389648</ele>
        <time>2024-05-02T15:06:44.000Z</time>
      </trkpt>
      <trkpt lat="45.85184" lon="3.53793">
        <ele>314.20001220703</ele>
        <time>2024-05-02T15:06:45.000Z</time>
      </trkpt>
      <trkpt lat="45.8518" lon="3.53794">
        <ele>314</ele>
        <time>2024-05-02T15:06:46.000Z</time>
      </trkpt>
      <trkpt lat="45.85177" lon="3.53795">
        <ele>313.79998779297</ele>
        <time>2024-05-02T15:06:47.000Z</time>
      </trkpt>
      <trkpt lat="45.85174" lon="3.53795">
        <ele>313.79998779297</ele>
        <time>2024-05-02T15:06:48.000Z</time>
      </trkpt>
      <trkpt lat="45.85171" lon="3.53796">
        <ele>313.60000610352</ele>
        <time>2024-05-02T15:06:49.000Z</time>
      </trkpt>
      <trkpt lat="45.85168" lon="3.53796">
        <ele>313.39999389648</ele>
        <time>2024-05-02T15:06:50.000Z</time>
      </trkpt>
      <trkpt lat="45.85164" lon="3.53797">
        <ele>313.39999389648</ele>
        <time>2024-05-02T15:06:51.000Z</time>
      </trkpt>
      <trkpt lat="45.85161" lon="3.53798">
        <ele>313.60000610352</ele>
        <time>2024-05-02T15:06:52.000Z</time>
      </trkpt>
      <trkpt lat="45.85158" lon="3.53799">
        <ele>313.39999389648</ele>
        <time>2024-05-02T15:06:53.000Z</time>
      </trkpt>
      <trkpt lat="45.85154" lon="3.538">
        <ele>313.20001220703</ele>
        <time>2024-05-02T15:06:54.000Z</time>
      </trkpt>
      <trkpt lat="45.85151" lon="3.53801">
        <ele>312.79998779297</ele>
        <time>2024-05-02T15:06:55.000Z</time>
      </trkpt>
      <trkpt lat="45.85147" lon="3.53801">
        <ele>312.39999389648</ele>
        <time>2024-05-02T15:06:56.000Z</time>
      </trkpt>
      <trkpt lat="45.85144" lon="3.53802">
        <ele>312.20001220703</ele>
        <time>2024-05-02T15:06:57.000Z</time>
      </trkpt>
      <trkpt lat="45.85141" lon="3.53802">
        <ele>312</ele>
        <time>2024-05-02T15:06:58.000Z</time>
      </trkpt>
      <trkpt lat="45.85137" lon="3.53803">
        <ele>312</ele>
        <time>2024-05-02T15:06:59.000Z</time>
      </trkpt>
      <trkpt lat="45.85134" lon="3.53804">
        <ele>312</ele>
        <time>2024-05-02T15:07:00.000Z</time>
      </trkpt>
      <trkpt lat="45.8513" lon="3.53806">
        <ele>311.79998779297</ele>
        <time>2024-05-02T15:07:01.000Z</time>
      </trkpt>
      <trkpt lat="45.85126" lon="3.53808">
        <ele>311.79998779297</ele>
        <time>2024-05-02T15:07:02.000Z</time>
      </trkpt>
      <trkpt lat="45.85123" lon="3.5381">
        <ele>311.60000610352</ele>
        <time>2024-05-02T15:07:03.000Z</time>
      </trkpt>
      <trkpt lat="45.8512" lon="3.53812">
        <ele>311.60000610352</ele>
        <time>2024-05-02T15:07:04.000Z</time>
      </trkpt>
      <trkpt lat="45.85117" lon="3.53815">
        <ele>311.60000610352</ele>
        <time>2024-05-02T15:07:05.000Z</time>
      </trkpt>
      <trkpt lat="45.85114" lon="3.53817">
        <ele>311.39999389648</ele>
        <time>2024-05-02T15:07:06.000Z</time>
      </trkpt>
      <trkpt lat="45.85111" lon="3.5382">
        <ele>311.39999389648</ele>
        <time>2024-05-02T15:07:07.000Z</time>
      </trkpt>
      <trkpt lat="45.85109" lon="3.53822">
        <ele>311.39999389648</ele>
        <time>2024-05-02T15:07:08.000Z</time>
      </trkpt>
      <trkpt lat="45.85106" lon="3.53824">
        <ele>311</ele>
        <time>2024-05-02T15:07:09.000Z</time>
      </trkpt>
      <trkpt lat="45.85103" lon="3.53826">
        <ele>311</ele>
        <time>2024-05-02T15:07:10.000Z</time>
      </trkpt>
      <trkpt lat="45.851" lon="3.53827">
        <ele>310.79998779297</ele>
        <time>2024-05-02T15:07:11.000Z</time>
      </trkpt>
      <trkpt lat="45.85097" lon="3.53829">
        <ele>310.79998779297</ele>
        <time>2024-05-02T15:07:12.000Z</time>
      </trkpt>
      <trkpt lat="45.85094" lon="3.5383">
        <ele>310.79998779297</ele>
        <time>2024-05-02T15:07:13.000Z</time>
      </trkpt>
      <trkpt lat="45.85091" lon="3.53832">
        <ele>310.79998779297</ele>
        <time>2024-05-02T15:07:14.000Z</time>
      </trkpt>
      <trkpt lat="45.85088" lon="3.53833">
        <ele>311</ele>
        <time>2024-05-02T15:07:15.000Z</time>
      </trkpt>
      <trkpt lat="45.85085" lon="3.53835">
        <ele>310.79998779297</ele>
        <time>2024-05-02T15:07:16.000Z</time>
      </trkpt>
      <trkpt lat="45.85083" lon="3.53837">
        <ele>311</ele>
        <time>2024-05-02T15:07:17.000Z</time>
      </trkpt>
      <trkpt lat="45.8508" lon="3.53838">
        <ele>311</ele>
        <time>2024-05-02T15:07:18.000Z</time>
      </trkpt>
      <trkpt lat="45.85077" lon="3.53838">
        <ele>310.79998779297</ele>
        <time>2024-05-02T15:07:19.000Z</time>
      </trkpt>
      <trkpt lat="45.85073" lon="3.53839">
        <ele>310.60000610352</ele>
        <time>2024-05-02T15:07:20.000Z</time>
      </trkpt>
      <trkpt lat="45.8507" lon="3.53839">
        <ele>310.60000610352</ele>
        <time>2024-05-02T15:07:21.000Z</time>
      </trkpt>
      <trkpt lat="45.85067" lon="3.53839">
        <ele>310.39999389648</ele>
        <time>2024-05-02T15:07:22.000Z</time>
      </trkpt>
      <trkpt lat="45.85063" lon="3.53839">
        <ele>310.20001220703</ele>
        <time>2024-05-02T15:07:23.000Z</time>
      </trkpt>
      <trkpt lat="45.8506" lon="3.53838">
        <ele>310.20001220703</ele>
        <time>2024-05-02T15:07:24.000Z</time>
      </trkpt>
      <trkpt lat="45.85057" lon="3.53838">
        <ele>310.20001220703</ele>
        <time>2024-05-02T15:07:25.000Z</time>
      </trkpt>
      <trkpt lat="45.85054" lon="3.53837">
        <ele>310.39999389648</ele>
        <time>2024-05-02T15:07:26.000Z</time>
      </trkpt>
      <trkpt lat="45.85051" lon="3.53836">
        <ele>310.39999389648</ele>
        <time>2024-05-02T15:07:27.000Z</time>
      </trkpt>
      <trkpt lat="45.85048" lon="3.53835">
        <ele>310.39999389648</ele>
        <time>2024-05-02T15:07:28.000Z</time>
      </trkpt>
      <trkpt lat="45.85045" lon="3.53832">
        <ele>310.20001220703</ele>
        <time>2024-05-02T15:07:29.000Z</time>
      </trkpt>
      <trkpt lat="45.85042" lon="3.53829">
        <ele>310</ele>
        <time>2024-05-02T15:07:30.000Z</time>
      </trkpt>
      <trkpt lat="45.8504" lon="3.53825">
        <ele>309.79998779297</ele>
        <time>2024-05-02T15:07:31.000Z</time>
      </trkpt>
      <trkpt lat="45.85038" lon="3.53821">
        <ele>309.39999389648</ele>
        <time>2024-05-02T15:07:32.000Z</time>
      </trkpt>
      <trkpt lat="45.85036" lon="3.53817">
        <ele>309.20001220703</ele>
        <time>2024-05-02T15:07:33.000Z</time>
      </trkpt>
      <trkpt lat="45.85033" lon="3.53814">
        <ele>309.20001220703</ele>
        <time>2024-05-02T15:07:34.000Z</time>
      </trkpt>
      <trkpt lat="45.85031" lon="3.53811">
        <ele>309.20001220703</ele>
        <time>2024-05-02T15:07:35.000Z</time>
      </trkpt>
      <trkpt lat="45.85028" lon="3.53809">
        <ele>309</ele>
        <time>2024-05-02T15:07:36.000Z</time>
      </trkpt>
      <trkpt lat="45.85025" lon="3.53806">
        <ele>308.79998779297</ele>
        <time>2024-05-02T15:07:37.000Z</time>
      </trkpt>
      <trkpt lat="45.85022" lon="3.53804">
        <ele>308.79998779297</ele>
        <time>2024-05-02T15:07:38.000Z</time>
      </trkpt>
      <trkpt lat="45.85019" lon="3.53803">
        <ele>308.60000610352</ele>
        <time>2024-05-02T15:07:39.000Z</time>
      </trkpt>
      <trkpt lat="45.85016" lon="3.53803">
        <ele>308.60000610352</ele>
        <time>2024-05-02T15:07:40.000Z</time>
      </trkpt>
      <trkpt lat="45.85013" lon="3.53803">
        <ele>308.79998779297</ele>
        <time>2024-05-02T15:07:41.000Z</time>
      </trkpt>
      <trkpt lat="45.8501" lon="3.53802">
        <ele>308.79998779297</ele>
        <time>2024-05-02T15:07:42.000Z</time>
      </trkpt>
      <trkpt lat="45.85007" lon="3.538">
        <ele>309</ele>
        <time>2024-05-02T15:07:43.000Z</time>
      </trkpt>
      <trkpt lat="45.85004" lon="3.53798">
        <ele>309.20001220703</ele>
        <time>2024-05-02T15:07:44.000Z</time>
      </trkpt>
      <trkpt lat="45.85002" lon="3.53797">
        <ele>309</ele>
        <time>2024-05-02T15:07:45.000Z</time>
      </trkpt>
      <trkpt lat="45.85" lon="3.53794">
        <ele>309</ele>
        <time>2024-05-02T15:07:46.000Z</time>
      </trkpt>
      <trkpt lat="45.84998" lon="3.53791">
        <ele>308.79998779297</ele>
        <time>2024-05-02T15:07:47.000Z</time>
      </trkpt>
      <trkpt lat="45.84996" lon="3.53786">
        <ele>308.79998779297</ele>
        <time>2024-05-02T15:07:48.000Z</time>
      </trkpt>
      <trkpt lat="45.84995" lon="3.53782">
        <ele>308.79998779297</ele>
        <time>2024-05-02T15:07:49.000Z</time>
      </trkpt>
      <trkpt lat="45.84993" lon="3.53778">
        <ele>308.60000610352</ele>
        <time>2024-05-02T15:07:50.000Z</time>
      </trkpt>
      <trkpt lat="45.84992" lon="3.53775">
        <ele>308.60000610352</ele>
        <time>2024-05-02T15:07:51.000Z</time>
      </trkpt>
      <trkpt lat="45.84991" lon="3.53771">
        <ele>308.60000610352</ele>
        <time>2024-05-02T15:07:52.000Z</time>
      </trkpt>
      <trkpt lat="45.84988" lon="3.53767">
        <ele>308.79998779297</ele>
        <time>2024-05-02T15:07:53.000Z</time>
      </trkpt>
      <trkpt lat="45.84986" lon="3.53763">
        <ele>308.79998779297</ele>
        <time>2024-05-02T15:07:54.000Z</time>
      </trkpt>
      <trkpt lat="45.84985" lon="3.5376">
        <ele>308.79998779297</ele>
        <time>2024-05-02T15:07:55.000Z</time>
      </trkpt>
      <trkpt lat="45.84983" lon="3.53755">
        <ele>308.60000610352</ele>
        <time>2024-05-02T15:07:56.000Z</time>
      </trkpt>
      <trkpt lat="45.84981" lon="3.53752">
        <ele>308.39999389648</ele>
        <time>2024-05-02T15:07:57.000Z</time>
      </trkpt>
      <trkpt lat="45.84979" lon="3.53748">
        <ele>308.20001220703</ele>
        <time>2024-05-02T15:07:58.000Z</time>
      </trkpt>
      <trkpt lat="45.84978" lon="3.53744">
        <ele>308</ele>
        <time>2024-05-02T15:07:59.000Z</time>
      </trkpt>
      <trkpt lat="45.84977" lon="3.53741">
        <ele>308</ele>
        <time>2024-05-02T15:08:00.000Z</time>
      </trkpt>
      <trkpt lat="45.84976" lon="3.53736">
        <ele>308</ele>
        <time>2024-05-02T15:08:01.000Z</time>
      </trkpt>
      <trkpt lat="45.84974" lon="3.53732">
        <ele>308.20001220703</ele>
        <time>2024-05-02T15:08:02.000Z</time>
      </trkpt>
      <trkpt lat="45.84973" lon="3.53727">
        <ele>308.39999389648</ele>
        <time>2024-05-02T15:08:03.000Z</time>
      </trkpt>
      <trkpt lat="45.84972" lon="3.53723">
        <ele>308.20001220703</ele>
        <time>2024-05-02T15:08:04.000Z</time>
      </trkpt>
      <trkpt lat="45.84971" lon="3.53719">
        <ele>308.20001220703</ele>
        <time>2024-05-02T15:08:05.000Z</time>
      </trkpt>
      <trkpt lat="45.84969" lon="3.53715">
        <ele>308</ele>
        <time>2024-05-02T15:08:06.000Z</time>
      </trkpt>
      <trkpt lat="45.84968" lon="3.53711">
        <ele>307.79998779297</ele>
        <time>2024-05-02T15:08:07.000Z</time>
      </trkpt>
      <trkpt lat="45.84968" lon="3.53706">
        <ele>307.60000610352</ele>
        <time>2024-05-02T15:08:08.000Z</time>
      </trkpt>
      <trkpt lat="45.84966" lon="3.53702">
        <ele>307.60000610352</ele>
        <time>2024-05-02T15:08:09.000Z</time>
      </trkpt>
      <trkpt lat="45.84965" lon="3.53698">
        <ele>307.79998779297</ele>
        <time>2024-05-02T15:08:10.000Z</time>
      </trkpt>
      <trkpt lat="45.84963" lon="3.53694">
        <ele>308</ele>
        <time>2024-05-02T15:08:11.000Z</time>
      </trkpt>
      <trkpt lat="45.84962" lon="3.5369">
        <ele>308</ele>
        <time>2024-05-02T15:08:12.000Z</time>
      </trkpt>
      <trkpt lat="45.84961" lon="3.53686">
        <ele>308.20001220703</ele>
        <time>2024-05-02T15:08:13.000Z</time>
      </trkpt>
      <trkpt lat="45.84959" lon="3.53682">
        <ele>308.39999389648</ele>
        <time>2024-05-02T15:08:14.000Z</time>
      </trkpt>
      <trkpt lat="45.84958" lon="3.53678">
        <ele>308.39999389648</ele>
        <time>2024-05-02T15:08:15.000Z</time>
      </trkpt>
      <trkpt lat="45.84956" lon="3.53673">
        <ele>308</ele>
        <time>2024-05-02T15:08:16.000Z</time>
      </trkpt>
      <trkpt lat="45.84955" lon="3.53669">
        <ele>307.79998779297</ele>
        <time>2024-05-02T15:08:17.000Z</time>
      </trkpt>
      <trkpt lat="45.84954" lon="3.53665">
        <ele>307.60000610352</ele>
        <time>2024-05-02T15:08:18.000Z</time>
      </trkpt>
      <trkpt lat="45.84952" lon="3.53661">
        <ele>307.39999389648</ele>
        <time>2024-05-02T15:08:19.000Z</time>
      </trkpt>
      <trkpt lat="45.84951" lon="3.53657">
        <ele>307.39999389648</ele>
        <time>2024-05-02T15:08:20.000Z</time>
      </trkpt>
      <trkpt lat="45.8495" lon="3.53652">
        <ele>307.60000610352</ele>
        <time>2024-05-02T15:08:21.000Z</time>
      </trkpt>
      <trkpt lat="45.84948" lon="3.53648">
        <ele>307.60000610352</ele>
        <time>2024-05-02T15:08:22.000Z</time>
      </trkpt>
      <trkpt lat="45.84947" lon="3.53643">
        <ele>307.79998779297</ele>
        <time>2024-05-02T15:08:23.000Z</time>
      </trkpt>
      <trkpt lat="45.84945" lon="3.53639">
        <ele>307.79998779297</ele>
        <time>2024-05-02T15:08:24.000Z</time>
      </trkpt>
      <trkpt lat="45.84944" lon="3.53635">
        <ele>307.60000610352</ele>
        <time>2024-05-02T15:08:25.000Z</time>
      </trkpt>
      <trkpt lat="45.84942" lon="3.5363">
        <ele>307.39999389648</ele>
        <time>2024-05-02T15:08:26.000Z</time>
      </trkpt>
      <trkpt lat="45.8494" lon="3.53626">
        <ele>307.20001220703</ele>
        <time>2024-05-02T15:08:27.000Z</time>
      </trkpt>
      <trkpt lat="45.84939" lon="3.53622">
        <ele>307</ele>
        <time>2024-05-02T15:08:28.000Z</time>
      </trkpt>
      <trkpt lat="45.84938" lon="3.53618">
        <ele>307</ele>
        <time>2024-05-02T15:08:29.000Z</time>
      </trkpt>
      <trkpt lat="45.84937" lon="3.53613">
        <ele>307</ele>
        <time>2024-05-02T15:08:30.000Z</time>
      </trkpt>
      <trkpt lat="45.84936" lon="3.53609">
        <ele>307</ele>
        <time>2024-05-02T15:08:31.000Z</time>
      </trkpt>
      <trkpt lat="45.84934" lon="3.53605">
        <ele>307</ele>
        <time>2024-05-02T15:08:32.000Z</time>
      </trkpt>
      <trkpt lat="45.84933" lon="3.53601">
        <ele>307.20001220703</ele>
        <time>2024-05-02T15:08:33.000Z</time>
      </trkpt>
      <trkpt lat="45.84932" lon="3.53597">
        <ele>307.39999389648</ele>
        <time>2024-05-02T15:08:34.000Z</time>
      </trkpt>
      <trkpt lat="45.84931" lon="3.53593">
        <ele>307.39999389648</ele>
        <time>2024-05-02T15:08:35.000Z</time>
      </trkpt>
      <trkpt lat="45.8493" lon="3.53587">
        <ele>307.60000610352</ele>
        <time>2024-05-02T15:08:36.000Z</time>
      </trkpt>
      <trkpt lat="45.84929" lon="3.53583">
        <ele>307.60000610352</ele>
        <time>2024-05-02T15:08:37.000Z</time>
      </trkpt>
      <trkpt lat="45.84927" lon="3.53579">
        <ele>307.39999389648</ele>
        <time>2024-05-02T15:08:38.000Z</time>
      </trkpt>
      <trkpt lat="45.84926" lon="3.53575">
        <ele>307.20001220703</ele>
        <time>2024-05-02T15:08:39.000Z</time>
      </trkpt>
      <trkpt lat="45.84925" lon="3.53571">
        <ele>307</ele>
        <time>2024-05-02T15:08:40.000Z</time>
      </trkpt>
      <trkpt lat="45.84924" lon="3.53566">
        <ele>306.79998779297</ele>
        <time>2024-05-02T15:08:41.000Z</time>
      </trkpt>
      <trkpt lat="45.84922" lon="3.53562">
        <ele>306.79998779297</ele>
        <time>2024-05-02T15:08:42.000Z</time>
      </trkpt>
      <trkpt lat="45.84921" lon="3.53558">
        <ele>306.79998779297</ele>
        <time>2024-05-02T15:08:43.000Z</time>
      </trkpt>
      <trkpt lat="45.8492" lon="3.53554">
        <ele>307</ele>
        <time>2024-05-02T15:08:44.000Z</time>
      </trkpt>
      <trkpt lat="45.84919" lon="3.53551">
        <ele>307</ele>
        <time>2024-05-02T15:08:45.000Z</time>
      </trkpt>
      <trkpt lat="45.84919" lon="3.53547">
        <ele>307.20001220703</ele>
        <time>2024-05-02T15:08:46.000Z</time>
      </trkpt>
      <trkpt lat="45.84917" lon="3.53543">
        <ele>307.39999389648</ele>
        <time>2024-05-02T15:08:47.000Z</time>
      </trkpt>
      <trkpt lat="45.84916" lon="3.53539">
        <ele>307.60000610352</ele>
        <time>2024-05-02T15:08:48.000Z</time>
      </trkpt>
      <trkpt lat="45.84915" lon="3.53534">
        <ele>307.60000610352</ele>
        <time>2024-05-02T15:08:49.000Z</time>
      </trkpt>
      <trkpt lat="45.84914" lon="3.5353">
        <ele>307.60000610352</ele>
        <time>2024-05-02T15:08:50.000Z</time>
      </trkpt>
      <trkpt lat="45.84913" lon="3.53526">
        <ele>307.20001220703</ele>
        <time>2024-05-02T15:08:51.000Z</time>
      </trkpt>
      <trkpt lat="45.84912" lon="3.53523">
        <ele>307.20001220703</ele>
        <time>2024-05-02T15:08:52.000Z</time>
      </trkpt>
      <trkpt lat="45.84911" lon="3.53518">
        <ele>307.39999389648</ele>
        <time>2024-05-02T15:08:53.000Z</time>
      </trkpt>
      <trkpt lat="45.8491" lon="3.53514">
        <ele>307.39999389648</ele>
        <time>2024-05-02T15:08:54.000Z</time>
      </trkpt>
      <trkpt lat="45.84909" lon="3.53511">
        <ele>307.39999389648</ele>
        <time>2024-05-02T15:08:55.000Z</time>
      </trkpt>
      <trkpt lat="45.84908" lon="3.53507">
        <ele>307.60000610352</ele>
        <time>2024-05-02T15:08:56.000Z</time>
      </trkpt>
      <trkpt lat="45.84906" lon="3.53502">
        <ele>307.60000610352</ele>
        <time>2024-05-02T15:08:57.000Z</time>
      </trkpt>
      <trkpt lat="45.84905" lon="3.53497">
        <ele>307.79998779297</ele>
        <time>2024-05-02T15:08:58.000Z</time>
      </trkpt>
      <trkpt lat="45.84904" lon="3.53493">
        <ele>307.60000610352</ele>
        <time>2024-05-02T15:08:59.000Z</time>
      </trkpt>
      <trkpt lat="45.84903" lon="3.5349">
        <ele>307.60000610352</ele>
        <time>2024-05-02T15:09:00.000Z</time>
      </trkpt>
      <trkpt lat="45.84902" lon="3.53486">
        <ele>307.39999389648</ele>
        <time>2024-05-02T15:09:01.000Z</time>
      </trkpt>
      <trkpt lat="45.84901" lon="3.53481">
        <ele>307.20001220703</ele>
        <time>2024-05-02T15:09:02.000Z</time>
      </trkpt>
      <trkpt lat="45.84899" lon="3.53476">
        <ele>307</ele>
        <time>2024-05-02T15:09:03.000Z</time>
      </trkpt>
      <trkpt lat="45.84898" lon="3.53472">
        <ele>307</ele>
        <time>2024-05-02T15:09:04.000Z</time>
      </trkpt>
      <trkpt lat="45.84897" lon="3.53468">
        <ele>307.20001220703</ele>
        <time>2024-05-02T15:09:05.000Z</time>
      </trkpt>
      <trkpt lat="45.84895" lon="3.53463">
        <ele>307</ele>
        <time>2024-05-02T15:09:06.000Z</time>
      </trkpt>
      <trkpt lat="45.84894" lon="3.53458">
        <ele>307.20001220703</ele>
        <time>2024-05-02T15:09:07.000Z</time>
      </trkpt>
      <trkpt lat="45.84892" lon="3.53453">
        <ele>307.39999389648</ele>
        <time>2024-05-02T15:09:08.000Z</time>
      </trkpt>
      <trkpt lat="45.84891" lon="3.53449">
        <ele>307.39999389648</ele>
        <time>2024-05-02T15:09:09.000Z</time>
      </trkpt>
      <trkpt lat="45.8489" lon="3.53445">
        <ele>307.39999389648</ele>
        <time>2024-05-02T15:09:10.000Z</time>
      </trkpt>
      <trkpt lat="45.84888" lon="3.5344">
        <ele>307.39999389648</ele>
        <time>2024-05-02T15:09:11.000Z</time>
      </trkpt>
      <trkpt lat="45.84887" lon="3.53436">
        <ele>307</ele>
        <time>2024-05-02T15:09:12.000Z</time>
      </trkpt>
      <trkpt lat="45.84886" lon="3.53432">
        <ele>306.60000610352</ele>
        <time>2024-05-02T15:09:13.000Z</time>
      </trkpt>
      <trkpt lat="45.84884" lon="3.53427">
        <ele>306.20001220703</ele>
        <time>2024-05-02T15:09:14.000Z</time>
      </trkpt>
      <trkpt lat="45.84883" lon="3.53423">
        <ele>306.20001220703</ele>
        <time>2024-05-02T15:09:15.000Z</time>
      </trkpt>
      <trkpt lat="45.84882" lon="3.53419">
        <ele>306.20001220703</ele>
        <time>2024-05-02T15:09:16.000Z</time>
      </trkpt>
      <trkpt lat="45.8488" lon="3.53414">
        <ele>306</ele>
        <time>2024-05-02T15:09:17.000Z</time>
      </trkpt>
      <trkpt lat="45.84879" lon="3.5341">
        <ele>306.20001220703</ele>
        <time>2024-05-02T15:09:18.000Z</time>
      </trkpt>
      <trkpt lat="45.84878" lon="3.53406">
        <ele>306.39999389648</ele>
        <time>2024-05-02T15:09:19.000Z</time>
      </trkpt>
      <trkpt lat="45.84877" lon="3.53402">
        <ele>306.60000610352</ele>
        <time>2024-05-02T15:09:20.000Z</time>
      </trkpt>
      <trkpt lat="45.84875" lon="3.53397">
        <ele>306.79998779297</ele>
        <time>2024-05-02T15:09:21.000Z</time>
      </trkpt>
      <trkpt lat="45.84874" lon="3.53393">
        <ele>306.79998779297</ele>
        <time>2024-05-02T15:09:22.000Z</time>
      </trkpt>
      <trkpt lat="45.84873" lon="3.53389">
        <ele>306.60000610352</ele>
        <time>2024-05-02T15:09:23.000Z</time>
      </trkpt>
      <trkpt lat="45.84872" lon="3.53384">
        <ele>306.39999389648</ele>
        <time>2024-05-02T15:09:24.000Z</time>
      </trkpt>
      <trkpt lat="45.84871" lon="3.53379">
        <ele>306</ele>
        <time>2024-05-02T15:09:25.000Z</time>
      </trkpt>
      <trkpt lat="45.84869" lon="3.53374">
        <ele>305.60000610352</ele>
        <time>2024-05-02T15:09:26.000Z</time>
      </trkpt>
      <trkpt lat="45.84868" lon="3.5337">
        <ele>305.60000610352</ele>
        <time>2024-05-02T15:09:27.000Z</time>
      </trkpt>
      <trkpt lat="45.84866" lon="3.53366">
        <ele>305.60000610352</ele>
        <time>2024-05-02T15:09:28.000Z</time>
      </trkpt>
      <trkpt lat="45.84865" lon="3.53361">
        <ele>305.60000610352</ele>
        <time>2024-05-02T15:09:29.000Z</time>
      </trkpt>
      <trkpt lat="45.84863" lon="3.53357">
        <ele>305.60000610352</ele>
        <time>2024-05-02T15:09:30.000Z</time>
      </trkpt>
      <trkpt lat="45.84862" lon="3.53353">
        <ele>305.79998779297</ele>
        <time>2024-05-02T15:09:31.000Z</time>
      </trkpt>
      <trkpt lat="45.84861" lon="3.53349">
        <ele>306</ele>
        <time>2024-05-02T15:09:32.000Z</time>
      </trkpt>
      <trkpt lat="45.84859" lon="3.53344">
        <ele>306</ele>
        <time>2024-05-02T15:09:33.000Z</time>
      </trkpt>
      <trkpt lat="45.84858" lon="3.5334">
        <ele>305.79998779297</ele>
        <time>2024-05-02T15:09:34.000Z</time>
      </trkpt>
      <trkpt lat="45.84857" lon="3.53336">
        <ele>305.79998779297</ele>
        <time>2024-05-02T15:09:35.000Z</time>
      </trkpt>
      <trkpt lat="45.84855" lon="3.53332">
        <ele>305.60000610352</ele>
        <time>2024-05-02T15:09:36.000Z</time>
      </trkpt>
      <trkpt lat="45.84854" lon="3.53328">
        <ele>305.39999389648</ele>
        <time>2024-05-02T15:09:37.000Z</time>
      </trkpt>
      <trkpt lat="45.84853" lon="3.53324">
        <ele>305.20001220703</ele>
        <time>2024-05-02T15:09:38.000Z</time>
      </trkpt>
      <trkpt lat="45.84852" lon="3.5332">
        <ele>305.20001220703</ele>
        <time>2024-05-02T15:09:39.000Z</time>
      </trkpt>
      <trkpt lat="45.84851" lon="3.53316">
        <ele>305.20001220703</ele>
        <time>2024-05-02T15:09:40.000Z</time>
      </trkpt>
      <trkpt lat="45.8485" lon="3.53311">
        <ele>305.20001220703</ele>
        <time>2024-05-02T15:09:41.000Z</time>
      </trkpt>
      <trkpt lat="45.84849" lon="3.53307">
        <ele>305.20001220703</ele>
        <time>2024-05-02T15:09:42.000Z</time>
      </trkpt>
      <trkpt lat="45.84847" lon="3.53303">
        <ele>305.39999389648</ele>
        <time>2024-05-02T15:09:43.000Z</time>
      </trkpt>
      <trkpt lat="45.84846" lon="3.53299">
        <ele>305.39999389648</ele>
        <time>2024-05-02T15:09:44.000Z</time>
      </trkpt>
      <trkpt lat="45.84844" lon="3.53296">
        <ele>305.39999389648</ele>
        <time>2024-05-02T15:09:45.000Z</time>
      </trkpt>
      <trkpt lat="45.84843" lon="3.53291">
        <ele>305.60000610352</ele>
        <time>2024-05-02T15:09:46.000Z</time>
      </trkpt>
      <trkpt lat="45.84842" lon="3.53286">
        <ele>305.39999389648</ele>
        <time>2024-05-02T15:09:47.000Z</time>
      </trkpt>
      <trkpt lat="45.84841" lon="3.53281">
        <ele>305.20001220703</ele>
        <time>2024-05-02T15:09:48.000Z</time>
      </trkpt>
      <trkpt lat="45.84839" lon="3.53277">
        <ele>305.39999389648</ele>
        <time>2024-05-02T15:09:49.000Z</time>
      </trkpt>
      <trkpt lat="45.84838" lon="3.53273">
        <ele>305.39999389648</ele>
        <time>2024-05-02T15:09:50.000Z</time>
      </trkpt>
      <trkpt lat="45.84837" lon="3.53268">
        <ele>305.60000610352</ele>
        <time>2024-05-02T15:09:51.000Z</time>
      </trkpt>
      <trkpt lat="45.84836" lon="3.53264">
        <ele>305.60000610352</ele>
        <time>2024-05-02T15:09:52.000Z</time>
      </trkpt>
      <trkpt lat="45.84834" lon="3.53259">
        <ele>305.60000610352</ele>
        <time>2024-05-02T15:09:53.000Z</time>
      </trkpt>
      <trkpt lat="45.84833" lon="3.53254">
        <ele>305.79998779297</ele>
        <time>2024-05-02T15:09:54.000Z</time>
      </trkpt>
      <trkpt lat="45.84832" lon="3.5325">
        <ele>306</ele>
        <time>2024-05-02T15:09:55.000Z</time>
      </trkpt>
      <trkpt lat="45.84831" lon="3.53245">
        <ele>305.79998779297</ele>
        <time>2024-05-02T15:09:56.000Z</time>
      </trkpt>
      <trkpt lat="45.84829" lon="3.53241">
        <ele>305.79998779297</ele>
        <time>2024-05-02T15:09:57.000Z</time>
      </trkpt>
      <trkpt lat="45.84828" lon="3.53237">
        <ele>305.60000610352</ele>
        <time>2024-05-02T15:09:58.000Z</time>
      </trkpt>
      <trkpt lat="45.84827" lon="3.53233">
        <ele>305.39999389648</ele>
        <time>2024-05-02T15:09:59.000Z</time>
      </trkpt>
      <trkpt lat="45.84826" lon="3.5323">
        <ele>305.39999389648</ele>
        <time>2024-05-02T15:10:00.000Z</time>
      </trkpt>
      <trkpt lat="45.84825" lon="3.53225">
        <ele>305</ele>
        <time>2024-05-02T15:10:01.000Z</time>
      </trkpt>
      <trkpt lat="45.84824" lon="3.5322">
        <ele>304.79998779297</ele>
        <time>2024-05-02T15:10:02.000Z</time>
      </trkpt>
      <trkpt lat="45.84822" lon="3.53215">
        <ele>304.79998779297</ele>
        <time>2024-05-02T15:10:03.000Z</time>
      </trkpt>
      <trkpt lat="45.84821" lon="3.53211">
        <ele>304.79998779297</ele>
        <time>2024-05-02T15:10:04.000Z</time>
      </trkpt>
      <trkpt lat="45.8482" lon="3.53207">
        <ele>305.20001220703</ele>
        <time>2024-05-02T15:10:05.000Z</time>
      </trkpt>
      <trkpt lat="45.84819" lon="3.53202">
        <ele>305.39999389648</ele>
        <time>2024-05-02T15:10:06.000Z</time>
      </trkpt>
      <trkpt lat="45.84818" lon="3.53198">
        <ele>305.60000610352</ele>
        <time>2024-05-02T15:10:07.000Z</time>
      </trkpt>
      <trkpt lat="45.84817" lon="3.53193">
        <ele>305.79998779297</ele>
        <time>2024-05-02T15:10:08.000Z</time>
      </trkpt>
      <trkpt lat="45.84815" lon="3.53189">
        <ele>305.60000610352</ele>
        <time>2024-05-02T15:10:09.000Z</time>
      </trkpt>
      <trkpt lat="45.84814" lon="3.53186">
        <ele>305.60000610352</ele>
        <time>2024-05-02T15:10:10.000Z</time>
      </trkpt>
      <trkpt lat="45.84813" lon="3.53181">
        <ele>305.20001220703</ele>
        <time>2024-05-02T15:10:11.000Z</time>
      </trkpt>
      <trkpt lat="45.84811" lon="3.53177">
        <ele>305</ele>
        <time>2024-05-02T15:10:12.000Z</time>
      </trkpt>
      <trkpt lat="45.8481" lon="3.53174">
        <ele>304.79998779297</ele>
        <time>2024-05-02T15:10:13.000Z</time>
      </trkpt>
      <trkpt lat="45.84809" lon="3.53169">
        <ele>304.79998779297</ele>
        <time>2024-05-02T15:10:14.000Z</time>
      </trkpt>
      <trkpt lat="45.84808" lon="3.53166">
        <ele>304.79998779297</ele>
        <time>2024-05-02T15:10:15.000Z</time>
      </trkpt>
      <trkpt lat="45.84806" lon="3.53161">
        <ele>305</ele>
        <time>2024-05-02T15:10:16.000Z</time>
      </trkpt>
      <trkpt lat="45.84805" lon="3.53156">
        <ele>305</ele>
        <time>2024-05-02T15:10:17.000Z</time>
      </trkpt>
      <trkpt lat="45.84804" lon="3.53153">
        <ele>305.20001220703</ele>
        <time>2024-05-02T15:10:18.000Z</time>
      </trkpt>
      <trkpt lat="45.84803" lon="3.53149">
        <ele>305.20001220703</ele>
        <time>2024-05-02T15:10:19.000Z</time>
      </trkpt>
      <trkpt lat="45.84802" lon="3.53145">
        <ele>305.39999389648</ele>
        <time>2024-05-02T15:10:20.000Z</time>
      </trkpt>
      <trkpt lat="45.84801" lon="3.53141">
        <ele>305.39999389648</ele>
        <time>2024-05-02T15:10:21.000Z</time>
      </trkpt>
      <trkpt lat="45.84799" lon="3.53137">
        <ele>305.60000610352</ele>
        <time>2024-05-02T15:10:22.000Z</time>
      </trkpt>
      <trkpt lat="45.84798" lon="3.53132">
        <ele>305.60000610352</ele>
        <time>2024-05-02T15:10:23.000Z</time>
      </trkpt>
      <trkpt lat="45.84796" lon="3.53127">
        <ele>305.39999389648</ele>
        <time>2024-05-02T15:10:24.000Z</time>
      </trkpt>
      <trkpt lat="45.84794" lon="3.53123">
        <ele>305.39999389648</ele>
        <time>2024-05-02T15:10:25.000Z</time>
      </trkpt>
      <trkpt lat="45.84793" lon="3.53118">
        <ele>305.20001220703</ele>
        <time>2024-05-02T15:10:26.000Z</time>
      </trkpt>
      <trkpt lat="45.84791" lon="3.53114">
        <ele>305</ele>
        <time>2024-05-02T15:10:27.000Z</time>
      </trkpt>
      <trkpt lat="45.8479" lon="3.5311">
        <ele>305.20001220703</ele>
        <time>2024-05-02T15:10:28.000Z</time>
      </trkpt>
      <trkpt lat="45.84789" lon="3.53105">
        <ele>305.20001220703</ele>
        <time>2024-05-02T15:10:29.000Z</time>
      </trkpt>
      <trkpt lat="45.84788" lon="3.53101">
        <ele>305.39999389648</ele>
        <time>2024-05-02T15:10:30.000Z</time>
      </trkpt>
      <trkpt lat="45.84786" lon="3.53098">
        <ele>305.60000610352</ele>
        <time>2024-05-02T15:10:31.000Z</time>
      </trkpt>
      <trkpt lat="45.84785" lon="3.53094">
        <ele>305.60000610352</ele>
        <time>2024-05-02T15:10:32.000Z</time>
      </trkpt>
      <trkpt lat="45.84784" lon="3.5309">
        <ele>305.20001220703</ele>
        <time>2024-05-02T15:10:33.000Z</time>
      </trkpt>
      <trkpt lat="45.84782" lon="3.53086">
        <ele>305</ele>
        <time>2024-05-02T15:10:34.000Z</time>
      </trkpt>
      <trkpt lat="45.84781" lon="3.53081">
        <ele>304.79998779297</ele>
        <time>2024-05-02T15:10:35.000Z</time>
      </trkpt>
      <trkpt lat="45.8478" lon="3.53077">
        <ele>304.79998779297</ele>
        <time>2024-05-02T15:10:36.000Z</time>
      </trkpt>
      <trkpt lat="45.84779" lon="3.53073">
        <ele>304.79998779297</ele>
        <time>2024-05-02T15:10:37.000Z</time>
      </trkpt>
      <trkpt lat="45.84777" lon="3.53068">
        <ele>305.20001220703</ele>
        <time>2024-05-02T15:10:38.000Z</time>
      </trkpt>
      <trkpt lat="45.84776" lon="3.53064">
        <ele>305.20001220703</ele>
        <time>2024-05-02T15:10:39.000Z</time>
      </trkpt>
      <trkpt lat="45.84774" lon="3.5306">
        <ele>305.20001220703</ele>
        <time>2024-05-02T15:10:40.000Z</time>
      </trkpt>
      <trkpt lat="45.84773" lon="3.53056">
        <ele>305.39999389648</ele>
        <time>2024-05-02T15:10:41.000Z</time>
      </trkpt>
      <trkpt lat="45.84772" lon="3.53052">
        <ele>305.39999389648</ele>
        <time>2024-05-02T15:10:42.000Z</time>
      </trkpt>
      <trkpt lat="45.84771" lon="3.53048">
        <ele>305.39999389648</ele>
        <time>2024-05-02T15:10:43.000Z</time>
      </trkpt>
      <trkpt lat="45.8477" lon="3.53044">
        <ele>305.60000610352</ele>
        <time>2024-05-02T15:10:44.000Z</time>
      </trkpt>
      <trkpt lat="45.84768" lon="3.53039">
        <ele>305.60000610352</ele>
        <time>2024-05-02T15:10:45.000Z</time>
      </trkpt>
      <trkpt lat="45.84767" lon="3.53035">
        <ele>305.60000610352</ele>
        <time>2024-05-02T15:10:46.000Z</time>
      </trkpt>
      <trkpt lat="45.84766" lon="3.53031">
        <ele>305.60000610352</ele>
        <time>2024-05-02T15:10:47.000Z</time>
      </trkpt>
      <trkpt lat="45.84765" lon="3.53027">
        <ele>305.39999389648</ele>
        <time>2024-05-02T15:10:48.000Z</time>
      </trkpt>
      <trkpt lat="45.84764" lon="3.53023">
        <ele>305.39999389648</ele>
        <time>2024-05-02T15:10:49.000Z</time>
      </trkpt>
      <trkpt lat="45.84763" lon="3.53019">
        <ele>305.20001220703</ele>
        <time>2024-05-02T15:10:50.000Z</time>
      </trkpt>
      <trkpt lat="45.84761" lon="3.53015">
        <ele>305.60000610352</ele>
        <time>2024-05-02T15:10:51.000Z</time>
      </trkpt>
      <trkpt lat="45.8476" lon="3.53011">
        <ele>305.79998779297</ele>
        <time>2024-05-02T15:10:52.000Z</time>
      </trkpt>
      <trkpt lat="45.84759" lon="3.53007">
        <ele>306</ele>
        <time>2024-05-02T15:10:53.000Z</time>
      </trkpt>
      <trkpt lat="45.84758" lon="3.53003">
        <ele>305.79998779297</ele>
        <time>2024-05-02T15:10:54.000Z</time>
      </trkpt>
      <trkpt lat="45.84757" lon="3.52998">
        <ele>305.79998779297</ele>
        <time>2024-05-02T15:10:55.000Z</time>
      </trkpt>
      <trkpt lat="45.84755" lon="3.52994">
        <ele>305.39999389648</ele>
        <time>2024-05-02T15:10:56.000Z</time>
      </trkpt>
      <trkpt lat="45.84753" lon="3.5299">
        <ele>305</ele>
        <time>2024-05-02T15:10:57.000Z</time>
      </trkpt>
      <trkpt lat="45.84752" lon="3.52988">
        <ele>305</ele>
        <time>2024-05-02T15:10:58.000Z</time>
      </trkpt>
      <trkpt lat="45.8475" lon="3.52984">
        <ele>305</ele>
        <time>2024-05-02T15:10:59.000Z</time>
      </trkpt>
      <trkpt lat="45.84749" lon="3.5298">
        <ele>305</ele>
        <time>2024-05-02T15:11:00.000Z</time>
      </trkpt>
      <trkpt lat="45.84748" lon="3.52975">
        <ele>305.20001220703</ele>
        <time>2024-05-02T15:11:01.000Z</time>
      </trkpt>
      <trkpt lat="45.84747" lon="3.5297">
        <ele>305.39999389648</ele>
        <time>2024-05-02T15:11:02.000Z</time>
      </trkpt>
      <trkpt lat="45.84746" lon="3.52967">
        <ele>305.39999389648</ele>
        <time>2024-05-02T15:11:03.000Z</time>
      </trkpt>
      <trkpt lat="45.84745" lon="3.52963">
        <ele>305.39999389648</ele>
        <time>2024-05-02T15:11:04.000Z</time>
      </trkpt>
      <trkpt lat="45.84744" lon="3.52959">
        <ele>305.20001220703</ele>
        <time>2024-05-02T15:11:05.000Z</time>
      </trkpt>
      <trkpt lat="45.84743" lon="3.52955">
        <ele>305.20001220703</ele>
        <time>2024-05-02T15:11:06.000Z</time>
      </trkpt>
      <trkpt lat="45.84742" lon="3.52952">
        <ele>304.79998779297</ele>
        <time>2024-05-02T15:11:07.000Z</time>
      </trkpt>
      <trkpt lat="45.84741" lon="3.52948">
        <ele>304.79998779297</ele>
        <time>2024-05-02T15:11:08.000Z</time>
      </trkpt>
      <trkpt lat="45.8474" lon="3.52944">
        <ele>304.79998779297</ele>
        <time>2024-05-02T15:11:09.000Z</time>
      </trkpt>
      <trkpt lat="45.84738" lon="3.52941">
        <ele>304.79998779297</ele>
        <time>2024-05-02T15:11:10.000Z</time>
      </trkpt>
      <trkpt lat="45.84737" lon="3.52937">
        <ele>305</ele>
        <time>2024-05-02T15:11:11.000Z</time>
      </trkpt>
      <trkpt lat="45.84736" lon="3.52933">
        <ele>305</ele>
        <time>2024-05-02T15:11:12.000Z</time>
      </trkpt>
      <trkpt lat="45.84734" lon="3.52929">
        <ele>304.79998779297</ele>
        <time>2024-05-02T15:11:13.000Z</time>
      </trkpt>
      <trkpt lat="45.84733" lon="3.52926">
        <ele>304.79998779297</ele>
        <time>2024-05-02T15:11:14.000Z</time>
      </trkpt>
      <trkpt lat="45.84732" lon="3.52922">
        <ele>304.60000610352</ele>
        <time>2024-05-02T15:11:15.000Z</time>
      </trkpt>
      <trkpt lat="45.84732" lon="3.52918">
        <ele>304.39999389648</ele>
        <time>2024-05-02T15:11:16.000Z</time>
      </trkpt>
      <trkpt lat="45.84731" lon="3.52914">
        <ele>304.39999389648</ele>
        <time>2024-05-02T15:11:17.000Z</time>
      </trkpt>
      <trkpt lat="45.8473" lon="3.52909">
        <ele>304.60000610352</ele>
        <time>2024-05-02T15:11:18.000Z</time>
      </trkpt>
      <trkpt lat="45.8473" lon="3.52904">
        <ele>304.79998779297</ele>
        <time>2024-05-02T15:11:19.000Z</time>
      </trkpt>
      <trkpt lat="45.84728" lon="3.52901">
        <ele>304.79998779297</ele>
        <time>2024-05-02T15:11:20.000Z</time>
      </trkpt>
      <trkpt lat="45.84727" lon="3.52897">
        <ele>304.79998779297</ele>
        <time>2024-05-02T15:11:21.000Z</time>
      </trkpt>
      <trkpt lat="45.84725" lon="3.52893">
        <ele>304.79998779297</ele>
        <time>2024-05-02T15:11:22.000Z</time>
      </trkpt>
      <trkpt lat="45.84723" lon="3.52889">
        <ele>305</ele>
        <time>2024-05-02T15:11:23.000Z</time>
      </trkpt>
      <trkpt lat="45.84721" lon="3.52885">
        <ele>305</ele>
        <time>2024-05-02T15:11:24.000Z</time>
      </trkpt>
      <trkpt lat="45.8472" lon="3.52882">
        <ele>304.79998779297</ele>
        <time>2024-05-02T15:11:25.000Z</time>
      </trkpt>
      <trkpt lat="45.84719" lon="3.52879">
        <ele>304.79998779297</ele>
        <time>2024-05-02T15:11:26.000Z</time>
      </trkpt>
      <trkpt lat="45.84717" lon="3.52875">
        <ele>304.79998779297</ele>
        <time>2024-05-02T15:11:27.000Z</time>
      </trkpt>
      <trkpt lat="45.84717" lon="3.52872">
        <ele>305</ele>
        <time>2024-05-02T15:11:28.000Z</time>
      </trkpt>
      <trkpt lat="45.84716" lon="3.52869">
        <ele>304.79998779297</ele>
        <time>2024-05-02T15:11:29.000Z</time>
      </trkpt>
      <trkpt lat="45.84715" lon="3.52866">
        <ele>304.79998779297</ele>
        <time>2024-05-02T15:11:30.000Z</time>
      </trkpt>
      <trkpt lat="45.84713" lon="3.52861">
        <ele>305.20001220703</ele>
        <time>2024-05-02T15:11:31.000Z</time>
      </trkpt>
      <trkpt lat="45.84712" lon="3.52857">
        <ele>305.20001220703</ele>
        <time>2024-05-02T15:11:32.000Z</time>
      </trkpt>
      <trkpt lat="45.84711" lon="3.52853">
        <ele>305</ele>
        <time>2024-05-02T15:11:33.000Z</time>
      </trkpt>
      <trkpt lat="45.84709" lon="3.52849">
        <ele>305</ele>
        <time>2024-05-02T15:11:34.000Z</time>
      </trkpt>
      <trkpt lat="45.84708" lon="3.52844">
        <ele>304.79998779297</ele>
        <time>2024-05-02T15:11:35.000Z</time>
      </trkpt>
      <trkpt lat="45.84706" lon="3.52841">
        <ele>304.60000610352</ele>
        <time>2024-05-02T15:11:36.000Z</time>
      </trkpt>
      <trkpt lat="45.84705" lon="3.52836">
        <ele>304.60000610352</ele>
        <time>2024-05-02T15:11:37.000Z</time>
      </trkpt>
      <trkpt lat="45.84703" lon="3.52832">
        <ele>304.79998779297</ele>
        <time>2024-05-02T15:11:38.000Z</time>
      </trkpt>
      <trkpt lat="45.84702" lon="3.52828">
        <ele>305</ele>
        <time>2024-05-02T15:11:39.000Z</time>
      </trkpt>
      <trkpt lat="45.84701" lon="3.52824">
        <ele>304.79998779297</ele>
        <time>2024-05-02T15:11:40.000Z</time>
      </trkpt>
      <trkpt lat="45.84699" lon="3.5282">
        <ele>305</ele>
        <time>2024-05-02T15:11:41.000Z</time>
      </trkpt>
      <trkpt lat="45.84698" lon="3.52816">
        <ele>305.20001220703</ele>
        <time>2024-05-02T15:11:42.000Z</time>
      </trkpt>
      <trkpt lat="45.84696" lon="3.52812">
        <ele>305.20001220703</ele>
        <time>2024-05-02T15:11:43.000Z</time>
      </trkpt>
      <trkpt lat="45.84695" lon="3.52807">
        <ele>305</ele>
        <time>2024-05-02T15:11:44.000Z</time>
      </trkpt>
      <trkpt lat="45.84694" lon="3.52802">
        <ele>305</ele>
        <time>2024-05-02T15:11:45.000Z</time>
      </trkpt>
      <trkpt lat="45.84693" lon="3.52799">
        <ele>305</ele>
        <time>2024-05-02T15:11:46.000Z</time>
      </trkpt>
      <trkpt lat="45.84691" lon="3.52794">
        <ele>304.79998779297</ele>
        <time>2024-05-02T15:11:47.000Z</time>
      </trkpt>
      <trkpt lat="45.8469" lon="3.5279">
        <ele>304.60000610352</ele>
        <time>2024-05-02T15:11:48.000Z</time>
      </trkpt>
      <trkpt lat="45.84689" lon="3.52786">
        <ele>304.39999389648</ele>
        <time>2024-05-02T15:11:49.000Z</time>
      </trkpt>
      <trkpt lat="45.84687" lon="3.52781">
        <ele>304.60000610352</ele>
        <time>2024-05-02T15:11:50.000Z</time>
      </trkpt>
      <trkpt lat="45.84686" lon="3.52777">
        <ele>304.60000610352</ele>
        <time>2024-05-02T15:11:51.000Z</time>
      </trkpt>
      <trkpt lat="45.84685" lon="3.52772">
        <ele>304.79998779297</ele>
        <time>2024-05-02T15:11:52.000Z</time>
      </trkpt>
      <trkpt lat="45.84684" lon="3.52767">
        <ele>304.79998779297</ele>
        <time>2024-05-02T15:11:53.000Z</time>
      </trkpt>
      <trkpt lat="45.84683" lon="3.52763">
        <ele>305.20001220703</ele>
        <time>2024-05-02T15:11:54.000Z</time>
      </trkpt>
      <trkpt lat="45.84681" lon="3.52759">
        <ele>305</ele>
        <time>2024-05-02T15:11:55.000Z</time>
      </trkpt>
      <trkpt lat="45.8468" lon="3.52754">
        <ele>304.79998779297</ele>
        <time>2024-05-02T15:11:56.000Z</time>
      </trkpt>
      <trkpt lat="45.84679" lon="3.52749">
        <ele>304.39999389648</ele>
        <time>2024-05-02T15:11:57.000Z</time>
      </trkpt>
      <trkpt lat="45.84677" lon="3.52745">
        <ele>304.20001220703</ele>
        <time>2024-05-02T15:11:58.000Z</time>
      </trkpt>
      <trkpt lat="45.84676" lon="3.52741">
        <ele>303.79998779297</ele>
        <time>2024-05-02T15:11:59.000Z</time>
      </trkpt>
      <trkpt lat="45.84675" lon="3.52737">
        <ele>303.79998779297</ele>
        <time>2024-05-02T15:12:00.000Z</time>
      </trkpt>
      <trkpt lat="45.84673" lon="3.52732">
        <ele>303.79998779297</ele>
        <time>2024-05-02T15:12:01.000Z</time>
      </trkpt>
      <trkpt lat="45.84672" lon="3.52728">
        <ele>304</ele>
        <time>2024-05-02T15:12:02.000Z</time>
      </trkpt>
      <trkpt lat="45.84671" lon="3.52724">
        <ele>304.20001220703</ele>
        <time>2024-05-02T15:12:03.000Z</time>
      </trkpt>
      <trkpt lat="45.84669" lon="3.5272">
        <ele>304.39999389648</ele>
        <time>2024-05-02T15:12:04.000Z</time>
      </trkpt>
      <trkpt lat="45.84668" lon="3.52715">
        <ele>304.39999389648</ele>
        <time>2024-05-02T15:12:05.000Z</time>
      </trkpt>
      <trkpt lat="45.84666" lon="3.52711">
        <ele>304.60000610352</ele>
        <time>2024-05-02T15:12:06.000Z</time>
      </trkpt>
      <trkpt lat="45.84665" lon="3.52706">
        <ele>304.39999389648</ele>
        <time>2024-05-02T15:12:07.000Z</time>
      </trkpt>
      <trkpt lat="45.84664" lon="3.52703">
        <ele>304.39999389648</ele>
        <time>2024-05-02T15:12:08.000Z</time>
      </trkpt>
      <trkpt lat="45.84662" lon="3.52699">
        <ele>304.20001220703</ele>
        <time>2024-05-02T15:12:09.000Z</time>
      </trkpt>
      <trkpt lat="45.84661" lon="3.52696">
        <ele>304.20001220703</ele>
        <time>2024-05-02T15:12:10.000Z</time>
      </trkpt>
      <trkpt lat="45.84661" lon="3.52692">
        <ele>303.79998779297</ele>
        <time>2024-05-02T15:12:11.000Z</time>
      </trkpt>
      <trkpt lat="45.8466" lon="3.52688">
        <ele>303.60000610352</ele>
        <time>2024-05-02T15:12:12.000Z</time>
      </trkpt>
      <trkpt lat="45.84659" lon="3.52685">
        <ele>303.79998779297</ele>
        <time>2024-05-02T15:12:13.000Z</time>
      </trkpt>
      <trkpt lat="45.84657" lon="3.5268">
        <ele>303.60000610352</ele>
        <time>2024-05-02T15:12:14.000Z</time>
      </trkpt>
      <trkpt lat="45.84656" lon="3.52676">
        <ele>303.79998779297</ele>
        <time>2024-05-02T15:12:15.000Z</time>
      </trkpt>
      <trkpt lat="45.84654" lon="3.52671">
        <ele>303.60000610352</ele>
        <time>2024-05-02T15:12:16.000Z</time>
      </trkpt>
      <trkpt lat="45.84653" lon="3.52666">
        <ele>303.60000610352</ele>
        <time>2024-05-02T15:12:17.000Z</time>
      </trkpt>
      <trkpt lat="45.84652" lon="3.52662">
        <ele>303.39999389648</ele>
        <time>2024-05-02T15:12:18.000Z</time>
      </trkpt>
      <trkpt lat="45.8465" lon="3.52657">
        <ele>303.39999389648</ele>
        <time>2024-05-02T15:12:19.000Z</time>
      </trkpt>
      <trkpt lat="45.84649" lon="3.52653">
        <ele>303.20001220703</ele>
        <time>2024-05-02T15:12:20.000Z</time>
      </trkpt>
      <trkpt lat="45.84647" lon="3.52648">
        <ele>303.20001220703</ele>
        <time>2024-05-02T15:12:21.000Z</time>
      </trkpt>
      <trkpt lat="45.84646" lon="3.52644">
        <ele>303.20001220703</ele>
        <time>2024-05-02T15:12:22.000Z</time>
      </trkpt>
      <trkpt lat="45.84645" lon="3.5264">
        <ele>303.20001220703</ele>
        <time>2024-05-02T15:12:23.000Z</time>
      </trkpt>
      <trkpt lat="45.84643" lon="3.52634">
        <ele>303.20001220703</ele>
        <time>2024-05-02T15:12:24.000Z</time>
      </trkpt>
      <trkpt lat="45.84641" lon="3.5263">
        <ele>303</ele>
        <time>2024-05-02T15:12:25.000Z</time>
      </trkpt>
      <trkpt lat="45.8464" lon="3.52625">
        <ele>303</ele>
        <time>2024-05-02T15:12:26.000Z</time>
      </trkpt>
      <trkpt lat="45.84639" lon="3.52621">
        <ele>303.20001220703</ele>
        <time>2024-05-02T15:12:27.000Z</time>
      </trkpt>
      <trkpt lat="45.84638" lon="3.52617">
        <ele>303.39999389648</ele>
        <time>2024-05-02T15:12:28.000Z</time>
      </trkpt>
      <trkpt lat="45.84637" lon="3.52611">
        <ele>303.60000610352</ele>
        <time>2024-05-02T15:12:29.000Z</time>
      </trkpt>
      <trkpt lat="45.84636" lon="3.52607">
        <ele>303.60000610352</ele>
        <time>2024-05-02T15:12:30.000Z</time>
      </trkpt>
      <trkpt lat="45.84634" lon="3.52601">
        <ele>303.60000610352</ele>
        <time>2024-05-02T15:12:31.000Z</time>
      </trkpt>
      <trkpt lat="45.84633" lon="3.52597">
        <ele>303.39999389648</ele>
        <time>2024-05-02T15:12:32.000Z</time>
      </trkpt>
      <trkpt lat="45.84631" lon="3.52593">
        <ele>303.39999389648</ele>
        <time>2024-05-02T15:12:33.000Z</time>
      </trkpt>
      <trkpt lat="45.8463" lon="3.52589">
        <ele>303.20001220703</ele>
        <time>2024-05-02T15:12:34.000Z</time>
      </trkpt>
      <trkpt lat="45.84629" lon="3.52584">
        <ele>303</ele>
        <time>2024-05-02T15:12:35.000Z</time>
      </trkpt>
      <trkpt lat="45.84627" lon="3.52579">
        <ele>302.79998779297</ele>
        <time>2024-05-02T15:12:36.000Z</time>
      </trkpt>
      <trkpt lat="45.84626" lon="3.52574">
        <ele>303</ele>
        <time>2024-05-02T15:12:37.000Z</time>
      </trkpt>
      <trkpt lat="45.84625" lon="3.5257">
        <ele>303</ele>
        <time>2024-05-02T15:12:38.000Z</time>
      </trkpt>
      <trkpt lat="45.84623" lon="3.52565">
        <ele>303.20001220703</ele>
        <time>2024-05-02T15:12:39.000Z</time>
      </trkpt>
      <trkpt lat="45.84622" lon="3.52561">
        <ele>303.39999389648</ele>
        <time>2024-05-02T15:12:40.000Z</time>
      </trkpt>
      <trkpt lat="45.8462" lon="3.52556">
        <ele>303.60000610352</ele>
        <time>2024-05-02T15:12:41.000Z</time>
      </trkpt>
      <trkpt lat="45.84619" lon="3.52552">
        <ele>303.79998779297</ele>
        <time>2024-05-02T15:12:42.000Z</time>
      </trkpt>
      <trkpt lat="45.84617" lon="3.52548">
        <ele>303.60000610352</ele>
        <time>2024-05-02T15:12:43.000Z</time>
      </trkpt>
      <trkpt lat="45.84616" lon="3.52544">
        <ele>303.39999389648</ele>
        <time>2024-05-02T15:12:44.000Z</time>
      </trkpt>
      <trkpt lat="45.84615" lon="3.5254">
        <ele>303</ele>
        <time>2024-05-02T15:12:45.000Z</time>
      </trkpt>
      <trkpt lat="45.84613" lon="3.52535">
        <ele>302.60000610352</ele>
        <time>2024-05-02T15:12:46.000Z</time>
      </trkpt>
      <trkpt lat="45.84612" lon="3.52531">
        <ele>302.60000610352</ele>
        <time>2024-05-02T15:12:47.000Z</time>
      </trkpt>
      <trkpt lat="45.84611" lon="3.52528">
        <ele>302.39999389648</ele>
        <time>2024-05-02T15:12:48.000Z</time>
      </trkpt>
      <trkpt lat="45.8461" lon="3.52524">
        <ele>302.60000610352</ele>
        <time>2024-05-02T15:12:49.000Z</time>
      </trkpt>
      <trkpt lat="45.84609" lon="3.5252">
        <ele>302.60000610352</ele>
        <time>2024-05-02T15:12:50.000Z</time>
      </trkpt>
      <trkpt lat="45.84607" lon="3.52516">
        <ele>302.79998779297</ele>
        <time>2024-05-02T15:12:51.000Z</time>
      </trkpt>
      <trkpt lat="45.84606" lon="3.52512">
        <ele>302.79998779297</ele>
        <time>2024-05-02T15:12:52.000Z</time>
      </trkpt>
      <trkpt lat="45.84604" lon="3.52508">
        <ele>302.79998779297</ele>
        <time>2024-05-02T15:12:53.000Z</time>
      </trkpt>
      <trkpt lat="45.84603" lon="3.52504">
        <ele>302.79998779297</ele>
        <time>2024-05-02T15:12:54.000Z</time>
      </trkpt>
      <trkpt lat="45.84602" lon="3.525">
        <ele>302.79998779297</ele>
        <time>2024-05-02T15:12:55.000Z</time>
      </trkpt>
      <trkpt lat="45.846" lon="3.52496">
        <ele>302.60000610352</ele>
        <time>2024-05-02T15:12:56.000Z</time>
      </trkpt>
      <trkpt lat="45.84599" lon="3.52491">
        <ele>302.39999389648</ele>
        <time>2024-05-02T15:12:57.000Z</time>
      </trkpt>
      <trkpt lat="45.84598" lon="3.52487">
        <ele>302.39999389648</ele>
        <time>2024-05-02T15:12:58.000Z</time>
      </trkpt>
      <trkpt lat="45.84596" lon="3.52482">
        <ele>302.20001220703</ele>
        <time>2024-05-02T15:12:59.000Z</time>
      </trkpt>
      <trkpt lat="45.84595" lon="3.52479">
        <ele>302.39999389648</ele>
        <time>2024-05-02T15:13:00.000Z</time>
      </trkpt>
      <trkpt lat="45.84594" lon="3.52475">
        <ele>302.39999389648</ele>
        <time>2024-05-02T15:13:01.000Z</time>
      </trkpt>
      <trkpt lat="45.84593" lon="3.5247">
        <ele>302.60000610352</ele>
        <time>2024-05-02T15:13:02.000Z</time>
      </trkpt>
      <trkpt lat="45.84591" lon="3.52466">
        <ele>302.60000610352</ele>
        <time>2024-05-02T15:13:03.000Z</time>
      </trkpt>
      <trkpt lat="45.8459" lon="3.52462">
        <ele>302.39999389648</ele>
        <time>2024-05-02T15:13:04.000Z</time>
      </trkpt>
      <trkpt lat="45.84589" lon="3.52458">
        <ele>302.20001220703</ele>
        <time>2024-05-02T15:13:05.000Z</time>
      </trkpt>
      <trkpt lat="45.84588" lon="3.52454">
        <ele>302</ele>
        <time>2024-05-02T15:13:06.000Z</time>
      </trkpt>
      <trkpt lat="45.84586" lon="3.52451">
        <ele>301.79998779297</ele>
        <time>2024-05-02T15:13:07.000Z</time>
      </trkpt>
      <trkpt lat="45.84585" lon="3.52447">
        <ele>301.79998779297</ele>
        <time>2024-05-02T15:13:08.000Z</time>
      </trkpt>
      <trkpt lat="45.84583" lon="3.52442">
        <ele>302</ele>
        <time>2024-05-02T15:13:09.000Z</time>
      </trkpt>
      <trkpt lat="45.84582" lon="3.52438">
        <ele>302</ele>
        <time>2024-05-02T15:13:10.000Z</time>
      </trkpt>
      <trkpt lat="45.8458" lon="3.52434">
        <ele>302</ele>
        <time>2024-05-02T15:13:11.000Z</time>
      </trkpt>
      <trkpt lat="45.84579" lon="3.5243">
        <ele>302.20001220703</ele>
        <time>2024-05-02T15:13:12.000Z</time>
      </trkpt>
      <trkpt lat="45.84578" lon="3.52426">
        <ele>302</ele>
        <time>2024-05-02T15:13:13.000Z</time>
      </trkpt>
      <trkpt lat="45.84577" lon="3.52422">
        <ele>302.20001220703</ele>
        <time>2024-05-02T15:13:14.000Z</time>
      </trkpt>
      <trkpt lat="45.84576" lon="3.52418">
        <ele>302.20001220703</ele>
        <time>2024-05-02T15:13:15.000Z</time>
      </trkpt>
      <trkpt lat="45.84575" lon="3.52414">
        <ele>302</ele>
        <time>2024-05-02T15:13:16.000Z</time>
      </trkpt>
      <trkpt lat="45.84573" lon="3.52409">
        <ele>302</ele>
        <time>2024-05-02T15:13:17.000Z</time>
      </trkpt>
      <trkpt lat="45.84572" lon="3.52405">
        <ele>302</ele>
        <time>2024-05-02T15:13:18.000Z</time>
      </trkpt>
      <trkpt lat="45.8457" lon="3.52401">
        <ele>302</ele>
        <time>2024-05-02T15:13:19.000Z</time>
      </trkpt>
      <trkpt lat="45.84569" lon="3.52397">
        <ele>302</ele>
        <time>2024-05-02T15:13:20.000Z</time>
      </trkpt>
      <trkpt lat="45.84568" lon="3.52393">
        <ele>302</ele>
        <time>2024-05-02T15:13:21.000Z</time>
      </trkpt>
      <trkpt lat="45.84566" lon="3.52389">
        <ele>302</ele>
        <time>2024-05-02T15:13:22.000Z</time>
      </trkpt>
      <trkpt lat="45.84565" lon="3.52384">
        <ele>302.20001220703</ele>
        <time>2024-05-02T15:13:23.000Z</time>
      </trkpt>
      <trkpt lat="45.84563" lon="3.5238">
        <ele>302.39999389648</ele>
        <time>2024-05-02T15:13:24.000Z</time>
      </trkpt>
      <trkpt lat="45.84562" lon="3.52376">
        <ele>302.39999389648</ele>
        <time>2024-05-02T15:13:25.000Z</time>
      </trkpt>
      <trkpt lat="45.84561" lon="3.52372">
        <ele>302.39999389648</ele>
        <time>2024-05-02T15:13:26.000Z</time>
      </trkpt>
      <trkpt lat="45.84559" lon="3.52368">
        <ele>302.20001220703</ele>
        <time>2024-05-02T15:13:27.000Z</time>
      </trkpt>
      <trkpt lat="45.84558" lon="3.52364">
        <ele>302</ele>
        <time>2024-05-02T15:13:28.000Z</time>
      </trkpt>
      <trkpt lat="45.84556" lon="3.52359">
        <ele>302</ele>
        <time>2024-05-02T15:13:29.000Z</time>
      </trkpt>
      <trkpt lat="45.84555" lon="3.52354">
        <ele>301.79998779297</ele>
        <time>2024-05-02T15:13:30.000Z</time>
      </trkpt>
      <trkpt lat="45.84554" lon="3.5235">
        <ele>301.79998779297</ele>
        <time>2024-05-02T15:13:31.000Z</time>
      </trkpt>
      <trkpt lat="45.84552" lon="3.52346">
        <ele>301.79998779297</ele>
        <time>2024-05-02T15:13:32.000Z</time>
      </trkpt>
      <trkpt lat="45.84551" lon="3.52342">
        <ele>302</ele>
        <time>2024-05-02T15:13:33.000Z</time>
      </trkpt>
      <trkpt lat="45.8455" lon="3.52339">
        <ele>302</ele>
        <time>2024-05-02T15:13:34.000Z</time>
      </trkpt>
      <trkpt lat="45.84549" lon="3.52335">
        <ele>302</ele>
        <time>2024-05-02T15:13:35.000Z</time>
      </trkpt>
      <trkpt lat="45.84547" lon="3.52331">
        <ele>302</ele>
        <time>2024-05-02T15:13:36.000Z</time>
      </trkpt>
      <trkpt lat="45.84546" lon="3.52326">
        <ele>302.20001220703</ele>
        <time>2024-05-02T15:13:37.000Z</time>
      </trkpt>
      <trkpt lat="45.84544" lon="3.52321">
        <ele>302.39999389648</ele>
        <time>2024-05-02T15:13:38.000Z</time>
      </trkpt>
      <trkpt lat="45.84542" lon="3.52317">
        <ele>302.20001220703</ele>
        <time>2024-05-02T15:13:39.000Z</time>
      </trkpt>
      <trkpt lat="45.84541" lon="3.52313">
        <ele>302.20001220703</ele>
        <time>2024-05-02T15:13:40.000Z</time>
      </trkpt>
      <trkpt lat="45.8454" lon="3.52309">
        <ele>301.79998779297</ele>
        <time>2024-05-02T15:13:41.000Z</time>
      </trkpt>
      <trkpt lat="45.84538" lon="3.52304">
        <ele>301.60000610352</ele>
        <time>2024-05-02T15:13:42.000Z</time>
      </trkpt>
      <trkpt lat="45.84537" lon="3.523">
        <ele>301.20001220703</ele>
        <time>2024-05-02T15:13:43.000Z</time>
      </trkpt>
      <trkpt lat="45.84535" lon="3.52296">
        <ele>301.20001220703</ele>
        <time>2024-05-02T15:13:44.000Z</time>
      </trkpt>
      <trkpt lat="45.84534" lon="3.5229">
        <ele>301.20001220703</ele>
        <time>2024-05-02T15:13:45.000Z</time>
      </trkpt>
      <trkpt lat="45.84532" lon="3.52285">
        <ele>301.20001220703</ele>
        <time>2024-05-02T15:13:46.000Z</time>
      </trkpt>
      <trkpt lat="45.84531" lon="3.52281">
        <ele>301.20001220703</ele>
        <time>2024-05-02T15:13:47.000Z</time>
      </trkpt>
      <trkpt lat="45.84529" lon="3.52276">
        <ele>301.20001220703</ele>
        <time>2024-05-02T15:13:48.000Z</time>
      </trkpt>
      <trkpt lat="45.84528" lon="3.52273">
        <ele>301.20001220703</ele>
        <time>2024-05-02T15:13:49.000Z</time>
      </trkpt>
      <trkpt lat="45.84527" lon="3.52269">
        <ele>301.39999389648</ele>
        <time>2024-05-02T15:13:50.000Z</time>
      </trkpt>
      <trkpt lat="45.84526" lon="3.52265">
        <ele>301.60000610352</ele>
        <time>2024-05-02T15:13:51.000Z</time>
      </trkpt>
      <trkpt lat="45.84525" lon="3.52262">
        <ele>301.60000610352</ele>
        <time>2024-05-02T15:13:52.000Z</time>
      </trkpt>
      <trkpt lat="45.84524" lon="3.52257">
        <ele>301.60000610352</ele>
        <time>2024-05-02T15:13:53.000Z</time>
      </trkpt>
      <trkpt lat="45.84523" lon="3.52253">
        <ele>301.60000610352</ele>
        <time>2024-05-02T15:13:54.000Z</time>
      </trkpt>
      <trkpt lat="45.84522" lon="3.52249">
        <ele>301.39999389648</ele>
        <time>2024-05-02T15:13:55.000Z</time>
      </trkpt>
      <trkpt lat="45.8452" lon="3.52244">
        <ele>301.20001220703</ele>
        <time>2024-05-02T15:13:56.000Z</time>
      </trkpt>
      <trkpt lat="45.84518" lon="3.52239">
        <ele>301</ele>
        <time>2024-05-02T15:13:57.000Z</time>
      </trkpt>
      <trkpt lat="45.84517" lon="3.52235">
        <ele>301</ele>
        <time>2024-05-02T15:13:58.000Z</time>
      </trkpt>
      <trkpt lat="45.84515" lon="3.5223">
        <ele>300.79998779297</ele>
        <time>2024-05-02T15:13:59.000Z</time>
      </trkpt>
      <trkpt lat="45.84514" lon="3.52226">
        <ele>301</ele>
        <time>2024-05-02T15:14:00.000Z</time>
      </trkpt>
      <trkpt lat="45.84512" lon="3.52222">
        <ele>301.39999389648</ele>
        <time>2024-05-02T15:14:01.000Z</time>
      </trkpt>
      <trkpt lat="45.8451" lon="3.52218">
        <ele>301.39999389648</ele>
        <time>2024-05-02T15:14:02.000Z</time>
      </trkpt>
      <trkpt lat="45.84509" lon="3.52214">
        <ele>301.20001220703</ele>
        <time>2024-05-02T15:14:03.000Z</time>
      </trkpt>
      <trkpt lat="45.84508" lon="3.5221">
        <ele>301.20001220703</ele>
        <time>2024-05-02T15:14:04.000Z</time>
      </trkpt>
      <trkpt lat="45.84508" lon="3.52207">
        <ele>301</ele>
        <time>2024-05-02T15:14:05.000Z</time>
      </trkpt>
      <trkpt lat="45.84509" lon="3.52203">
        <ele>300.79998779297</ele>
        <time>2024-05-02T15:14:06.000Z</time>
      </trkpt>
      <trkpt lat="45.84511" lon="3.522">
        <ele>300.79998779297</ele>
        <time>2024-05-02T15:14:07.000Z</time>
      </trkpt>
      <trkpt lat="45.84514" lon="3.52197">
        <ele>300.79998779297</ele>
        <time>2024-05-02T15:14:08.000Z</time>
      </trkpt>
      <trkpt lat="45.84517" lon="3.52194">
        <ele>301.20001220703</ele>
        <time>2024-05-02T15:14:09.000Z</time>
      </trkpt>
      <trkpt lat="45.8452" lon="3.52191">
        <ele>301</ele>
        <time>2024-05-02T15:14:10.000Z</time>
      </trkpt>
      <trkpt lat="45.84523" lon="3.52188">
        <ele>301</ele>
        <time>2024-05-02T15:14:11.000Z</time>
      </trkpt>
      <trkpt lat="45.84527" lon="3.52186">
        <ele>300.79998779297</ele>
        <time>2024-05-02T15:14:12.000Z</time>
      </trkpt>
      <trkpt lat="45.8453" lon="3.52183">
        <ele>300.60000610352</ele>
        <time>2024-05-02T15:14:13.000Z</time>
      </trkpt>
      <trkpt lat="45.84533" lon="3.52181">
        <ele>300.60000610352</ele>
        <time>2024-05-02T15:14:14.000Z</time>
      </trkpt>
      <trkpt lat="45.84535" lon="3.52178">
        <ele>300.39999389648</ele>
        <time>2024-05-02T15:14:15.000Z</time>
      </trkpt>
      <trkpt lat="45.84538" lon="3.52176">
        <ele>300.20001220703</ele>
        <time>2024-05-02T15:14:16.000Z</time>
      </trkpt>
      <trkpt lat="45.84541" lon="3.52173">
        <ele>300.20001220703</ele>
        <time>2024-05-02T15:14:17.000Z</time>
      </trkpt>
      <trkpt lat="45.84544" lon="3.5217">
        <ele>300</ele>
        <time>2024-05-02T15:14:18.000Z</time>
      </trkpt>
      <trkpt lat="45.84547" lon="3.52167">
        <ele>300</ele>
        <time>2024-05-02T15:14:19.000Z</time>
      </trkpt>
      <trkpt lat="45.8455" lon="3.52165">
        <ele>300.20001220703</ele>
        <time>2024-05-02T15:14:20.000Z</time>
      </trkpt>
      <trkpt lat="45.84554" lon="3.52162">
        <ele>300.20001220703</ele>
        <time>2024-05-02T15:14:21.000Z</time>
      </trkpt>
      <trkpt lat="45.84556" lon="3.5216">
        <ele>300.20001220703</ele>
        <time>2024-05-02T15:14:22.000Z</time>
      </trkpt>
      <trkpt lat="45.84559" lon="3.52158">
        <ele>300</ele>
        <time>2024-05-02T15:14:23.000Z</time>
      </trkpt>
      <trkpt lat="45.84561" lon="3.52157">
        <ele>300</ele>
        <time>2024-05-02T15:14:24.000Z</time>
      </trkpt>
      <trkpt lat="45.84564" lon="3.52156">
        <ele>300</ele>
        <time>2024-05-02T15:14:25.000Z</time>
      </trkpt>
      <trkpt lat="45.84567" lon="3.52155">
        <ele>299.79998779297</ele>
        <time>2024-05-02T15:14:26.000Z</time>
      </trkpt>
      <trkpt lat="45.84571" lon="3.52154">
        <ele>300</ele>
        <time>2024-05-02T15:14:27.000Z</time>
      </trkpt>
      <trkpt lat="45.84574" lon="3.52153">
        <ele>300.20001220703</ele>
        <time>2024-05-02T15:14:28.000Z</time>
      </trkpt>
      <trkpt lat="45.84577" lon="3.52151">
        <ele>300.20001220703</ele>
        <time>2024-05-02T15:14:29.000Z</time>
      </trkpt>
      <trkpt lat="45.8458" lon="3.5215">
        <ele>300.20001220703</ele>
        <time>2024-05-02T15:14:30.000Z</time>
      </trkpt>
      <trkpt lat="45.84583" lon="3.52147">
        <ele>300</ele>
        <time>2024-05-02T15:14:31.000Z</time>
      </trkpt>
      <trkpt lat="45.84586" lon="3.52145">
        <ele>299.79998779297</ele>
        <time>2024-05-02T15:14:32.000Z</time>
      </trkpt>
      <trkpt lat="45.84589" lon="3.52143">
        <ele>299.79998779297</ele>
        <time>2024-05-02T15:14:33.000Z</time>
      </trkpt>
      <trkpt lat="45.84592" lon="3.52141">
        <ele>299.79998779297</ele>
        <time>2024-05-02T15:14:34.000Z</time>
      </trkpt>
      <trkpt lat="45.84595" lon="3.52139">
        <ele>300</ele>
        <time>2024-05-02T15:14:35.000Z</time>
      </trkpt>
      <trkpt lat="45.84598" lon="3.52137">
        <ele>300</ele>
        <time>2024-05-02T15:14:36.000Z</time>
      </trkpt>
      <trkpt lat="45.84602" lon="3.52134">
        <ele>300.20001220703</ele>
        <time>2024-05-02T15:14:37.000Z</time>
      </trkpt>
      <trkpt lat="45.84606" lon="3.52132">
        <ele>300.20001220703</ele>
        <time>2024-05-02T15:14:38.000Z</time>
      </trkpt>
      <trkpt lat="45.84609" lon="3.5213">
        <ele>300.20001220703</ele>
        <time>2024-05-02T15:14:39.000Z</time>
      </trkpt>
      <trkpt lat="45.84612" lon="3.52128">
        <ele>300.20001220703</ele>
        <time>2024-05-02T15:14:40.000Z</time>
      </trkpt>
      <trkpt lat="45.84615" lon="3.52126">
        <ele>300</ele>
        <time>2024-05-02T15:14:41.000Z</time>
      </trkpt>
      <trkpt lat="45.84618" lon="3.52124">
        <ele>299.79998779297</ele>
        <time>2024-05-02T15:14:42.000Z</time>
      </trkpt>
      <trkpt lat="45.84621" lon="3.52123">
        <ele>299.79998779297</ele>
        <time>2024-05-02T15:14:43.000Z</time>
      </trkpt>
      <trkpt lat="45.84624" lon="3.52121">
        <ele>299.60000610352</ele>
        <time>2024-05-02T15:14:44.000Z</time>
      </trkpt>
      <trkpt lat="45.84627" lon="3.5212">
        <ele>299.60000610352</ele>
        <time>2024-05-02T15:14:45.000Z</time>
      </trkpt>
      <trkpt lat="45.8463" lon="3.52118">
        <ele>299.60000610352</ele>
        <time>2024-05-02T15:14:46.000Z</time>
      </trkpt>
      <trkpt lat="45.84632" lon="3.52117">
        <ele>299.60000610352</ele>
        <time>2024-05-02T15:14:47.000Z</time>
      </trkpt>
      <trkpt lat="45.84634" lon="3.52117">
        <ele>299.79998779297</ele>
        <time>2024-05-02T15:14:48.000Z</time>
      </trkpt>
      <trkpt lat="45.84635" lon="3.52116">
        <ele>300</ele>
        <time>2024-05-02T15:14:49.000Z</time>
      </trkpt>
      <trkpt lat="45.84636" lon="3.52116">
        <ele>300.20001220703</ele>
        <time>2024-05-02T15:14:50.000Z</time>
      </trkpt>
      <trkpt lat="45.84637" lon="3.52115">
        <ele>300.20001220703</ele>
        <time>2024-05-02T15:14:51.000Z</time>
      </trkpt>
      <trkpt lat="45.84637" lon="3.52115">
        <ele>300.20001220703</ele>
        <time>2024-05-02T15:14:52.000Z</time>
      </trkpt>
    </trkseg>
  </trk>
</gpx>